<?xml version="1.0" encoding="utf-8"?>
<gpx xmlns:tc2="http://www.garmin.com/xmlschemas/TrainingCenterDatabase/v2" xmlns:xsi="http://www.w3.org/2001/XMLSchema-instance" xmlns:tp1="http://www.garmin.com/xmlschemas/TrackPointExtension/v1" xmlns="http://www.topografix.com/GPX/1/1" version="1.1" creator="TC2 to GPX11 XSLT stylesheet" xsi:schemaLocation="http://www.topografix.com/GPX/1/1 http://www.topografix.com/GPX/1/1/gpx.xsd http://www.garmin.com/xmlschemas/TrackPointExtension/v1 http://www.garmin.com/xmlschemas/TrackPointExtensionv1.xsd">
<trk>
<name>2010-05-07T07:03:53Z</name>
<trkseg>
<trkpt lat="35.2651825" lon="24.3361530">
<ele>330.3502197</ele>
<time>2010-05-07T07:03:53Z</time>
</trkpt>
<trkpt lat="35.2651721" lon="24.3361872">
<ele>328.4276123</ele>
<time>2010-05-07T07:04:00Z</time>
</trkpt>
<trkpt lat="35.2651852" lon="24.3362476">
<ele>324.1015625</ele>
<time>2010-05-07T07:04:07Z</time>
</trkpt>
<trkpt lat="35.2652126" lon="24.3363202">
<ele>320.2563477</ele>
<time>2010-05-07T07:04:15Z</time>
</trkpt>
<trkpt lat="35.2652582" lon="24.3363861">
<ele>316.8917236</ele>
<time>2010-05-07T07:04:23Z</time>
</trkpt>
<trkpt lat="35.2653245" lon="24.3364285">
<ele>314.9691162</ele>
<time>2010-05-07T07:04:31Z</time>
</trkpt>
<trkpt lat="35.2653214" lon="24.3364482">
<ele>314.9691162</ele>
<time>2010-05-07T07:04:36Z</time>
</trkpt>
<trkpt lat="35.2653758" lon="24.3364403">
<ele>314.0078125</ele>
<time>2010-05-07T07:04:41Z</time>
</trkpt>
<trkpt lat="35.2655001" lon="24.3364061">
<ele>312.5657959</ele>
<time>2010-05-07T07:04:51Z</time>
</trkpt>
<trkpt lat="35.2655960" lon="24.3363913">
<ele>312.0852051</ele>
<time>2010-05-07T07:04:59Z</time>
</trkpt>
<trkpt lat="35.2656939" lon="24.3364208">
<ele>311.1237793</ele>
<time>2010-05-07T07:05:08Z</time>
</trkpt>
<trkpt lat="35.2657337" lon="24.3364994">
<ele>310.6430664</ele>
<time>2010-05-07T07:05:15Z</time>
</trkpt>
<trkpt lat="35.2657335" lon="24.3366336">
<ele>309.6818848</ele>
<time>2010-05-07T07:05:24Z</time>
</trkpt>
<trkpt lat="35.2657517" lon="24.3367564">
<ele>309.2011719</ele>
<time>2010-05-07T07:05:33Z</time>
</trkpt>
<trkpt lat="35.2657715" lon="24.3368519">
<ele>310.1624756</ele>
<time>2010-05-07T07:05:40Z</time>
</trkpt>
<trkpt lat="35.2658017" lon="24.3369376">
<ele>309.6818848</ele>
<time>2010-05-07T07:05:47Z</time>
</trkpt>
<trkpt lat="35.2658195" lon="24.3369741">
<ele>308.7204590</ele>
<time>2010-05-07T07:05:50Z</time>
</trkpt>
<trkpt lat="35.2658960" lon="24.3370896">
<ele>308.2398682</ele>
<time>2010-05-07T07:06:00Z</time>
</trkpt>
<trkpt lat="35.2659466" lon="24.3371786">
<ele>306.3172607</ele>
<time>2010-05-07T07:06:08Z</time>
</trkpt>
<trkpt lat="35.2660103" lon="24.3372702">
<ele>306.3172607</ele>
<time>2010-05-07T07:06:17Z</time>
</trkpt>
<trkpt lat="35.2661134" lon="24.3373489">
<ele>304.8752441</ele>
<time>2010-05-07T07:06:27Z</time>
</trkpt>
<trkpt lat="35.2662265" lon="24.3374314">
<ele>304.8752441</ele>
<time>2010-05-07T07:06:38Z</time>
</trkpt>
<trkpt lat="35.2663133" lon="24.3375231">
<ele>304.8752441</ele>
<time>2010-05-07T07:06:48Z</time>
</trkpt>
<trkpt lat="35.2663843" lon="24.3376408">
<ele>304.3946533</ele>
<time>2010-05-07T07:06:58Z</time>
</trkpt>
<trkpt lat="35.2664163" lon="24.3377401">
<ele>302.9525146</ele>
<time>2010-05-07T07:07:06Z</time>
</trkpt>
<trkpt lat="35.2664403" lon="24.3378270">
<ele>301.5106201</ele>
<time>2010-05-07T07:07:14Z</time>
</trkpt>
<trkpt lat="35.2664648" lon="24.3378687">
<ele>303.4332275</ele>
<time>2010-05-07T07:07:24Z</time>
</trkpt>
<trkpt lat="35.2664802" lon="24.3378873">
<ele>303.9139404</ele>
<time>2010-05-07T07:07:30Z</time>
</trkpt>
<trkpt lat="35.2665202" lon="24.3379354">
<ele>302.9525146</ele>
<time>2010-05-07T07:07:36Z</time>
</trkpt>
<trkpt lat="35.2665402" lon="24.3379487">
<ele>303.4332275</ele>
<time>2010-05-07T07:07:38Z</time>
</trkpt>
<trkpt lat="35.2666361" lon="24.3380042">
<ele>303.4332275</ele>
<time>2010-05-07T07:07:47Z</time>
</trkpt>
<trkpt lat="35.2666668" lon="24.3380137">
<ele>303.9139404</ele>
<time>2010-05-07T07:07:50Z</time>
</trkpt>
<trkpt lat="35.2666869" lon="24.3380360">
<ele>303.4332275</ele>
<time>2010-05-07T07:07:58Z</time>
</trkpt>
<trkpt lat="35.2666963" lon="24.3380632">
<ele>302.4719238</ele>
<time>2010-05-07T07:08:08Z</time>
</trkpt>
<trkpt lat="35.2666869" lon="24.3380784">
<ele>303.4332275</ele>
<time>2010-05-07T07:08:15Z</time>
</trkpt>
<trkpt lat="35.2666623" lon="24.3381033">
<ele>303.4332275</ele>
<time>2010-05-07T07:08:20Z</time>
</trkpt>
<trkpt lat="35.2666566" lon="24.3381664">
<ele>301.0299072</ele>
<time>2010-05-07T07:08:26Z</time>
</trkpt>
<trkpt lat="35.2666290" lon="24.3382043">
<ele>299.1072998</ele>
<time>2010-05-07T07:08:32Z</time>
</trkpt>
<trkpt lat="35.2666278" lon="24.3382259">
<ele>297.6654053</ele>
<time>2010-05-07T07:08:37Z</time>
</trkpt>
<trkpt lat="35.2666605" lon="24.3382899">
<ele>297.6654053</ele>
<time>2010-05-07T07:08:44Z</time>
</trkpt>
<trkpt lat="35.2666549" lon="24.3383576">
<ele>298.1461182</ele>
<time>2010-05-07T07:08:51Z</time>
</trkpt>
<trkpt lat="35.2666546" lon="24.3384150">
<ele>298.1461182</ele>
<time>2010-05-07T07:08:58Z</time>
</trkpt>
<trkpt lat="35.2666789" lon="24.3384528">
<ele>298.6267090</ele>
<time>2010-05-07T07:09:05Z</time>
</trkpt>
<trkpt lat="35.2666765" lon="24.3384797">
<ele>299.5880127</ele>
<time>2010-05-07T07:09:13Z</time>
</trkpt>
<trkpt lat="35.2666802" lon="24.3384964">
<ele>301.5106201</ele>
<time>2010-05-07T07:09:20Z</time>
</trkpt>
<trkpt lat="35.2666792" lon="24.3384980">
<ele>302.4719238</ele>
<time>2010-05-07T07:09:25Z</time>
</trkpt>
<trkpt lat="35.2666770" lon="24.3384823">
<ele>303.9139404</ele>
<time>2010-05-07T07:09:36Z</time>
</trkpt>
<trkpt lat="35.2666797" lon="24.3384768">
<ele>306.3172607</ele>
<time>2010-05-07T07:09:46Z</time>
</trkpt>
<trkpt lat="35.2666800" lon="24.3384885">
<ele>307.7592773</ele>
<time>2010-05-07T07:09:56Z</time>
</trkpt>
<trkpt lat="35.2666988" lon="24.3385093">
<ele>308.7204590</ele>
<time>2010-05-07T07:10:03Z</time>
</trkpt>
<trkpt lat="35.2666758" lon="24.3385384">
<ele>308.7204590</ele>
<time>2010-05-07T07:10:10Z</time>
</trkpt>
<trkpt lat="35.2666797" lon="24.3385699">
<ele>307.7592773</ele>
<time>2010-05-07T07:10:26Z</time>
</trkpt>
<trkpt lat="35.2666740" lon="24.3386227">
<ele>305.3559570</ele>
<time>2010-05-07T07:10:32Z</time>
</trkpt>
<trkpt lat="35.2666834" lon="24.3386652">
<ele>303.4332275</ele>
<time>2010-05-07T07:10:37Z</time>
</trkpt>
<trkpt lat="35.2666937" lon="24.3387004">
<ele>302.4719238</ele>
<time>2010-05-07T07:10:42Z</time>
</trkpt>
<trkpt lat="35.2667214" lon="24.3387467">
<ele>302.9525146</ele>
<time>2010-05-07T07:10:48Z</time>
</trkpt>
<trkpt lat="35.2667186" lon="24.3388130">
<ele>301.0299072</ele>
<time>2010-05-07T07:10:55Z</time>
</trkpt>
<trkpt lat="35.2667256" lon="24.3388641">
<ele>299.5880127</ele>
<time>2010-05-07T07:11:01Z</time>
</trkpt>
<trkpt lat="35.2667486" lon="24.3389181">
<ele>299.1072998</ele>
<time>2010-05-07T07:11:07Z</time>
</trkpt>
<trkpt lat="35.2667976" lon="24.3389818">
<ele>299.1072998</ele>
<time>2010-05-07T07:11:15Z</time>
</trkpt>
<trkpt lat="35.2668304" lon="24.3390490">
<ele>298.6267090</ele>
<time>2010-05-07T07:11:23Z</time>
</trkpt>
<trkpt lat="35.2668469" lon="24.3390631">
<ele>297.6654053</ele>
<time>2010-05-07T07:11:29Z</time>
</trkpt>
<trkpt lat="35.2668507" lon="24.3390650">
<ele>297.1846924</ele>
<time>2010-05-07T07:11:30Z</time>
</trkpt>
<trkpt lat="35.2669161" lon="24.3390997">
<ele>297.6654053</ele>
<time>2010-05-07T07:11:38Z</time>
</trkpt>
<trkpt lat="35.2669177" lon="24.3391284">
<ele>297.1846924</ele>
<time>2010-05-07T07:11:43Z</time>
</trkpt>
<trkpt lat="35.2669153" lon="24.3391180">
<ele>297.1846924</ele>
<time>2010-05-07T07:11:47Z</time>
</trkpt>
<trkpt lat="35.2669220" lon="24.3390983">
<ele>299.1072998</ele>
<time>2010-05-07T07:11:59Z</time>
</trkpt>
<trkpt lat="35.2669332" lon="24.3390906">
<ele>299.1072998</ele>
<time>2010-05-07T07:12:03Z</time>
</trkpt>
<trkpt lat="35.2669856" lon="24.3391200">
<ele>298.6267090</ele>
<time>2010-05-07T07:12:10Z</time>
</trkpt>
<trkpt lat="35.2669992" lon="24.3391420">
<ele>299.5880127</ele>
<time>2010-05-07T07:12:18Z</time>
</trkpt>
<trkpt lat="35.2670436" lon="24.3391853">
<ele>299.5880127</ele>
<time>2010-05-07T07:12:25Z</time>
</trkpt>
<trkpt lat="35.2670731" lon="24.3391969">
<ele>300.0687256</ele>
<time>2010-05-07T07:12:31Z</time>
</trkpt>
<trkpt lat="35.2670920" lon="24.3392147">
<ele>300.0687256</ele>
<time>2010-05-07T07:12:38Z</time>
</trkpt>
<trkpt lat="35.2671152" lon="24.3392417">
<ele>299.1072998</ele>
<time>2010-05-07T07:12:45Z</time>
</trkpt>
<trkpt lat="35.2671385" lon="24.3392802">
<ele>298.6267090</ele>
<time>2010-05-07T07:12:51Z</time>
</trkpt>
<trkpt lat="35.2671780" lon="24.3393196">
<ele>297.6654053</ele>
<time>2010-05-07T07:12:57Z</time>
</trkpt>
<trkpt lat="35.2672290" lon="24.3393577">
<ele>298.1461182</ele>
<time>2010-05-07T07:13:03Z</time>
</trkpt>
<trkpt lat="35.2672447" lon="24.3394093">
<ele>297.6654053</ele>
<time>2010-05-07T07:13:09Z</time>
</trkpt>
<trkpt lat="35.2672908" lon="24.3394800">
<ele>294.7813721</ele>
<time>2010-05-07T07:13:16Z</time>
</trkpt>
<trkpt lat="35.2672966" lon="24.3395081">
<ele>294.3007813</ele>
<time>2010-05-07T07:13:18Z</time>
</trkpt>
<trkpt lat="35.2673256" lon="24.3396134">
<ele>290.9361572</ele>
<time>2010-05-07T07:13:27Z</time>
</trkpt>
<trkpt lat="35.2673471" lon="24.3396532">
<ele>292.3781738</ele>
<time>2010-05-07T07:13:30Z</time>
</trkpt>
<trkpt lat="35.2674226" lon="24.3397287">
<ele>293.3393555</ele>
<time>2010-05-07T07:13:37Z</time>
</trkpt>
<trkpt lat="35.2675021" lon="24.3397683">
<ele>294.7813721</ele>
<time>2010-05-07T07:13:44Z</time>
</trkpt>
<trkpt lat="35.2675378" lon="24.3397817">
<ele>299.5880127</ele>
<time>2010-05-07T07:14:03Z</time>
</trkpt>
<trkpt lat="35.2675714" lon="24.3397850">
<ele>299.1072998</ele>
<time>2010-05-07T07:14:07Z</time>
</trkpt>
<trkpt lat="35.2676126" lon="24.3398174">
<ele>298.1461182</ele>
<time>2010-05-07T07:14:13Z</time>
</trkpt>
<trkpt lat="35.2676259" lon="24.3398474">
<ele>297.6654053</ele>
<time>2010-05-07T07:14:17Z</time>
</trkpt>
<trkpt lat="35.2676581" lon="24.3398776">
<ele>296.7041016</ele>
<time>2010-05-07T07:14:22Z</time>
</trkpt>
<trkpt lat="35.2676970" lon="24.3399332">
<ele>295.2619629</ele>
<time>2010-05-07T07:14:29Z</time>
</trkpt>
<trkpt lat="35.2677130" lon="24.3399624">
<ele>293.8200684</ele>
<time>2010-05-07T07:14:34Z</time>
</trkpt>
<trkpt lat="35.2677348" lon="24.3399718">
<ele>292.8587646</ele>
<time>2010-05-07T07:14:38Z</time>
</trkpt>
<trkpt lat="35.2677860" lon="24.3400024">
<ele>294.3007813</ele>
<time>2010-05-07T07:14:45Z</time>
</trkpt>
<trkpt lat="35.2677970" lon="24.3400334">
<ele>296.7041016</ele>
<time>2010-05-07T07:14:53Z</time>
</trkpt>
<trkpt lat="35.2678022" lon="24.3400759">
<ele>295.7426758</ele>
<time>2010-05-07T07:14:59Z</time>
</trkpt>
<trkpt lat="35.2678369" lon="24.3401414">
<ele>295.7426758</ele>
<time>2010-05-07T07:15:05Z</time>
</trkpt>
<trkpt lat="35.2678446" lon="24.3401494">
<ele>296.2235107</ele>
<time>2010-05-07T07:15:06Z</time>
</trkpt>
<trkpt lat="35.2678519" lon="24.3401965">
<ele>294.7813721</ele>
<time>2010-05-07T07:15:10Z</time>
</trkpt>
<trkpt lat="35.2678690" lon="24.3402732">
<ele>290.4555664</ele>
<time>2010-05-07T07:15:18Z</time>
</trkpt>
<trkpt lat="35.2678431" lon="24.3402863">
<ele>294.3007813</ele>
<time>2010-05-07T07:15:26Z</time>
</trkpt>
<trkpt lat="35.2678275" lon="24.3402743">
<ele>297.6654053</ele>
<time>2010-05-07T07:15:42Z</time>
</trkpt>
<trkpt lat="35.2678325" lon="24.3402639">
<ele>298.6267090</ele>
<time>2010-05-07T07:15:54Z</time>
</trkpt>
<trkpt lat="35.2678803" lon="24.3402934">
<ele>295.2619629</ele>
<time>2010-05-07T07:16:01Z</time>
</trkpt>
<trkpt lat="35.2679052" lon="24.3403093">
<ele>293.3393555</ele>
<time>2010-05-07T07:16:08Z</time>
</trkpt>
<trkpt lat="35.2679449" lon="24.3403499">
<ele>290.4555664</ele>
<time>2010-05-07T07:16:15Z</time>
</trkpt>
<trkpt lat="35.2680109" lon="24.3403544">
<ele>292.3781738</ele>
<time>2010-05-07T07:16:22Z</time>
</trkpt>
<trkpt lat="35.2680631" lon="24.3403740">
<ele>293.3393555</ele>
<time>2010-05-07T07:16:28Z</time>
</trkpt>
<trkpt lat="35.2681027" lon="24.3403997">
<ele>293.3393555</ele>
<time>2010-05-07T07:16:35Z</time>
</trkpt>
<trkpt lat="35.2681081" lon="24.3404675">
<ele>291.8974609</ele>
<time>2010-05-07T07:16:45Z</time>
</trkpt>
<trkpt lat="35.2681062" lon="24.3405106">
<ele>290.9361572</ele>
<time>2010-05-07T07:16:52Z</time>
</trkpt>
<trkpt lat="35.2681088" lon="24.3405344">
<ele>292.3781738</ele>
<time>2010-05-07T07:16:59Z</time>
</trkpt>
<trkpt lat="35.2680777" lon="24.3405327">
<ele>298.6267090</ele>
<time>2010-05-07T07:17:04Z</time>
</trkpt>
<trkpt lat="35.2680586" lon="24.3406156">
<ele>299.5880127</ele>
<time>2010-05-07T07:17:15Z</time>
</trkpt>
<trkpt lat="35.2680599" lon="24.3406554">
<ele>299.5880127</ele>
<time>2010-05-07T07:17:21Z</time>
</trkpt>
<trkpt lat="35.2680639" lon="24.3406973">
<ele>301.0299072</ele>
<time>2010-05-07T07:17:32Z</time>
</trkpt>
<trkpt lat="35.2680756" lon="24.3407337">
<ele>300.5493164</ele>
<time>2010-05-07T07:17:39Z</time>
</trkpt>
<trkpt lat="35.2680939" lon="24.3407946">
<ele>300.0687256</ele>
<time>2010-05-07T07:17:45Z</time>
</trkpt>
<trkpt lat="35.2681089" lon="24.3408376">
<ele>300.0687256</ele>
<time>2010-05-07T07:17:52Z</time>
</trkpt>
<trkpt lat="35.2681198" lon="24.3408517">
<ele>299.5880127</ele>
<time>2010-05-07T07:18:00Z</time>
</trkpt>
<trkpt lat="35.2681181" lon="24.3408592">
<ele>298.6267090</ele>
<time>2010-05-07T07:18:07Z</time>
</trkpt>
<trkpt lat="35.2681125" lon="24.3408632">
<ele>299.1072998</ele>
<time>2010-05-07T07:18:16Z</time>
</trkpt>
<trkpt lat="35.2680941" lon="24.3408698">
<ele>302.4719238</ele>
<time>2010-05-07T07:18:44Z</time>
</trkpt>
<trkpt lat="35.2680984" lon="24.3408700">
<ele>302.4719238</ele>
<time>2010-05-07T07:18:54Z</time>
</trkpt>
<trkpt lat="35.2680969" lon="24.3408711">
<ele>302.4719238</ele>
<time>2010-05-07T07:19:07Z</time>
</trkpt>
<trkpt lat="35.2681036" lon="24.3408783">
<ele>302.9525146</ele>
<time>2010-05-07T07:19:16Z</time>
</trkpt>
<trkpt lat="35.2681058" lon="24.3408834">
<ele>301.9913330</ele>
<time>2010-05-07T07:19:28Z</time>
</trkpt>
<trkpt lat="35.2681089" lon="24.3408880">
<ele>301.9913330</ele>
<time>2010-05-07T07:19:38Z</time>
</trkpt>
<trkpt lat="35.2681078" lon="24.3408942">
<ele>301.5106201</ele>
<time>2010-05-07T07:19:46Z</time>
</trkpt>
<trkpt lat="35.2680938" lon="24.3409133">
<ele>301.0299072</ele>
<time>2010-05-07T07:19:54Z</time>
</trkpt>
<trkpt lat="35.2680990" lon="24.3409376">
<ele>299.5880127</ele>
<time>2010-05-07T07:20:00Z</time>
</trkpt>
<trkpt lat="35.2680916" lon="24.3409865">
<ele>297.1846924</ele>
<time>2010-05-07T07:20:07Z</time>
</trkpt>
<trkpt lat="35.2680684" lon="24.3410358">
<ele>294.3007813</ele>
<time>2010-05-07T07:20:16Z</time>
</trkpt>
<trkpt lat="35.2681082" lon="24.3410622">
<ele>295.2619629</ele>
<time>2010-05-07T07:20:27Z</time>
</trkpt>
<trkpt lat="35.2681415" lon="24.3410627">
<ele>293.8200684</ele>
<time>2010-05-07T07:20:36Z</time>
</trkpt>
<trkpt lat="35.2681257" lon="24.3410788">
<ele>292.3781738</ele>
<time>2010-05-07T07:20:59Z</time>
</trkpt>
<trkpt lat="35.2680939" lon="24.3411154">
<ele>289.0135498</ele>
<time>2010-05-07T07:21:12Z</time>
</trkpt>
<trkpt lat="35.2681083" lon="24.3411465">
<ele>287.5714111</ele>
<time>2010-05-07T07:21:20Z</time>
</trkpt>
<trkpt lat="35.2681249" lon="24.3411461">
<ele>287.0908203</ele>
<time>2010-05-07T07:21:30Z</time>
</trkpt>
<trkpt lat="35.2681410" lon="24.3411226">
<ele>287.5714111</ele>
<time>2010-05-07T07:21:43Z</time>
</trkpt>
<trkpt lat="35.2681534" lon="24.3410637">
<ele>290.9361572</ele>
<time>2010-05-07T07:21:50Z</time>
</trkpt>
<trkpt lat="35.2681657" lon="24.3410192">
<ele>294.3007813</ele>
<time>2010-05-07T07:21:56Z</time>
</trkpt>
<trkpt lat="35.2681879" lon="24.3410404">
<ele>297.6654053</ele>
<time>2010-05-07T07:22:06Z</time>
</trkpt>
<trkpt lat="35.2682391" lon="24.3410398">
<ele>297.1846924</ele>
<time>2010-05-07T07:22:16Z</time>
</trkpt>
<trkpt lat="35.2682519" lon="24.3410285">
<ele>302.4719238</ele>
<time>2010-05-07T07:22:24Z</time>
</trkpt>
<trkpt lat="35.2682633" lon="24.3410146">
<ele>300.5493164</ele>
<time>2010-05-07T07:22:38Z</time>
</trkpt>
<trkpt lat="35.2682620" lon="24.3410444">
<ele>299.1072998</ele>
<time>2010-05-07T07:22:47Z</time>
</trkpt>
<trkpt lat="35.2682632" lon="24.3410973">
<ele>296.7041016</ele>
<time>2010-05-07T07:22:55Z</time>
</trkpt>
<trkpt lat="35.2682808" lon="24.3411511">
<ele>291.8974609</ele>
<time>2010-05-07T07:23:04Z</time>
</trkpt>
<trkpt lat="35.2683308" lon="24.3411726">
<ele>291.4167480</ele>
<time>2010-05-07T07:23:30Z</time>
</trkpt>
<trkpt lat="35.2683176" lon="24.3411761">
<ele>290.9361572</ele>
<time>2010-05-07T07:24:11Z</time>
</trkpt>
<trkpt lat="35.2683124" lon="24.3411780">
<ele>292.3781738</ele>
<time>2010-05-07T07:24:23Z</time>
</trkpt>
<trkpt lat="35.2683084" lon="24.3412365">
<ele>305.3559570</ele>
<time>2010-05-07T07:25:01Z</time>
</trkpt>
<trkpt lat="35.2683013" lon="24.3412678">
<ele>300.5493164</ele>
<time>2010-05-07T07:25:07Z</time>
</trkpt>
<trkpt lat="35.2683081" lon="24.3413303">
<ele>296.2235107</ele>
<time>2010-05-07T07:25:13Z</time>
</trkpt>
<trkpt lat="35.2683466" lon="24.3413909">
<ele>293.3393555</ele>
<time>2010-05-07T07:25:20Z</time>
</trkpt>
<trkpt lat="35.2683596" lon="24.3414140">
<ele>292.3781738</ele>
<time>2010-05-07T07:25:22Z</time>
</trkpt>
<trkpt lat="35.2683886" lon="24.3414714">
<ele>290.4555664</ele>
<time>2010-05-07T07:25:29Z</time>
</trkpt>
<trkpt lat="35.2684187" lon="24.3415199">
<ele>288.0522461</ele>
<time>2010-05-07T07:25:36Z</time>
</trkpt>
<trkpt lat="35.2684357" lon="24.3415637">
<ele>286.6102295</ele>
<time>2010-05-07T07:25:42Z</time>
</trkpt>
<trkpt lat="35.2684453" lon="24.3416008">
<ele>283.7261963</ele>
<time>2010-05-07T07:25:49Z</time>
</trkpt>
<trkpt lat="35.2684388" lon="24.3416340">
<ele>283.2456055</ele>
<time>2010-05-07T07:25:54Z</time>
</trkpt>
<trkpt lat="35.2684549" lon="24.3416645">
<ele>296.2235107</ele>
<time>2010-05-07T07:26:03Z</time>
</trkpt>
<trkpt lat="35.2684434" lon="24.3416781">
<ele>295.7426758</ele>
<time>2010-05-07T07:26:17Z</time>
</trkpt>
<trkpt lat="35.2684398" lon="24.3416749">
<ele>302.4719238</ele>
<time>2010-05-07T07:26:26Z</time>
</trkpt>
<trkpt lat="35.2684635" lon="24.3416901">
<ele>300.0687256</ele>
<time>2010-05-07T07:26:30Z</time>
</trkpt>
<trkpt lat="35.2684811" lon="24.3416909">
<ele>299.5880127</ele>
<time>2010-05-07T07:26:35Z</time>
</trkpt>
<trkpt lat="35.2685103" lon="24.3417467">
<ele>296.7041016</ele>
<time>2010-05-07T07:26:41Z</time>
</trkpt>
<trkpt lat="35.2685570" lon="24.3417564">
<ele>290.9361572</ele>
<time>2010-05-07T07:26:48Z</time>
</trkpt>
<trkpt lat="35.2685945" lon="24.3417783">
<ele>284.6876221</ele>
<time>2010-05-07T07:27:03Z</time>
</trkpt>
<trkpt lat="35.2686056" lon="24.3418013">
<ele>284.2069092</ele>
<time>2010-05-07T07:27:13Z</time>
</trkpt>
<trkpt lat="35.2686279" lon="24.3418362">
<ele>283.7261963</ele>
<time>2010-05-07T07:27:23Z</time>
</trkpt>
<trkpt lat="35.2686361" lon="24.3418707">
<ele>284.2069092</ele>
<time>2010-05-07T07:27:29Z</time>
</trkpt>
<trkpt lat="35.2686583" lon="24.3418980">
<ele>283.2456055</ele>
<time>2010-05-07T07:27:34Z</time>
</trkpt>
<trkpt lat="35.2686626" lon="24.3419553">
<ele>288.0522461</ele>
<time>2010-05-07T07:27:40Z</time>
</trkpt>
<trkpt lat="35.2686766" lon="24.3419662">
<ele>291.8974609</ele>
<time>2010-05-07T07:27:47Z</time>
</trkpt>
<trkpt lat="35.2686771" lon="24.3419773">
<ele>291.4167480</ele>
<time>2010-05-07T07:27:55Z</time>
</trkpt>
<trkpt lat="35.2686924" lon="24.3419954">
<ele>289.0135498</ele>
<time>2010-05-07T07:27:59Z</time>
</trkpt>
<trkpt lat="35.2686957" lon="24.3421121">
<ele>284.6876221</ele>
<time>2010-05-07T07:28:15Z</time>
</trkpt>
<trkpt lat="35.2686912" lon="24.3421717">
<ele>288.0522461</ele>
<time>2010-05-07T07:28:22Z</time>
</trkpt>
<trkpt lat="35.2686960" lon="24.3422086">
<ele>285.6488037</ele>
<time>2010-05-07T07:28:29Z</time>
</trkpt>
<trkpt lat="35.2687043" lon="24.3423205">
<ele>288.0522461</ele>
<time>2010-05-07T07:29:09Z</time>
</trkpt>
<trkpt lat="35.2687010" lon="24.3423929">
<ele>283.2456055</ele>
<time>2010-05-07T07:29:20Z</time>
</trkpt>
<trkpt lat="35.2687087" lon="24.3424307">
<ele>281.8035889</ele>
<time>2010-05-07T07:29:25Z</time>
</trkpt>
<trkpt lat="35.2687014" lon="24.3424721">
<ele>280.3616943</ele>
<time>2010-05-07T07:29:30Z</time>
</trkpt>
<trkpt lat="35.2687271" lon="24.3425327">
<ele>276.9970703</ele>
<time>2010-05-07T07:29:39Z</time>
</trkpt>
<trkpt lat="35.2687864" lon="24.3425885">
<ele>272.6711426</ele>
<time>2010-05-07T07:29:47Z</time>
</trkpt>
<trkpt lat="35.2688236" lon="24.3426624">
<ele>270.7484131</ele>
<time>2010-05-07T07:29:56Z</time>
</trkpt>
<trkpt lat="35.2688339" lon="24.3427125">
<ele>270.7484131</ele>
<time>2010-05-07T07:30:00Z</time>
</trkpt>
<trkpt lat="35.2688352" lon="24.3427778">
<ele>272.6711426</ele>
<time>2010-05-07T07:30:05Z</time>
</trkpt>
<trkpt lat="35.2688518" lon="24.3428047">
<ele>273.1518555</ele>
<time>2010-05-07T07:30:10Z</time>
</trkpt>
<trkpt lat="35.2688431" lon="24.3428565">
<ele>274.1130371</ele>
<time>2010-05-07T07:30:16Z</time>
</trkpt>
<trkpt lat="35.2688908" lon="24.3429351">
<ele>279.4002686</ele>
<time>2010-05-07T07:30:43Z</time>
</trkpt>
<trkpt lat="35.2688970" lon="24.3429793">
<ele>279.4002686</ele>
<time>2010-05-07T07:30:48Z</time>
</trkpt>
<trkpt lat="35.2689220" lon="24.3430592">
<ele>279.8808594</ele>
<time>2010-05-07T07:30:57Z</time>
</trkpt>
<trkpt lat="35.2689463" lon="24.3431052">
<ele>277.4776611</ele>
<time>2010-05-07T07:31:03Z</time>
</trkpt>
<trkpt lat="35.2689868" lon="24.3431627">
<ele>275.0744629</ele>
<time>2010-05-07T07:31:10Z</time>
</trkpt>
<trkpt lat="35.2689965" lon="24.3432006">
<ele>275.5550537</ele>
<time>2010-05-07T07:31:13Z</time>
</trkpt>
<trkpt lat="35.2690112" lon="24.3432673">
<ele>277.4776611</ele>
<time>2010-05-07T07:31:18Z</time>
</trkpt>
<trkpt lat="35.2690370" lon="24.3433028">
<ele>276.5163574</ele>
<time>2010-05-07T07:31:23Z</time>
</trkpt>
<trkpt lat="35.2690581" lon="24.3433565">
<ele>278.4389648</ele>
<time>2010-05-07T07:31:28Z</time>
</trkpt>
<trkpt lat="35.2690638" lon="24.3433958">
<ele>276.9970703</ele>
<time>2010-05-07T07:31:32Z</time>
</trkpt>
<trkpt lat="35.2690789" lon="24.3434398">
<ele>275.5550537</ele>
<time>2010-05-07T07:31:37Z</time>
</trkpt>
<trkpt lat="35.2691190" lon="24.3434653">
<ele>272.1904297</ele>
<time>2010-05-07T07:31:42Z</time>
</trkpt>
<trkpt lat="35.2691292" lon="24.3435034">
<ele>273.6324463</ele>
<time>2010-05-07T07:31:46Z</time>
</trkpt>
<trkpt lat="35.2691422" lon="24.3435609">
<ele>274.1130371</ele>
<time>2010-05-07T07:31:52Z</time>
</trkpt>
<trkpt lat="35.2691682" lon="24.3435962">
<ele>272.6711426</ele>
<time>2010-05-07T07:31:56Z</time>
</trkpt>
<trkpt lat="35.2692050" lon="24.3436100">
<ele>271.2291260</ele>
<time>2010-05-07T07:32:00Z</time>
</trkpt>
<trkpt lat="35.2692433" lon="24.3436202">
<ele>276.9970703</ele>
<time>2010-05-07T07:32:05Z</time>
</trkpt>
<trkpt lat="35.2692723" lon="24.3436326">
<ele>276.9970703</ele>
<time>2010-05-07T07:32:09Z</time>
</trkpt>
<trkpt lat="35.2693251" lon="24.3436993">
<ele>277.9582520</ele>
<time>2010-05-07T07:32:19Z</time>
</trkpt>
<trkpt lat="35.2693676" lon="24.3437121">
<ele>276.0356445</ele>
<time>2010-05-07T07:32:24Z</time>
</trkpt>
<trkpt lat="35.2694121" lon="24.3437295">
<ele>277.9582520</ele>
<time>2010-05-07T07:32:29Z</time>
</trkpt>
<trkpt lat="35.2694497" lon="24.3437459">
<ele>276.0356445</ele>
<time>2010-05-07T07:32:35Z</time>
</trkpt>
<trkpt lat="35.2694913" lon="24.3437827">
<ele>273.1518555</ele>
<time>2010-05-07T07:32:42Z</time>
</trkpt>
<trkpt lat="35.2695069" lon="24.3438266">
<ele>270.7484131</ele>
<time>2010-05-07T07:32:50Z</time>
</trkpt>
<trkpt lat="35.2694751" lon="24.3438750">
<ele>276.9970703</ele>
<time>2010-05-07T07:32:56Z</time>
</trkpt>
<trkpt lat="35.2694643" lon="24.3439148">
<ele>277.9582520</ele>
<time>2010-05-07T07:33:01Z</time>
</trkpt>
<trkpt lat="35.2694635" lon="24.3439436">
<ele>278.9196777</ele>
<time>2010-05-07T07:33:07Z</time>
</trkpt>
<trkpt lat="35.2695164" lon="24.3439897">
<ele>276.0356445</ele>
<time>2010-05-07T07:33:15Z</time>
</trkpt>
<trkpt lat="35.2695311" lon="24.3440231">
<ele>276.5163574</ele>
<time>2010-05-07T07:33:21Z</time>
</trkpt>
<trkpt lat="35.2695617" lon="24.3440542">
<ele>283.7261963</ele>
<time>2010-05-07T07:33:27Z</time>
</trkpt>
<trkpt lat="35.2695853" lon="24.3441042">
<ele>281.3229980</ele>
<time>2010-05-07T07:33:33Z</time>
</trkpt>
<trkpt lat="35.2696400" lon="24.3441643">
<ele>273.6324463</ele>
<time>2010-05-07T07:33:42Z</time>
</trkpt>
<trkpt lat="35.2696762" lon="24.3442107">
<ele>270.2677002</ele>
<time>2010-05-07T07:33:48Z</time>
</trkpt>
<trkpt lat="35.2696976" lon="24.3442601">
<ele>264.9805908</ele>
<time>2010-05-07T07:33:54Z</time>
</trkpt>
<trkpt lat="35.2696985" lon="24.3443152">
<ele>265.4613037</ele>
<time>2010-05-07T07:33:59Z</time>
</trkpt>
<trkpt lat="35.2696885" lon="24.3443594">
<ele>265.9418945</ele>
<time>2010-05-07T07:34:02Z</time>
</trkpt>
<trkpt lat="35.2696976" lon="24.3444205">
<ele>260.1739502</ele>
<time>2010-05-07T07:34:09Z</time>
</trkpt>
<trkpt lat="35.2696826" lon="24.3445489">
<ele>267.8645020</ele>
<time>2010-05-07T07:34:25Z</time>
</trkpt>
<trkpt lat="35.2696577" lon="24.3446372">
<ele>268.3450928</ele>
<time>2010-05-07T07:34:33Z</time>
</trkpt>
<trkpt lat="35.2696365" lon="24.3446780">
<ele>268.3450928</ele>
<time>2010-05-07T07:34:37Z</time>
</trkpt>
<trkpt lat="35.2696176" lon="24.3447277">
<ele>268.3450928</ele>
<time>2010-05-07T07:34:42Z</time>
</trkpt>
<trkpt lat="35.2696078" lon="24.3447929">
<ele>270.2677002</ele>
<time>2010-05-07T07:34:48Z</time>
</trkpt>
<trkpt lat="35.2695965" lon="24.3448655">
<ele>270.7484131</ele>
<time>2010-05-07T07:34:58Z</time>
</trkpt>
<trkpt lat="35.2696249" lon="24.3448866">
<ele>264.0192871</ele>
<time>2010-05-07T07:35:08Z</time>
</trkpt>
<trkpt lat="35.2696896" lon="24.3449544">
<ele>254.8865967</ele>
<time>2010-05-07T07:35:33Z</time>
</trkpt>
<trkpt lat="35.2696676" lon="24.3449985">
<ele>255.8480225</ele>
<time>2010-05-07T07:35:37Z</time>
</trkpt>
<trkpt lat="35.2696417" lon="24.3450441">
<ele>257.2900391</ele>
<time>2010-05-07T07:35:40Z</time>
</trkpt>
<trkpt lat="35.2696395" lon="24.3450877">
<ele>258.7319336</ele>
<time>2010-05-07T07:35:45Z</time>
</trkpt>
<trkpt lat="35.2696431" lon="24.3451259">
<ele>259.2126465</ele>
<time>2010-05-07T07:35:49Z</time>
</trkpt>
<trkpt lat="35.2696422" lon="24.3451627">
<ele>258.7319336</ele>
<time>2010-05-07T07:35:53Z</time>
</trkpt>
<trkpt lat="35.2696578" lon="24.3451994">
<ele>257.7707520</ele>
<time>2010-05-07T07:35:59Z</time>
</trkpt>
<trkpt lat="35.2696714" lon="24.3452649">
<ele>258.2513428</ele>
<time>2010-05-07T07:36:07Z</time>
</trkpt>
<trkpt lat="35.2696894" lon="24.3453202">
<ele>256.8093262</ele>
<time>2010-05-07T07:36:13Z</time>
</trkpt>
<trkpt lat="35.2696990" lon="24.3453687">
<ele>254.8865967</ele>
<time>2010-05-07T07:36:20Z</time>
</trkpt>
<trkpt lat="35.2697209" lon="24.3454023">
<ele>253.9254150</ele>
<time>2010-05-07T07:36:25Z</time>
</trkpt>
<trkpt lat="35.2697013" lon="24.3454424">
<ele>256.3287354</ele>
<time>2010-05-07T07:36:30Z</time>
</trkpt>
<trkpt lat="35.2696830" lon="24.3455030">
<ele>264.0192871</ele>
<time>2010-05-07T07:36:40Z</time>
</trkpt>
<trkpt lat="35.2696751" lon="24.3455567">
<ele>264.4998779</ele>
<time>2010-05-07T07:36:46Z</time>
</trkpt>
<trkpt lat="35.2696784" lon="24.3455988">
<ele>264.0192871</ele>
<time>2010-05-07T07:36:51Z</time>
</trkpt>
<trkpt lat="35.2696939" lon="24.3456967">
<ele>266.4224854</ele>
<time>2010-05-07T07:37:01Z</time>
</trkpt>
<trkpt lat="35.2697385" lon="24.3457077">
<ele>264.0192871</ele>
<time>2010-05-07T07:37:07Z</time>
</trkpt>
<trkpt lat="35.2697647" lon="24.3457310">
<ele>260.1739502</ele>
<time>2010-05-07T07:37:13Z</time>
</trkpt>
<trkpt lat="35.2697798" lon="24.3457962">
<ele>261.1352539</ele>
<time>2010-05-07T07:37:24Z</time>
</trkpt>
<trkpt lat="35.2697807" lon="24.3458268">
<ele>262.0965576</ele>
<time>2010-05-07T07:37:28Z</time>
</trkpt>
<trkpt lat="35.2698201" lon="24.3459008">
<ele>262.0965576</ele>
<time>2010-05-07T07:37:37Z</time>
</trkpt>
<trkpt lat="35.2698259" lon="24.3459440">
<ele>262.0965576</ele>
<time>2010-05-07T07:37:41Z</time>
</trkpt>
<trkpt lat="35.2698481" lon="24.3460489">
<ele>285.6488037</ele>
<time>2010-05-07T07:37:51Z</time>
</trkpt>
<trkpt lat="35.2698588" lon="24.3460905">
<ele>300.0687256</ele>
<time>2010-05-07T07:38:05Z</time>
</trkpt>
<trkpt lat="35.2701530" lon="24.3459344">
<ele>275.5550537</ele>
<time>2010-05-07T07:39:43Z</time>
</trkpt>
<trkpt lat="35.2700375" lon="24.3460208">
<ele>280.3616943</ele>
<time>2010-05-07T07:40:20Z</time>
</trkpt>
<trkpt lat="35.2700306" lon="24.3459971">
<ele>280.8424072</ele>
<time>2010-05-07T07:40:26Z</time>
</trkpt>
<trkpt lat="35.2701190" lon="24.3458929">
<ele>282.7650146</ele>
<time>2010-05-07T07:40:52Z</time>
</trkpt>
<trkpt lat="35.2702270" lon="24.3458152">
<ele>278.4389648</ele>
<time>2010-05-07T07:40:58Z</time>
</trkpt>
<trkpt lat="35.2703098" lon="24.3458344">
<ele>264.9805908</ele>
<time>2010-05-07T07:41:09Z</time>
</trkpt>
<trkpt lat="35.2704500" lon="24.3456895">
<ele>259.6933594</ele>
<time>2010-05-07T07:41:20Z</time>
</trkpt>
<trkpt lat="35.2704034" lon="24.3456439">
<ele>261.6159668</ele>
<time>2010-05-07T07:41:32Z</time>
</trkpt>
<trkpt lat="35.2703254" lon="24.3457201">
<ele>256.3287354</ele>
<time>2010-05-07T07:41:39Z</time>
</trkpt>
<trkpt lat="35.2702530" lon="24.3459215">
<ele>296.2235107</ele>
<time>2010-05-07T07:42:13Z</time>
</trkpt>
<trkpt lat="35.2702601" lon="24.3459573">
<ele>301.0299072</ele>
<time>2010-05-07T07:42:39Z</time>
</trkpt>
<trkpt lat="35.2702927" lon="24.3459220">
<ele>301.9913330</ele>
<time>2010-05-07T07:42:44Z</time>
</trkpt>
<trkpt lat="35.2703558" lon="24.3458811">
<ele>321.6983643</ele>
<time>2010-05-07T07:43:00Z</time>
</trkpt>
<trkpt lat="35.2703850" lon="24.3459257">
<ele>327.9467773</ele>
<time>2010-05-07T07:43:49Z</time>
</trkpt>
<trkpt lat="35.2704198" lon="24.3459257">
<ele>319.7756348</ele>
<time>2010-05-07T07:43:53Z</time>
</trkpt>
<trkpt lat="35.2704492" lon="24.3459240">
<ele>315.9304199</ele>
<time>2010-05-07T07:43:57Z</time>
</trkpt>
<trkpt lat="35.2704868" lon="24.3459370">
<ele>314.9691162</ele>
<time>2010-05-07T07:44:04Z</time>
</trkpt>
<trkpt lat="35.2706391" lon="24.3460284">
<ele>333.2341309</ele>
<time>2010-05-07T07:45:06Z</time>
</trkpt>
<trkpt lat="35.2706896" lon="24.3459947">
<ele>313.5272217</ele>
<time>2010-05-07T07:45:11Z</time>
</trkpt>
<trkpt lat="35.2707282" lon="24.3459650">
<ele>290.4555664</ele>
<time>2010-05-07T07:45:16Z</time>
</trkpt>
<trkpt lat="35.2707911" lon="24.3459392">
<ele>270.2677002</ele>
<time>2010-05-07T07:45:22Z</time>
</trkpt>
<trkpt lat="35.2708252" lon="24.3459190">
<ele>263.5385742</ele>
<time>2010-05-07T07:45:26Z</time>
</trkpt>
<trkpt lat="35.2708630" lon="24.3459107">
<ele>260.6545410</ele>
<time>2010-05-07T07:45:31Z</time>
</trkpt>
<trkpt lat="35.2709049" lon="24.3459034">
<ele>260.6545410</ele>
<time>2010-05-07T07:45:36Z</time>
</trkpt>
<trkpt lat="35.2709517" lon="24.3459266">
<ele>259.2126465</ele>
<time>2010-05-07T07:45:44Z</time>
</trkpt>
<trkpt lat="35.2709341" lon="24.3461091">
<ele>252.4833984</ele>
<time>2010-05-07T07:46:38Z</time>
</trkpt>
<trkpt lat="35.2710061" lon="24.3461872">
<ele>269.3065186</ele>
<time>2010-05-07T07:47:07Z</time>
</trkpt>
<trkpt lat="35.2710511" lon="24.3461972">
<ele>266.4224854</ele>
<time>2010-05-07T07:47:12Z</time>
</trkpt>
<trkpt lat="35.2710520" lon="24.3462449">
<ele>266.9031982</ele>
<time>2010-05-07T07:47:17Z</time>
</trkpt>
<trkpt lat="35.2710626" lon="24.3463161">
<ele>274.1130371</ele>
<time>2010-05-07T07:47:23Z</time>
</trkpt>
<trkpt lat="35.2711096" lon="24.3463687">
<ele>278.4389648</ele>
<time>2010-05-07T07:47:34Z</time>
</trkpt>
<trkpt lat="35.2712084" lon="24.3464028">
<ele>275.0744629</ele>
<time>2010-05-07T07:47:42Z</time>
</trkpt>
<trkpt lat="35.2712226" lon="24.3464085">
<ele>275.0744629</ele>
<time>2010-05-07T07:47:48Z</time>
</trkpt>
<trkpt lat="35.2712296" lon="24.3465215">
<ele>260.6545410</ele>
<time>2010-05-07T07:48:50Z</time>
</trkpt>
<trkpt lat="35.2711627" lon="24.3466592">
<ele>265.4613037</ele>
<time>2010-05-07T07:49:03Z</time>
</trkpt>
<trkpt lat="35.2710191" lon="24.3468420">
<ele>278.9196777</ele>
<time>2010-05-07T07:49:09Z</time>
</trkpt>
<trkpt lat="35.2710045" lon="24.3468105">
<ele>286.6102295</ele>
<time>2010-05-07T07:49:14Z</time>
</trkpt>
<trkpt lat="35.2710087" lon="24.3467932">
<ele>287.5714111</ele>
<time>2010-05-07T07:49:15Z</time>
</trkpt>
<trkpt lat="35.2709894" lon="24.3467208">
<ele>284.6876221</ele>
<time>2010-05-07T07:49:21Z</time>
</trkpt>
<trkpt lat="35.2709457" lon="24.3467300">
<ele>287.0908203</ele>
<time>2010-05-07T07:49:25Z</time>
</trkpt>
<trkpt lat="35.2709356" lon="24.3467586">
<ele>287.0908203</ele>
<time>2010-05-07T07:49:30Z</time>
</trkpt>
<trkpt lat="35.2709698" lon="24.3468080">
<ele>204.4174805</ele>
<time>2010-05-07T07:49:52Z</time>
</trkpt>
<trkpt lat="35.2709742" lon="24.3468352">
<ele>191.4395752</ele>
<time>2010-05-07T07:49:57Z</time>
</trkpt>
<trkpt lat="35.2709982" lon="24.3468370">
<ele>171.2520752</ele>
<time>2010-05-07T07:50:03Z</time>
</trkpt>
<trkpt lat="35.2709895" lon="24.3468505">
<ele>171.7326660</ele>
<time>2010-05-07T07:50:07Z</time>
</trkpt>
<trkpt lat="35.2709771" lon="24.3468209">
<ele>177.5006104</ele>
<time>2010-05-07T07:50:11Z</time>
</trkpt>
<trkpt lat="35.2710770" lon="24.3466204">
<ele>263.0578613</ele>
<time>2010-05-07T07:50:38Z</time>
</trkpt>
<trkpt lat="35.2711053" lon="24.3465897">
<ele>301.9913330</ele>
<time>2010-05-07T07:50:47Z</time>
</trkpt>
<trkpt lat="35.2710946" lon="24.3465416">
<ele>307.7592773</ele>
<time>2010-05-07T07:50:48Z</time>
</trkpt>
<trkpt lat="35.2710761" lon="24.3464675">
<ele>313.5272217</ele>
<time>2010-05-07T07:50:53Z</time>
</trkpt>
<trkpt lat="35.2711383" lon="24.3464696">
<ele>326.9855957</ele>
<time>2010-05-07T07:51:01Z</time>
</trkpt>
<trkpt lat="35.2712215" lon="24.3464159">
<ele>346.2120361</ele>
<time>2010-05-07T07:51:10Z</time>
</trkpt>
<trkpt lat="35.2709302" lon="24.3463380">
<ele>304.3946533</ele>
<time>2010-05-07T07:51:15Z</time>
</trkpt>
<trkpt lat="35.2710159" lon="24.3464675">
<ele>300.0687256</ele>
<time>2010-05-07T07:51:22Z</time>
</trkpt>
<trkpt lat="35.2710875" lon="24.3465907">
<ele>310.6430664</ele>
<time>2010-05-07T07:51:29Z</time>
</trkpt>
<trkpt lat="35.2710251" lon="24.3466476">
<ele>306.7978516</ele>
<time>2010-05-07T07:51:37Z</time>
</trkpt>
<trkpt lat="35.2710945" lon="24.3466308">
<ele>279.4002686</ele>
<time>2010-05-07T07:51:48Z</time>
</trkpt>
<trkpt lat="35.2711139" lon="24.3466395">
<ele>264.0192871</ele>
<time>2010-05-07T07:51:55Z</time>
</trkpt>
<trkpt lat="35.2711255" lon="24.3467851">
<ele>267.8645020</ele>
<time>2010-05-07T07:52:02Z</time>
</trkpt>
<trkpt lat="35.2711930" lon="24.3467172">
<ele>267.3839111</ele>
<time>2010-05-07T07:52:06Z</time>
</trkpt>
<trkpt lat="35.2712101" lon="24.3466779">
<ele>258.2513428</ele>
<time>2010-05-07T07:52:12Z</time>
</trkpt>
<trkpt lat="35.2711965" lon="24.3467224">
<ele>244.3122559</ele>
<time>2010-05-07T07:52:16Z</time>
</trkpt>
<trkpt lat="35.2711802" lon="24.3468030">
<ele>235.6602783</ele>
<time>2010-05-07T07:52:46Z</time>
</trkpt>
<trkpt lat="35.2710972" lon="24.3468657">
<ele>233.7376709</ele>
<time>2010-05-07T07:53:01Z</time>
</trkpt>
<trkpt lat="35.2711359" lon="24.3467942">
<ele>227.9697266</ele>
<time>2010-05-07T07:53:07Z</time>
</trkpt>
<trkpt lat="35.2711462" lon="24.3468098">
<ele>213.0693359</ele>
<time>2010-05-07T07:53:12Z</time>
</trkpt>
<trkpt lat="35.2711732" lon="24.3468245">
<ele>204.8980713</ele>
<time>2010-05-07T07:53:17Z</time>
</trkpt>
<trkpt lat="35.2711528" lon="24.3467665">
<ele>229.4117432</ele>
<time>2010-05-07T07:54:13Z</time>
</trkpt>
<trkpt lat="35.2710781" lon="24.3468182">
<ele>226.5278320</ele>
<time>2010-05-07T07:54:18Z</time>
</trkpt>
<trkpt lat="35.2711540" lon="24.3466611">
<ele>235.6602783</ele>
<time>2010-05-07T07:54:27Z</time>
</trkpt>
<trkpt lat="35.2711344" lon="24.3467334">
<ele>225.5665283</ele>
<time>2010-05-07T07:55:06Z</time>
</trkpt>
<trkpt lat="35.2711372" lon="24.3466110">
<ele>233.2570801</ele>
<time>2010-05-07T07:55:34Z</time>
</trkpt>
<trkpt lat="35.2711106" lon="24.3465822">
<ele>241.4282227</ele>
<time>2010-05-07T07:55:48Z</time>
</trkpt>
<trkpt lat="35.2714116" lon="24.3465261">
<ele>275.5550537</ele>
<time>2010-05-07T07:59:30Z</time>
</trkpt>
<trkpt lat="35.2713964" lon="24.3465225">
<ele>268.8258057</ele>
<time>2010-05-07T07:59:35Z</time>
</trkpt>
<trkpt lat="35.2715275" lon="24.3463443">
<ele>240.9476318</ele>
<time>2010-05-07T08:00:19Z</time>
</trkpt>
<trkpt lat="35.2715214" lon="24.3464536">
<ele>244.7928467</ele>
<time>2010-05-07T08:00:27Z</time>
</trkpt>
<trkpt lat="35.2715070" lon="24.3465194">
<ele>254.8865967</ele>
<time>2010-05-07T08:00:32Z</time>
</trkpt>
<trkpt lat="35.2714922" lon="24.3466023">
<ele>264.4998779</ele>
<time>2010-05-07T08:00:38Z</time>
</trkpt>
<trkpt lat="35.2714878" lon="24.3466287">
<ele>263.0578613</ele>
<time>2010-05-07T08:00:40Z</time>
</trkpt>
<trkpt lat="35.2714886" lon="24.3465897">
<ele>262.0965576</ele>
<time>2010-05-07T08:00:46Z</time>
</trkpt>
<trkpt lat="35.2715404" lon="24.3464799">
<ele>266.9031982</ele>
<time>2010-05-07T08:00:52Z</time>
</trkpt>
<trkpt lat="35.2715945" lon="24.3463846">
<ele>270.7484131</ele>
<time>2010-05-07T08:00:59Z</time>
</trkpt>
<trkpt lat="35.2716794" lon="24.3463302">
<ele>269.3065186</ele>
<time>2010-05-07T08:01:14Z</time>
</trkpt>
<trkpt lat="35.2716238" lon="24.3464054">
<ele>269.7871094</ele>
<time>2010-05-07T08:01:19Z</time>
</trkpt>
<trkpt lat="35.2715513" lon="24.3464777">
<ele>268.3450928</ele>
<time>2010-05-07T08:01:23Z</time>
</trkpt>
<trkpt lat="35.2714663" lon="24.3465808">
<ele>270.2677002</ele>
<time>2010-05-07T08:01:29Z</time>
</trkpt>
<trkpt lat="35.2714981" lon="24.3466049">
<ele>271.2291260</ele>
<time>2010-05-07T08:01:36Z</time>
</trkpt>
<trkpt lat="35.2715131" lon="24.3466547">
<ele>270.7484131</ele>
<time>2010-05-07T08:01:39Z</time>
</trkpt>
<trkpt lat="35.2715609" lon="24.3467300">
<ele>268.3450928</ele>
<time>2010-05-07T08:01:46Z</time>
</trkpt>
<trkpt lat="35.2715157" lon="24.3468626">
<ele>272.6711426</ele>
<time>2010-05-07T08:01:53Z</time>
</trkpt>
<trkpt lat="35.2714556" lon="24.3468929">
<ele>277.9582520</ele>
<time>2010-05-07T08:01:59Z</time>
</trkpt>
<trkpt lat="35.2714511" lon="24.3469390">
<ele>277.9582520</ele>
<time>2010-05-07T08:02:02Z</time>
</trkpt>
<trkpt lat="35.2714961" lon="24.3468994">
<ele>271.2291260</ele>
<time>2010-05-07T08:02:07Z</time>
</trkpt>
<trkpt lat="35.2715883" lon="24.3468240">
<ele>250.5607910</ele>
<time>2010-05-07T08:02:16Z</time>
</trkpt>
<trkpt lat="35.2715587" lon="24.3468412">
<ele>249.1187744</ele>
<time>2010-05-07T08:02:19Z</time>
</trkpt>
<trkpt lat="35.2714832" lon="24.3468782">
<ele>241.4282227</ele>
<time>2010-05-07T08:02:24Z</time>
</trkpt>
<trkpt lat="35.2716215" lon="24.3468052">
<ele>244.7928467</ele>
<time>2010-05-07T08:02:29Z</time>
</trkpt>
<trkpt lat="35.2716592" lon="24.3467680">
<ele>238.0635986</ele>
<time>2010-05-07T08:02:34Z</time>
</trkpt>
<trkpt lat="35.2716159" lon="24.3468711">
<ele>250.5607910</ele>
<time>2010-05-07T08:02:46Z</time>
</trkpt>
<trkpt lat="35.2716669" lon="24.3467872">
<ele>252.9639893</ele>
<time>2010-05-07T08:02:57Z</time>
</trkpt>
<trkpt lat="35.2718022" lon="24.3466598">
<ele>253.9254150</ele>
<time>2010-05-07T08:03:01Z</time>
</trkpt>
<trkpt lat="35.2717339" lon="24.3467254">
<ele>256.3287354</ele>
<time>2010-05-07T08:03:05Z</time>
</trkpt>
<trkpt lat="35.2716907" lon="24.3468087">
<ele>244.3122559</ele>
<time>2010-05-07T08:03:08Z</time>
</trkpt>
<trkpt lat="35.2716791" lon="24.3469183">
<ele>247.1960449</ele>
<time>2010-05-07T08:03:14Z</time>
</trkpt>
<trkpt lat="35.2716986" lon="24.3469202">
<ele>248.6381836</ele>
<time>2010-05-07T08:03:15Z</time>
</trkpt>
<trkpt lat="35.2717297" lon="24.3469619">
<ele>259.2126465</ele>
<time>2010-05-07T08:03:22Z</time>
</trkpt>
<trkpt lat="35.2717591" lon="24.3470482">
<ele>261.6159668</ele>
<time>2010-05-07T08:03:27Z</time>
</trkpt>
<trkpt lat="35.2717681" lon="24.3470068">
<ele>264.9805908</ele>
<time>2010-05-07T08:03:31Z</time>
</trkpt>
<trkpt lat="35.2717509" lon="24.3470845">
<ele>270.7484131</ele>
<time>2010-05-07T08:03:35Z</time>
</trkpt>
<trkpt lat="35.2717407" lon="24.3471855">
<ele>273.1518555</ele>
<time>2010-05-07T08:03:40Z</time>
</trkpt>
<trkpt lat="35.2717938" lon="24.3471628">
<ele>272.6711426</ele>
<time>2010-05-07T08:03:44Z</time>
</trkpt>
<trkpt lat="35.2718659" lon="24.3470886">
<ele>265.9418945</ele>
<time>2010-05-07T08:03:53Z</time>
</trkpt>
<trkpt lat="35.2717252" lon="24.3471726">
<ele>254.4060059</ele>
<time>2010-05-07T08:04:05Z</time>
</trkpt>
<trkpt lat="35.2717302" lon="24.3472176">
<ele>267.3839111</ele>
<time>2010-05-07T08:04:13Z</time>
</trkpt>
<trkpt lat="35.2716649" lon="24.3472582">
<ele>282.2843018</ele>
<time>2010-05-07T08:04:18Z</time>
</trkpt>
<trkpt lat="35.2716865" lon="24.3473041">
<ele>296.2235107</ele>
<time>2010-05-07T08:04:26Z</time>
</trkpt>
<trkpt lat="35.2718074" lon="24.3472506">
<ele>301.5106201</ele>
<time>2010-05-07T08:04:32Z</time>
</trkpt>
<trkpt lat="35.2721440" lon="24.3468079">
<ele>265.4613037</ele>
<time>2010-05-07T08:05:59Z</time>
</trkpt>
<trkpt lat="35.2721444" lon="24.3468818">
<ele>264.0192871</ele>
<time>2010-05-07T08:06:06Z</time>
</trkpt>
<trkpt lat="35.2721653" lon="24.3466530">
<ele>264.9805908</ele>
<time>2010-05-07T08:06:09Z</time>
</trkpt>
<trkpt lat="35.2721280" lon="24.3467080">
<ele>259.2126465</ele>
<time>2010-05-07T08:06:16Z</time>
</trkpt>
<trkpt lat="35.2720182" lon="24.3470124">
<ele>277.9582520</ele>
<time>2010-05-07T08:06:37Z</time>
</trkpt>
<trkpt lat="35.2719291" lon="24.3471342">
<ele>274.5937500</ele>
<time>2010-05-07T08:07:01Z</time>
</trkpt>
<trkpt lat="35.2719064" lon="24.3471110">
<ele>274.5937500</ele>
<time>2010-05-07T08:07:07Z</time>
</trkpt>
<trkpt lat="35.2718378" lon="24.3472353">
<ele>309.6818848</ele>
<time>2010-05-07T08:07:23Z</time>
</trkpt>
<trkpt lat="35.2718732" lon="24.3472000">
<ele>308.7204590</ele>
<time>2010-05-07T08:07:29Z</time>
</trkpt>
<trkpt lat="35.2720364" lon="24.3470488">
<ele>278.9196777</ele>
<time>2010-05-07T08:07:58Z</time>
</trkpt>
<trkpt lat="35.2720177" lon="24.3470239">
<ele>277.9582520</ele>
<time>2010-05-07T08:08:02Z</time>
</trkpt>
<trkpt lat="35.2719959" lon="24.3471063">
<ele>278.4389648</ele>
<time>2010-05-07T08:08:16Z</time>
</trkpt>
<trkpt lat="35.2719592" lon="24.3471745">
<ele>278.4389648</ele>
<time>2010-05-07T08:08:21Z</time>
</trkpt>
<trkpt lat="35.2719025" lon="24.3474036">
<ele>311.6044922</ele>
<time>2010-05-07T08:08:46Z</time>
</trkpt>
<trkpt lat="35.2718041" lon="24.3474030">
<ele>329.3889160</ele>
<time>2010-05-07T08:08:53Z</time>
</trkpt>
<trkpt lat="35.2717579" lon="24.3473821">
<ele>322.1789551</ele>
<time>2010-05-07T08:09:01Z</time>
</trkpt>
<trkpt lat="35.2716566" lon="24.3474918">
<ele>313.0465088</ele>
<time>2010-05-07T08:09:14Z</time>
</trkpt>
<trkpt lat="35.2721890" lon="24.3472207">
<ele>249.5994873</ele>
<time>2010-05-07T08:10:24Z</time>
</trkpt>
<trkpt lat="35.2720917" lon="24.3472926">
<ele>240.4670410</ele>
<time>2010-05-07T08:10:31Z</time>
</trkpt>
<trkpt lat="35.2720725" lon="24.3472973">
<ele>236.6217041</ele>
<time>2010-05-07T08:10:34Z</time>
</trkpt>
<trkpt lat="35.2721437" lon="24.3472824">
<ele>235.6602783</ele>
<time>2010-05-07T08:10:38Z</time>
</trkpt>
<trkpt lat="35.2721451" lon="24.3472896">
<ele>247.6767578</ele>
<time>2010-05-07T08:10:42Z</time>
</trkpt>
<trkpt lat="35.2720690" lon="24.3473171">
<ele>265.9418945</ele>
<time>2010-05-07T08:12:03Z</time>
</trkpt>
<trkpt lat="35.2718600" lon="24.3474725">
<ele>304.3946533</ele>
<time>2010-05-07T08:12:50Z</time>
</trkpt>
<trkpt lat="35.2717699" lon="24.3474657">
<ele>310.6430664</ele>
<time>2010-05-07T08:13:24Z</time>
</trkpt>
<trkpt lat="35.2716302" lon="24.3474902">
<ele>307.2785645</ele>
<time>2010-05-07T08:13:32Z</time>
</trkpt>
<trkpt lat="35.2716456" lon="24.3474671">
<ele>309.2011719</ele>
<time>2010-05-07T08:13:37Z</time>
</trkpt>
<trkpt lat="35.2716100" lon="24.3474237">
<ele>306.7978516</ele>
<time>2010-05-07T08:14:14Z</time>
</trkpt>
<trkpt lat="35.2718697" lon="24.3473632">
<ele>293.8200684</ele>
<time>2010-05-07T08:14:27Z</time>
</trkpt>
<trkpt lat="35.2717991" lon="24.3474386">
<ele>300.0687256</ele>
<time>2010-05-07T08:14:43Z</time>
</trkpt>
<trkpt lat="35.2718507" lon="24.3473560">
<ele>282.2843018</ele>
<time>2010-05-07T08:15:08Z</time>
</trkpt>
<trkpt lat="35.2720643" lon="24.3473615">
<ele>271.2291260</ele>
<time>2010-05-07T08:15:40Z</time>
</trkpt>
<trkpt lat="35.2720467" lon="24.3473120">
<ele>271.2291260</ele>
<time>2010-05-07T08:15:46Z</time>
</trkpt>
<trkpt lat="35.2721622" lon="24.3474099">
<ele>287.0908203</ele>
<time>2010-05-07T08:16:01Z</time>
</trkpt>
<trkpt lat="35.2721800" lon="24.3473839">
<ele>282.7650146</ele>
<time>2010-05-07T08:16:07Z</time>
</trkpt>
<trkpt lat="35.2721010" lon="24.3474967">
<ele>311.6044922</ele>
<time>2010-05-07T08:16:15Z</time>
</trkpt>
<trkpt lat="35.2720426" lon="24.3475167">
<ele>328.9083252</ele>
<time>2010-05-07T08:16:21Z</time>
</trkpt>
<trkpt lat="35.2719671" lon="24.3475835">
<ele>377.9354248</ele>
<time>2010-05-07T08:16:55Z</time>
</trkpt>
<trkpt lat="35.2719612" lon="24.3475336">
<ele>384.6647949</ele>
<time>2010-05-07T08:17:01Z</time>
</trkpt>
<trkpt lat="35.2722437" lon="24.3473648">
<ele>389.4711914</ele>
<time>2010-05-07T08:18:19Z</time>
</trkpt>
<trkpt lat="35.2722689" lon="24.3473447">
<ele>388.0292969</ele>
<time>2010-05-07T08:18:20Z</time>
</trkpt>
<trkpt lat="35.2723776" lon="24.3472767">
<ele>365.4383545</ele>
<time>2010-05-07T08:18:26Z</time>
</trkpt>
<trkpt lat="35.2725232" lon="24.3471564">
<ele>331.7921143</ele>
<time>2010-05-07T08:18:38Z</time>
</trkpt>
<trkpt lat="35.2725594" lon="24.3471325">
<ele>322.6596680</ele>
<time>2010-05-07T08:18:44Z</time>
</trkpt>
<trkpt lat="35.2726123" lon="24.3470960">
<ele>316.4110107</ele>
<time>2010-05-07T08:18:49Z</time>
</trkpt>
<trkpt lat="35.2726622" lon="24.3470675">
<ele>308.2398682</ele>
<time>2010-05-07T08:18:55Z</time>
</trkpt>
<trkpt lat="35.2727221" lon="24.3471063">
<ele>290.4555664</ele>
<time>2010-05-07T08:19:26Z</time>
</trkpt>
<trkpt lat="35.2727609" lon="24.3470793">
<ele>282.7650146</ele>
<time>2010-05-07T08:19:31Z</time>
</trkpt>
<trkpt lat="35.2728067" lon="24.3470301">
<ele>272.6711426</ele>
<time>2010-05-07T08:19:35Z</time>
</trkpt>
<trkpt lat="35.2728761" lon="24.3469866">
<ele>258.7319336</ele>
<time>2010-05-07T08:19:41Z</time>
</trkpt>
<trkpt lat="35.2729102" lon="24.3469931">
<ele>253.4447021</ele>
<time>2010-05-07T08:19:46Z</time>
</trkpt>
<trkpt lat="35.2729565" lon="24.3469970">
<ele>250.5607910</ele>
<time>2010-05-07T08:19:52Z</time>
</trkpt>
<trkpt lat="35.2730062" lon="24.3470144">
<ele>247.1960449</ele>
<time>2010-05-07T08:19:56Z</time>
</trkpt>
<trkpt lat="35.2730334" lon="24.3470198">
<ele>246.7154541</ele>
<time>2010-05-07T08:19:59Z</time>
</trkpt>
<trkpt lat="35.2730786" lon="24.3470452">
<ele>243.3508301</ele>
<time>2010-05-07T08:20:05Z</time>
</trkpt>
<trkpt lat="35.2731464" lon="24.3470525">
<ele>240.9476318</ele>
<time>2010-05-07T08:20:20Z</time>
</trkpt>
<trkpt lat="35.2731760" lon="24.3470813">
<ele>241.9089355</ele>
<time>2010-05-07T08:20:24Z</time>
</trkpt>
<trkpt lat="35.2731913" lon="24.3471079">
<ele>243.3508301</ele>
<time>2010-05-07T08:20:26Z</time>
</trkpt>
<trkpt lat="35.2731999" lon="24.3471607">
<ele>241.9089355</ele>
<time>2010-05-07T08:20:33Z</time>
</trkpt>
<trkpt lat="35.2732283" lon="24.3472004">
<ele>242.3896484</ele>
<time>2010-05-07T08:20:40Z</time>
</trkpt>
<trkpt lat="35.2732423" lon="24.3472314">
<ele>242.8702393</ele>
<time>2010-05-07T08:20:45Z</time>
</trkpt>
<trkpt lat="35.2732662" lon="24.3472575">
<ele>244.3122559</ele>
<time>2010-05-07T08:20:49Z</time>
</trkpt>
<trkpt lat="35.2732966" lon="24.3473273">
<ele>247.6767578</ele>
<time>2010-05-07T08:20:59Z</time>
</trkpt>
<trkpt lat="35.2733361" lon="24.3473648">
<ele>245.2734375</ele>
<time>2010-05-07T08:21:04Z</time>
</trkpt>
<trkpt lat="35.2733889" lon="24.3474101">
<ele>243.3508301</ele>
<time>2010-05-07T08:21:10Z</time>
</trkpt>
<trkpt lat="35.2734335" lon="24.3474301">
<ele>243.3508301</ele>
<time>2010-05-07T08:21:14Z</time>
</trkpt>
<trkpt lat="35.2734593" lon="24.3474684">
<ele>244.3122559</ele>
<time>2010-05-07T08:21:23Z</time>
</trkpt>
<trkpt lat="35.2734267" lon="24.3475450">
<ele>255.3673096</ele>
<time>2010-05-07T08:21:32Z</time>
</trkpt>
<trkpt lat="35.2734167" lon="24.3475733">
<ele>255.8480225</ele>
<time>2010-05-07T08:21:36Z</time>
</trkpt>
<trkpt lat="35.2734250" lon="24.3476020">
<ele>258.2513428</ele>
<time>2010-05-07T08:21:40Z</time>
</trkpt>
<trkpt lat="35.2734354" lon="24.3476068">
<ele>258.2513428</ele>
<time>2010-05-07T08:21:43Z</time>
</trkpt>
<trkpt lat="35.2734448" lon="24.3476165">
<ele>260.1739502</ele>
<time>2010-05-07T08:21:50Z</time>
</trkpt>
<trkpt lat="35.2734609" lon="24.3476497">
<ele>259.2126465</ele>
<time>2010-05-07T08:21:54Z</time>
</trkpt>
<trkpt lat="35.2734784" lon="24.3477004">
<ele>260.6545410</ele>
<time>2010-05-07T08:22:01Z</time>
</trkpt>
<trkpt lat="35.2734997" lon="24.3477594">
<ele>261.6159668</ele>
<time>2010-05-07T08:22:08Z</time>
</trkpt>
<trkpt lat="35.2735280" lon="24.3478096">
<ele>262.5771484</ele>
<time>2010-05-07T08:22:15Z</time>
</trkpt>
<trkpt lat="35.2735661" lon="24.3478284">
<ele>263.5385742</ele>
<time>2010-05-07T08:22:19Z</time>
</trkpt>
<trkpt lat="35.2735437" lon="24.3478826">
<ele>267.3839111</ele>
<time>2010-05-07T08:22:26Z</time>
</trkpt>
<trkpt lat="35.2735667" lon="24.3479171">
<ele>263.0578613</ele>
<time>2010-05-07T08:22:32Z</time>
</trkpt>
<trkpt lat="35.2735749" lon="24.3479671">
<ele>264.4998779</ele>
<time>2010-05-07T08:22:36Z</time>
</trkpt>
<trkpt lat="35.2738692" lon="24.3481567">
<ele>278.9196777</ele>
<time>2010-05-07T08:23:25Z</time>
</trkpt>
<trkpt lat="35.2738541" lon="24.3482182">
<ele>297.6654053</ele>
<time>2010-05-07T08:23:30Z</time>
</trkpt>
<trkpt lat="35.2738072" lon="24.3483250">
<ele>332.2728271</ele>
<time>2010-05-07T08:23:38Z</time>
</trkpt>
<trkpt lat="35.2737832" lon="24.3483437">
<ele>343.3278809</ele>
<time>2010-05-07T08:23:43Z</time>
</trkpt>
<trkpt lat="35.2739371" lon="24.3482462">
<ele>293.3393555</ele>
<time>2010-05-07T08:24:01Z</time>
</trkpt>
<trkpt lat="35.2739861" lon="24.3482282">
<ele>265.4613037</ele>
<time>2010-05-07T08:24:09Z</time>
</trkpt>
<trkpt lat="35.2739680" lon="24.3482060">
<ele>274.5937500</ele>
<time>2010-05-07T08:24:17Z</time>
</trkpt>
<trkpt lat="35.2740229" lon="24.3481511">
<ele>281.3229980</ele>
<time>2010-05-07T08:25:35Z</time>
</trkpt>
<trkpt lat="35.2740881" lon="24.3481035">
<ele>281.3229980</ele>
<time>2010-05-07T08:25:50Z</time>
</trkpt>
<trkpt lat="35.2741508" lon="24.3480603">
<ele>273.1518555</ele>
<time>2010-05-07T08:25:56Z</time>
</trkpt>
<trkpt lat="35.2741953" lon="24.3480356">
<ele>265.9418945</ele>
<time>2010-05-07T08:26:00Z</time>
</trkpt>
<trkpt lat="35.2742375" lon="24.3480107">
<ele>263.5385742</ele>
<time>2010-05-07T08:26:06Z</time>
</trkpt>
<trkpt lat="35.2742830" lon="24.3479891">
<ele>262.5771484</ele>
<time>2010-05-07T08:26:11Z</time>
</trkpt>
<trkpt lat="35.2743284" lon="24.3480165">
<ele>261.1352539</ele>
<time>2010-05-07T08:26:17Z</time>
</trkpt>
<trkpt lat="35.2743378" lon="24.3480569">
<ele>264.4998779</ele>
<time>2010-05-07T08:26:26Z</time>
</trkpt>
<trkpt lat="35.2743916" lon="24.3480635">
<ele>257.2900391</ele>
<time>2010-05-07T08:26:42Z</time>
</trkpt>
<trkpt lat="35.2744596" lon="24.3480150">
<ele>251.0413818</ele>
<time>2010-05-07T08:26:56Z</time>
</trkpt>
<trkpt lat="35.2745233" lon="24.3479656">
<ele>246.2348633</ele>
<time>2010-05-07T08:27:03Z</time>
</trkpt>
<trkpt lat="35.2745900" lon="24.3479349">
<ele>239.9862061</ele>
<time>2010-05-07T08:27:10Z</time>
</trkpt>
<trkpt lat="35.2746476" lon="24.3479241">
<ele>233.7376709</ele>
<time>2010-05-07T08:27:18Z</time>
</trkpt>
<trkpt lat="35.2746871" lon="24.3479678">
<ele>232.7764893</ele>
<time>2010-05-07T08:27:26Z</time>
</trkpt>
<trkpt lat="35.2747113" lon="24.3479965">
<ele>231.8149414</ele>
<time>2010-05-07T08:27:34Z</time>
</trkpt>
<trkpt lat="35.2747036" lon="24.3480339">
<ele>230.8537598</ele>
<time>2010-05-07T08:27:40Z</time>
</trkpt>
<trkpt lat="35.2747440" lon="24.3480694">
<ele>231.8149414</ele>
<time>2010-05-07T08:27:47Z</time>
</trkpt>
<trkpt lat="35.2748191" lon="24.3480589">
<ele>235.1796875</ele>
<time>2010-05-07T08:28:03Z</time>
</trkpt>
<trkpt lat="35.2748259" lon="24.3480499">
<ele>234.6990967</ele>
<time>2010-05-07T08:28:09Z</time>
</trkpt>
<trkpt lat="35.2748614" lon="24.3480605">
<ele>234.2183838</ele>
<time>2010-05-07T08:28:17Z</time>
</trkpt>
<trkpt lat="35.2748460" lon="24.3480862">
<ele>231.3343506</ele>
<time>2010-05-07T08:28:29Z</time>
</trkpt>
<trkpt lat="35.2748627" lon="24.3481958">
<ele>235.1796875</ele>
<time>2010-05-07T08:28:44Z</time>
</trkpt>
<trkpt lat="35.2748751" lon="24.3482628">
<ele>243.8315430</ele>
<time>2010-05-07T08:28:53Z</time>
</trkpt>
<trkpt lat="35.2748772" lon="24.3482657">
<ele>244.3122559</ele>
<time>2010-05-07T08:28:54Z</time>
</trkpt>
<trkpt lat="35.2749018" lon="24.3483340">
<ele>244.7928467</ele>
<time>2010-05-07T08:29:03Z</time>
</trkpt>
<trkpt lat="35.2748989" lon="24.3483467">
<ele>245.2734375</ele>
<time>2010-05-07T08:29:04Z</time>
</trkpt>
<trkpt lat="35.2749223" lon="24.3483797">
<ele>246.7154541</ele>
<time>2010-05-07T08:29:09Z</time>
</trkpt>
<trkpt lat="35.2750092" lon="24.3483744">
<ele>239.0249023</ele>
<time>2010-05-07T08:29:18Z</time>
</trkpt>
<trkpt lat="35.2750153" lon="24.3484055">
<ele>237.1022949</ele>
<time>2010-05-07T08:29:26Z</time>
</trkpt>
<trkpt lat="35.2750480" lon="24.3484593">
<ele>234.6990967</ele>
<time>2010-05-07T08:29:40Z</time>
</trkpt>
<trkpt lat="35.2751008" lon="24.3484895">
<ele>232.2957764</ele>
<time>2010-05-07T08:29:48Z</time>
</trkpt>
<trkpt lat="35.2751481" lon="24.3485303">
<ele>229.8923340</ele>
<time>2010-05-07T08:30:02Z</time>
</trkpt>
<trkpt lat="35.2751649" lon="24.3485702">
<ele>230.3730469</ele>
<time>2010-05-07T08:30:08Z</time>
</trkpt>
<trkpt lat="35.2752225" lon="24.3487494">
<ele>256.3287354</ele>
<time>2010-05-07T08:30:42Z</time>
</trkpt>
<trkpt lat="35.2752334" lon="24.3487867">
<ele>268.3450928</ele>
<time>2010-05-07T08:30:56Z</time>
</trkpt>
<trkpt lat="35.2754712" lon="24.3487894">
<ele>240.9476318</ele>
<time>2010-05-07T08:31:24Z</time>
</trkpt>
<trkpt lat="35.2756411" lon="24.3488627">
<ele>224.1245117</ele>
<time>2010-05-07T08:31:51Z</time>
</trkpt>
<trkpt lat="35.2757801" lon="24.3489810">
<ele>209.7048340</ele>
<time>2010-05-07T08:32:17Z</time>
</trkpt>
<trkpt lat="35.2758064" lon="24.3490303">
<ele>206.8206787</ele>
<time>2010-05-07T08:32:31Z</time>
</trkpt>
<trkpt lat="35.2759449" lon="24.3492343">
<ele>227.0085449</ele>
<time>2010-05-07T08:33:10Z</time>
</trkpt>
<trkpt lat="35.2759369" lon="24.3492503">
<ele>233.7376709</ele>
<time>2010-05-07T08:33:14Z</time>
</trkpt>
<trkpt lat="35.2759530" lon="24.3492576">
<ele>257.7707520</ele>
<time>2010-05-07T08:33:25Z</time>
</trkpt>
<trkpt lat="35.2760147" lon="24.3492836">
<ele>261.1352539</ele>
<time>2010-05-07T08:33:34Z</time>
</trkpt>
<trkpt lat="35.2761177" lon="24.3493612">
<ele>253.9254150</ele>
<time>2010-05-07T08:33:46Z</time>
</trkpt>
<trkpt lat="35.2761913" lon="24.3493592">
<ele>250.0802002</ele>
<time>2010-05-07T08:33:53Z</time>
</trkpt>
<trkpt lat="35.2762892" lon="24.3493169">
<ele>244.3122559</ele>
<time>2010-05-07T08:34:03Z</time>
</trkpt>
<trkpt lat="35.2763170" lon="24.3492840">
<ele>241.9089355</ele>
<time>2010-05-07T08:34:09Z</time>
</trkpt>
<trkpt lat="35.2763276" lon="24.3492772">
<ele>241.4282227</ele>
<time>2010-05-07T08:34:10Z</time>
</trkpt>
<trkpt lat="35.2763663" lon="24.3492603">
<ele>239.5054932</ele>
<time>2010-05-07T08:34:14Z</time>
</trkpt>
<trkpt lat="35.2764094" lon="24.3492032">
<ele>242.8702393</ele>
<time>2010-05-07T08:34:22Z</time>
</trkpt>
<trkpt lat="35.2764177" lon="24.3491824">
<ele>243.3508301</ele>
<time>2010-05-07T08:34:26Z</time>
</trkpt>
<trkpt lat="35.2765014" lon="24.3491534">
<ele>225.0859375</ele>
<time>2010-05-07T08:34:32Z</time>
</trkpt>
<trkpt lat="35.2765068" lon="24.3491094">
<ele>224.6052246</ele>
<time>2010-05-07T08:34:38Z</time>
</trkpt>
<trkpt lat="35.2765047" lon="24.3490374">
<ele>223.6437988</ele>
<time>2010-05-07T08:34:44Z</time>
</trkpt>
<trkpt lat="35.2765498" lon="24.3489917">
<ele>222.2017822</ele>
<time>2010-05-07T08:34:49Z</time>
</trkpt>
<trkpt lat="35.2765932" lon="24.3489334">
<ele>223.6437988</ele>
<time>2010-05-07T08:34:55Z</time>
</trkpt>
<trkpt lat="35.2766304" lon="24.3489002">
<ele>225.0859375</ele>
<time>2010-05-07T08:35:05Z</time>
</trkpt>
<trkpt lat="35.2766112" lon="24.3488845">
<ele>240.4670410</ele>
<time>2010-05-07T08:35:21Z</time>
</trkpt>
<trkpt lat="35.2766089" lon="24.3488870">
<ele>236.6217041</ele>
<time>2010-05-07T08:35:33Z</time>
</trkpt>
<trkpt lat="35.2765893" lon="24.3488919">
<ele>239.0249023</ele>
<time>2010-05-07T08:35:42Z</time>
</trkpt>
<trkpt lat="35.2766337" lon="24.3488450">
<ele>226.5278320</ele>
<time>2010-05-07T08:35:54Z</time>
</trkpt>
<trkpt lat="35.2766605" lon="24.3488136">
<ele>225.5665283</ele>
<time>2010-05-07T08:36:01Z</time>
</trkpt>
<trkpt lat="35.2766664" lon="24.3488737">
<ele>245.7541504</ele>
<time>2010-05-07T08:36:26Z</time>
</trkpt>
<trkpt lat="35.2766912" lon="24.3488809">
<ele>244.3122559</ele>
<time>2010-05-07T08:36:32Z</time>
</trkpt>
<trkpt lat="35.2768289" lon="24.3488160">
<ele>224.1245117</ele>
<time>2010-05-07T08:36:48Z</time>
</trkpt>
<trkpt lat="35.2768668" lon="24.3488538">
<ele>224.1245117</ele>
<time>2010-05-07T08:36:55Z</time>
</trkpt>
<trkpt lat="35.2768689" lon="24.3488613">
<ele>223.6437988</ele>
<time>2010-05-07T08:37:00Z</time>
</trkpt>
<trkpt lat="35.2768927" lon="24.3488691">
<ele>230.8537598</ele>
<time>2010-05-07T08:37:12Z</time>
</trkpt>
<trkpt lat="35.2768915" lon="24.3489249">
<ele>241.9089355</ele>
<time>2010-05-07T08:37:25Z</time>
</trkpt>
<trkpt lat="35.2769176" lon="24.3489069">
<ele>242.8702393</ele>
<time>2010-05-07T08:37:33Z</time>
</trkpt>
<trkpt lat="35.2769808" lon="24.3489187">
<ele>232.7764893</ele>
<time>2010-05-07T08:37:46Z</time>
</trkpt>
<trkpt lat="35.2770101" lon="24.3489372">
<ele>232.2957764</ele>
<time>2010-05-07T08:37:53Z</time>
</trkpt>
<trkpt lat="35.2770430" lon="24.3489104">
<ele>231.8149414</ele>
<time>2010-05-07T08:38:00Z</time>
</trkpt>
<trkpt lat="35.2770469" lon="24.3489088">
<ele>231.3343506</ele>
<time>2010-05-07T08:38:01Z</time>
</trkpt>
<trkpt lat="35.2770744" lon="24.3489215">
<ele>233.7376709</ele>
<time>2010-05-07T08:38:08Z</time>
</trkpt>
<trkpt lat="35.2771011" lon="24.3489442">
<ele>233.7376709</ele>
<time>2010-05-07T08:38:11Z</time>
</trkpt>
<trkpt lat="35.2771901" lon="24.3489830">
<ele>232.7764893</ele>
<time>2010-05-07T08:38:19Z</time>
</trkpt>
<trkpt lat="35.2772419" lon="24.3490061">
<ele>226.0471191</ele>
<time>2010-05-07T08:38:25Z</time>
</trkpt>
<trkpt lat="35.2772735" lon="24.3490046">
<ele>221.7211914</ele>
<time>2010-05-07T08:38:32Z</time>
</trkpt>
<trkpt lat="35.2772994" lon="24.3489917">
<ele>221.2406006</ele>
<time>2010-05-07T08:38:41Z</time>
</trkpt>
<trkpt lat="35.2773356" lon="24.3489690">
<ele>219.7985840</ele>
<time>2010-05-07T08:38:46Z</time>
</trkpt>
<trkpt lat="35.2774019" lon="24.3489365">
<ele>219.7985840</ele>
<time>2010-05-07T08:38:54Z</time>
</trkpt>
<trkpt lat="35.2774164" lon="24.3489245">
<ele>218.8372803</ele>
<time>2010-05-07T08:38:56Z</time>
</trkpt>
<trkpt lat="35.2774930" lon="24.3489027">
<ele>217.3953857</ele>
<time>2010-05-07T08:39:02Z</time>
</trkpt>
<trkpt lat="35.2775626" lon="24.3488777">
<ele>214.9919434</ele>
<time>2010-05-07T08:39:10Z</time>
</trkpt>
<trkpt lat="35.2776034" lon="24.3488503">
<ele>212.1080322</ele>
<time>2010-05-07T08:39:17Z</time>
</trkpt>
<trkpt lat="35.2776405" lon="24.3488173">
<ele>210.6660156</ele>
<time>2010-05-07T08:39:23Z</time>
</trkpt>
<trkpt lat="35.2776597" lon="24.3487944">
<ele>213.0693359</ele>
<time>2010-05-07T08:39:28Z</time>
</trkpt>
<trkpt lat="35.2776980" lon="24.3488129">
<ele>213.5500488</ele>
<time>2010-05-07T08:39:34Z</time>
</trkpt>
<trkpt lat="35.2777500" lon="24.3488300">
<ele>212.1080322</ele>
<time>2010-05-07T08:39:41Z</time>
</trkpt>
<trkpt lat="35.2778056" lon="24.3488542">
<ele>213.0693359</ele>
<time>2010-05-07T08:39:46Z</time>
</trkpt>
<trkpt lat="35.2778225" lon="24.3488572">
<ele>213.5500488</ele>
<time>2010-05-07T08:39:48Z</time>
</trkpt>
<trkpt lat="35.2778812" lon="24.3488806">
<ele>214.0306396</ele>
<time>2010-05-07T08:39:54Z</time>
</trkpt>
<trkpt lat="35.2779092" lon="24.3488899">
<ele>213.0693359</ele>
<time>2010-05-07T08:39:59Z</time>
</trkpt>
<trkpt lat="35.2779842" lon="24.3488872">
<ele>212.1080322</ele>
<time>2010-05-07T08:40:07Z</time>
</trkpt>
<trkpt lat="35.2780231" lon="24.3488627">
<ele>210.1854248</ele>
<time>2010-05-07T08:40:14Z</time>
</trkpt>
<trkpt lat="35.2780537" lon="24.3488241">
<ele>208.7434082</ele>
<time>2010-05-07T08:40:21Z</time>
</trkpt>
<trkpt lat="35.2780760" lon="24.3487923">
<ele>208.2628174</ele>
<time>2010-05-07T08:40:26Z</time>
</trkpt>
<trkpt lat="35.2780624" lon="24.3487903">
<ele>211.6274414</ele>
<time>2010-05-07T08:40:36Z</time>
</trkpt>
<trkpt lat="35.2780524" lon="24.3487655">
<ele>213.5500488</ele>
<time>2010-05-07T08:40:42Z</time>
</trkpt>
<trkpt lat="35.2780832" lon="24.3487225">
<ele>210.6660156</ele>
<time>2010-05-07T08:40:48Z</time>
</trkpt>
<trkpt lat="35.2780992" lon="24.3486852">
<ele>209.2241211</ele>
<time>2010-05-07T08:40:55Z</time>
</trkpt>
<trkpt lat="35.2781614" lon="24.3486457">
<ele>207.7821045</ele>
<time>2010-05-07T08:41:03Z</time>
</trkpt>
<trkpt lat="35.2782085" lon="24.3485816">
<ele>211.1467285</ele>
<time>2010-05-07T08:41:11Z</time>
</trkpt>
<trkpt lat="35.2782702" lon="24.3485586">
<ele>212.1080322</ele>
<time>2010-05-07T08:41:19Z</time>
</trkpt>
<trkpt lat="35.2782898" lon="24.3485800">
<ele>211.6274414</ele>
<time>2010-05-07T08:41:25Z</time>
</trkpt>
<trkpt lat="35.2783100" lon="24.3485654">
<ele>211.6274414</ele>
<time>2010-05-07T08:41:38Z</time>
</trkpt>
<trkpt lat="35.2783313" lon="24.3485748">
<ele>210.1854248</ele>
<time>2010-05-07T08:41:53Z</time>
</trkpt>
<trkpt lat="35.2783447" lon="24.3485934">
<ele>209.7048340</ele>
<time>2010-05-07T08:42:02Z</time>
</trkpt>
<trkpt lat="35.2783603" lon="24.3485852">
<ele>208.2628174</ele>
<time>2010-05-07T08:42:09Z</time>
</trkpt>
<trkpt lat="35.2783616" lon="24.3485815">
<ele>208.7434082</ele>
<time>2010-05-07T08:42:17Z</time>
</trkpt>
<trkpt lat="35.2783585" lon="24.3485452">
<ele>203.4561768</ele>
<time>2010-05-07T08:42:37Z</time>
</trkpt>
<trkpt lat="35.2783400" lon="24.3485654">
<ele>211.6274414</ele>
<time>2010-05-07T08:42:51Z</time>
</trkpt>
<trkpt lat="35.2783322" lon="24.3485814">
<ele>212.1080322</ele>
<time>2010-05-07T08:43:01Z</time>
</trkpt>
<trkpt lat="35.2783400" lon="24.3485909">
<ele>207.3013916</ele>
<time>2010-05-07T08:43:22Z</time>
</trkpt>
<trkpt lat="35.2783333" lon="24.3485717">
<ele>210.6660156</ele>
<time>2010-05-07T08:43:45Z</time>
</trkpt>
<trkpt lat="35.2783302" lon="24.3485603">
<ele>215.4726563</ele>
<time>2010-05-07T08:44:10Z</time>
</trkpt>
<trkpt lat="35.2783395" lon="24.3485680">
<ele>212.5886230</ele>
<time>2010-05-07T08:44:19Z</time>
</trkpt>
<trkpt lat="35.2783552" lon="24.3485768">
<ele>210.6660156</ele>
<time>2010-05-07T08:44:30Z</time>
</trkpt>
<trkpt lat="35.2783839" lon="24.3485482">
<ele>209.2241211</ele>
<time>2010-05-07T08:44:36Z</time>
</trkpt>
<trkpt lat="35.2784010" lon="24.3485138">
<ele>211.6274414</ele>
<time>2010-05-07T08:44:43Z</time>
</trkpt>
<trkpt lat="35.2783856" lon="24.3485008">
<ele>212.5886230</ele>
<time>2010-05-07T08:44:49Z</time>
</trkpt>
<trkpt lat="35.2783761" lon="24.3485153">
<ele>211.6274414</ele>
<time>2010-05-07T08:45:10Z</time>
</trkpt>
<trkpt lat="35.2783844" lon="24.3485210">
<ele>208.7434082</ele>
<time>2010-05-07T08:45:40Z</time>
</trkpt>
<trkpt lat="35.2783837" lon="24.3485177">
<ele>211.1467285</ele>
<time>2010-05-07T08:46:02Z</time>
</trkpt>
<trkpt lat="35.2784054" lon="24.3485531">
<ele>210.6660156</ele>
<time>2010-05-07T08:46:09Z</time>
</trkpt>
<trkpt lat="35.2783925" lon="24.3485799">
<ele>209.2241211</ele>
<time>2010-05-07T08:46:15Z</time>
</trkpt>
<trkpt lat="35.2783525" lon="24.3485883">
<ele>216.4339600</ele>
<time>2010-05-07T08:46:28Z</time>
</trkpt>
<trkpt lat="35.2783307" lon="24.3485925">
<ele>216.9146729</ele>
<time>2010-05-07T08:46:47Z</time>
</trkpt>
<trkpt lat="35.2782991" lon="24.3486272">
<ele>228.4504395</ele>
<time>2010-05-07T08:47:05Z</time>
</trkpt>
<trkpt lat="35.2783053" lon="24.3486349">
<ele>225.5665283</ele>
<time>2010-05-07T08:47:23Z</time>
</trkpt>
<trkpt lat="35.2782839" lon="24.3486510">
<ele>230.8537598</ele>
<time>2010-05-07T08:47:34Z</time>
</trkpt>
<trkpt lat="35.2782709" lon="24.3486556">
<ele>234.2183838</ele>
<time>2010-05-07T08:47:43Z</time>
</trkpt>
<trkpt lat="35.2782737" lon="24.3486549">
<ele>231.3343506</ele>
<time>2010-05-07T08:47:55Z</time>
</trkpt>
<trkpt lat="35.2782603" lon="24.3486329">
<ele>234.6990967</ele>
<time>2010-05-07T08:48:10Z</time>
</trkpt>
<trkpt lat="35.2782458" lon="24.3486220">
<ele>232.2957764</ele>
<time>2010-05-07T08:49:05Z</time>
</trkpt>
<trkpt lat="35.2783020" lon="24.3485981">
<ele>217.3953857</ele>
<time>2010-05-07T08:49:30Z</time>
</trkpt>
<trkpt lat="35.2783105" lon="24.3485874">
<ele>216.9146729</ele>
<time>2010-05-07T08:49:57Z</time>
</trkpt>
<trkpt lat="35.2783145" lon="24.3486047">
<ele>214.9919434</ele>
<time>2010-05-07T08:50:06Z</time>
</trkpt>
<trkpt lat="35.2783218" lon="24.3486023">
<ele>212.5886230</ele>
<time>2010-05-07T08:50:23Z</time>
</trkpt>
<trkpt lat="35.2783080" lon="24.3486023">
<ele>214.5112305</ele>
<time>2010-05-07T08:50:32Z</time>
</trkpt>
<trkpt lat="35.2782955" lon="24.3486050">
<ele>218.3565674</ele>
<time>2010-05-07T08:50:47Z</time>
</trkpt>
<trkpt lat="35.2782897" lon="24.3485759">
<ele>221.2406006</ele>
<time>2010-05-07T08:51:03Z</time>
</trkpt>
<trkpt lat="35.2783451" lon="24.3485013">
<ele>222.6824951</ele>
<time>2010-05-07T08:51:16Z</time>
</trkpt>
<trkpt lat="35.2783083" lon="24.3484941">
<ele>222.2017822</ele>
<time>2010-05-07T08:51:25Z</time>
</trkpt>
<trkpt lat="35.2782794" lon="24.3485785">
<ele>240.9476318</ele>
<time>2010-05-07T08:52:01Z</time>
</trkpt>
<trkpt lat="35.2782888" lon="24.3485930">
<ele>227.4891357</ele>
<time>2010-05-07T08:53:13Z</time>
</trkpt>
<trkpt lat="35.2782991" lon="24.3485863">
<ele>224.6052246</ele>
<time>2010-05-07T08:53:14Z</time>
</trkpt>
<trkpt lat="35.2783336" lon="24.3485992">
<ele>222.2017822</ele>
<time>2010-05-07T08:53:25Z</time>
</trkpt>
<trkpt lat="35.2783193" lon="24.3486065">
<ele>221.7211914</ele>
<time>2010-05-07T08:53:40Z</time>
</trkpt>
<trkpt lat="35.2782718" lon="24.3486338">
<ele>231.8149414</ele>
<time>2010-05-07T08:54:07Z</time>
</trkpt>
<trkpt lat="35.2783060" lon="24.3486230">
<ele>218.3565674</ele>
<time>2010-05-07T08:54:16Z</time>
</trkpt>
<trkpt lat="35.2782810" lon="24.3486385">
<ele>230.3730469</ele>
<time>2010-05-07T08:54:35Z</time>
</trkpt>
<trkpt lat="35.2783018" lon="24.3485986">
<ele>216.9146729</ele>
<time>2010-05-07T08:55:07Z</time>
</trkpt>
<trkpt lat="35.2782856" lon="24.3486210">
<ele>211.6274414</ele>
<time>2010-05-07T08:57:02Z</time>
</trkpt>
<trkpt lat="35.2782559" lon="24.3485739">
<ele>227.0085449</ele>
<time>2010-05-07T08:57:43Z</time>
</trkpt>
<trkpt lat="35.2783337" lon="24.3485527">
<ele>203.4561768</ele>
<time>2010-05-07T08:58:10Z</time>
</trkpt>
<trkpt lat="35.2783635" lon="24.3485483">
<ele>197.6882324</ele>
<time>2010-05-07T08:58:23Z</time>
</trkpt>
<trkpt lat="35.2783272" lon="24.3485743">
<ele>207.7821045</ele>
<time>2010-05-07T08:58:41Z</time>
</trkpt>
<trkpt lat="35.2782932" lon="24.3485918">
<ele>216.4339600</ele>
<time>2010-05-07T08:58:52Z</time>
</trkpt>
<trkpt lat="35.2783188" lon="24.3485733">
<ele>209.7048340</ele>
<time>2010-05-07T08:58:59Z</time>
</trkpt>
<trkpt lat="35.2782447" lon="24.3486695">
<ele>230.3730469</ele>
<time>2010-05-07T08:59:28Z</time>
</trkpt>
<trkpt lat="35.2782523" lon="24.3486557">
<ele>228.9311523</ele>
<time>2010-05-07T08:59:40Z</time>
</trkpt>
<trkpt lat="35.2783100" lon="24.3485809">
<ele>215.9532471</ele>
<time>2010-05-07T09:00:01Z</time>
</trkpt>
<trkpt lat="35.2783193" lon="24.3485811">
<ele>214.9919434</ele>
<time>2010-05-07T09:00:14Z</time>
</trkpt>
<trkpt lat="35.2783453" lon="24.3486055">
<ele>212.1080322</ele>
<time>2010-05-07T09:00:36Z</time>
</trkpt>
<trkpt lat="35.2783062" lon="24.3486104">
<ele>220.2791748</ele>
<time>2010-05-07T09:00:49Z</time>
</trkpt>
<trkpt lat="35.2783250" lon="24.3486012">
<ele>218.3565674</ele>
<time>2010-05-07T09:01:19Z</time>
</trkpt>
<trkpt lat="35.2783779" lon="24.3485913">
<ele>210.6660156</ele>
<time>2010-05-07T09:01:29Z</time>
</trkpt>
<trkpt lat="35.2783685" lon="24.3485609">
<ele>208.2628174</ele>
<time>2010-05-07T09:01:46Z</time>
</trkpt>
<trkpt lat="35.2783669" lon="24.3485353">
<ele>207.3013916</ele>
<time>2010-05-07T09:01:58Z</time>
</trkpt>
<trkpt lat="35.2783723" lon="24.3485342">
<ele>208.2628174</ele>
<time>2010-05-07T09:02:13Z</time>
</trkpt>
<trkpt lat="35.2783538" lon="24.3485720">
<ele>206.3400879</ele>
<time>2010-05-07T09:02:56Z</time>
</trkpt>
<trkpt lat="35.2783393" lon="24.3485746">
<ele>209.7048340</ele>
<time>2010-05-07T09:03:25Z</time>
</trkpt>
<trkpt lat="35.2783700" lon="24.3485635">
<ele>202.4948730</ele>
<time>2010-05-07T09:03:35Z</time>
</trkpt>
<trkpt lat="35.2783380" lon="24.3485770">
<ele>212.5886230</ele>
<time>2010-05-07T09:03:58Z</time>
</trkpt>
<trkpt lat="35.2783810" lon="24.3485622">
<ele>207.7821045</ele>
<time>2010-05-07T09:04:31Z</time>
</trkpt>
<trkpt lat="35.2784296" lon="24.3485856">
<ele>210.1854248</ele>
<time>2010-05-07T09:04:43Z</time>
</trkpt>
<trkpt lat="35.2784364" lon="24.3485878">
<ele>208.7434082</ele>
<time>2010-05-07T09:04:53Z</time>
</trkpt>
<trkpt lat="35.2784559" lon="24.3485765">
<ele>198.6495361</ele>
<time>2010-05-07T09:05:07Z</time>
</trkpt>
<trkpt lat="35.2784360" lon="24.3486152">
<ele>201.5335693</ele>
<time>2010-05-07T09:05:43Z</time>
</trkpt>
<trkpt lat="35.2784602" lon="24.3486124">
<ele>202.0142822</ele>
<time>2010-05-07T09:05:48Z</time>
</trkpt>
<trkpt lat="35.2785067" lon="24.3485894">
<ele>204.4174805</ele>
<time>2010-05-07T09:05:56Z</time>
</trkpt>
<trkpt lat="35.2785600" lon="24.3485592">
<ele>204.4174805</ele>
<time>2010-05-07T09:06:03Z</time>
</trkpt>
<trkpt lat="35.2786026" lon="24.3485261">
<ele>205.8594971</ele>
<time>2010-05-07T09:06:09Z</time>
</trkpt>
<trkpt lat="35.2786574" lon="24.3485189">
<ele>207.3013916</ele>
<time>2010-05-07T09:06:17Z</time>
</trkpt>
<trkpt lat="35.2787441" lon="24.3485537">
<ele>207.3013916</ele>
<time>2010-05-07T09:06:27Z</time>
</trkpt>
<trkpt lat="35.2788223" lon="24.3485825">
<ele>208.7434082</ele>
<time>2010-05-07T09:06:36Z</time>
</trkpt>
<trkpt lat="35.2788508" lon="24.3485988">
<ele>213.0693359</ele>
<time>2010-05-07T09:06:42Z</time>
</trkpt>
<trkpt lat="35.2788818" lon="24.3486241">
<ele>216.9146729</ele>
<time>2010-05-07T09:06:47Z</time>
</trkpt>
<trkpt lat="35.2789486" lon="24.3486702">
<ele>214.9919434</ele>
<time>2010-05-07T09:06:53Z</time>
</trkpt>
<trkpt lat="35.2789566" lon="24.3486770">
<ele>214.9919434</ele>
<time>2010-05-07T09:06:54Z</time>
</trkpt>
<trkpt lat="35.2790181" lon="24.3487291">
<ele>213.5500488</ele>
<time>2010-05-07T09:07:00Z</time>
</trkpt>
<trkpt lat="35.2790481" lon="24.3487597">
<ele>212.1080322</ele>
<time>2010-05-07T09:07:05Z</time>
</trkpt>
<trkpt lat="35.2790952" lon="24.3488005">
<ele>210.1854248</ele>
<time>2010-05-07T09:07:10Z</time>
</trkpt>
<trkpt lat="35.2791336" lon="24.3488414">
<ele>211.1467285</ele>
<time>2010-05-07T09:07:16Z</time>
</trkpt>
<trkpt lat="35.2791486" lon="24.3488898">
<ele>213.5500488</ele>
<time>2010-05-07T09:07:21Z</time>
</trkpt>
<trkpt lat="35.2791932" lon="24.3489354">
<ele>215.9532471</ele>
<time>2010-05-07T09:07:30Z</time>
</trkpt>
<trkpt lat="35.2792155" lon="24.3489685">
<ele>216.9146729</ele>
<time>2010-05-07T09:07:35Z</time>
</trkpt>
<trkpt lat="35.2792564" lon="24.3490026">
<ele>217.3953857</ele>
<time>2010-05-07T09:07:41Z</time>
</trkpt>
<trkpt lat="35.2793301" lon="24.3490398">
<ele>216.4339600</ele>
<time>2010-05-07T09:07:50Z</time>
</trkpt>
<trkpt lat="35.2794276" lon="24.3490732">
<ele>215.4726563</ele>
<time>2010-05-07T09:08:01Z</time>
</trkpt>
<trkpt lat="35.2794801" lon="24.3490763">
<ele>214.9919434</ele>
<time>2010-05-07T09:08:06Z</time>
</trkpt>
<trkpt lat="35.2795913" lon="24.3490647">
<ele>213.5500488</ele>
<time>2010-05-07T09:08:17Z</time>
</trkpt>
<trkpt lat="35.2796495" lon="24.3490618">
<ele>213.5500488</ele>
<time>2010-05-07T09:08:25Z</time>
</trkpt>
<trkpt lat="35.2796827" lon="24.3490619">
<ele>214.5112305</ele>
<time>2010-05-07T09:08:32Z</time>
</trkpt>
<trkpt lat="35.2796641" lon="24.3490202">
<ele>216.9146729</ele>
<time>2010-05-07T09:08:40Z</time>
</trkpt>
<trkpt lat="35.2796531" lon="24.3489673">
<ele>216.9146729</ele>
<time>2010-05-07T09:08:46Z</time>
</trkpt>
<trkpt lat="35.2796478" lon="24.3489495">
<ele>216.9146729</ele>
<time>2010-05-07T09:08:50Z</time>
</trkpt>
<trkpt lat="35.2796494" lon="24.3489723">
<ele>227.9697266</ele>
<time>2010-05-07T09:09:17Z</time>
</trkpt>
<trkpt lat="35.2796501" lon="24.3490075">
<ele>224.6052246</ele>
<time>2010-05-07T09:09:22Z</time>
</trkpt>
<trkpt lat="35.2796667" lon="24.3490352">
<ele>221.7211914</ele>
<time>2010-05-07T09:09:28Z</time>
</trkpt>
<trkpt lat="35.2796698" lon="24.3490310">
<ele>220.2791748</ele>
<time>2010-05-07T09:09:39Z</time>
</trkpt>
<trkpt lat="35.2796661" lon="24.3490201">
<ele>218.8372803</ele>
<time>2010-05-07T09:09:46Z</time>
</trkpt>
<trkpt lat="35.2796563" lon="24.3490198">
<ele>219.7985840</ele>
<time>2010-05-07T09:10:05Z</time>
</trkpt>
<trkpt lat="35.2796654" lon="24.3490336">
<ele>221.2406006</ele>
<time>2010-05-07T09:10:22Z</time>
</trkpt>
<trkpt lat="35.2797184" lon="24.3490742">
<ele>221.2406006</ele>
<time>2010-05-07T09:10:29Z</time>
</trkpt>
<trkpt lat="35.2797851" lon="24.3490903">
<ele>220.7598877</ele>
<time>2010-05-07T09:10:36Z</time>
</trkpt>
<trkpt lat="35.2798652" lon="24.3491260">
<ele>218.8372803</ele>
<time>2010-05-07T09:10:44Z</time>
</trkpt>
<trkpt lat="35.2799406" lon="24.3491654">
<ele>218.3565674</ele>
<time>2010-05-07T09:10:50Z</time>
</trkpt>
<trkpt lat="35.2800400" lon="24.3492111">
<ele>214.9919434</ele>
<time>2010-05-07T09:10:59Z</time>
</trkpt>
<trkpt lat="35.2800750" lon="24.3492224">
<ele>213.5500488</ele>
<time>2010-05-07T09:11:04Z</time>
</trkpt>
<trkpt lat="35.2801489" lon="24.3492605">
<ele>213.0693359</ele>
<time>2010-05-07T09:11:12Z</time>
</trkpt>
<trkpt lat="35.2802199" lon="24.3493145">
<ele>213.5500488</ele>
<time>2010-05-07T09:11:20Z</time>
</trkpt>
<trkpt lat="35.2802716" lon="24.3493836">
<ele>216.9146729</ele>
<time>2010-05-07T09:11:28Z</time>
</trkpt>
<trkpt lat="35.2803426" lon="24.3494455">
<ele>217.3953857</ele>
<time>2010-05-07T09:11:36Z</time>
</trkpt>
<trkpt lat="35.2804233" lon="24.3494910">
<ele>214.0306396</ele>
<time>2010-05-07T09:11:44Z</time>
</trkpt>
<trkpt lat="35.2805374" lon="24.3495573">
<ele>210.6660156</ele>
<time>2010-05-07T09:11:54Z</time>
</trkpt>
<trkpt lat="35.2806172" lon="24.3496026">
<ele>209.2241211</ele>
<time>2010-05-07T09:12:01Z</time>
</trkpt>
<trkpt lat="35.2807010" lon="24.3496184">
<ele>207.7821045</ele>
<time>2010-05-07T09:12:08Z</time>
</trkpt>
<trkpt lat="35.2807872" lon="24.3495902">
<ele>207.7821045</ele>
<time>2010-05-07T09:12:17Z</time>
</trkpt>
<trkpt lat="35.2808172" lon="24.3495757">
<ele>208.2628174</ele>
<time>2010-05-07T09:12:26Z</time>
</trkpt>
<trkpt lat="35.2808622" lon="24.3495554">
<ele>209.7048340</ele>
<time>2010-05-07T09:12:33Z</time>
</trkpt>
<trkpt lat="35.2809332" lon="24.3495425">
<ele>210.1854248</ele>
<time>2010-05-07T09:12:41Z</time>
</trkpt>
<trkpt lat="35.2809870" lon="24.3495571">
<ele>209.2241211</ele>
<time>2010-05-07T09:12:46Z</time>
</trkpt>
<trkpt lat="35.2811077" lon="24.3495866">
<ele>209.2241211</ele>
<time>2010-05-07T09:12:57Z</time>
</trkpt>
<trkpt lat="35.2812222" lon="24.3496062">
<ele>209.7048340</ele>
<time>2010-05-07T09:13:07Z</time>
</trkpt>
<trkpt lat="35.2813357" lon="24.3496465">
<ele>209.7048340</ele>
<time>2010-05-07T09:13:17Z</time>
</trkpt>
<trkpt lat="35.2814156" lon="24.3496854">
<ele>209.2241211</ele>
<time>2010-05-07T09:13:25Z</time>
</trkpt>
<trkpt lat="35.2814871" lon="24.3497067">
<ele>209.7048340</ele>
<time>2010-05-07T09:13:33Z</time>
</trkpt>
<trkpt lat="35.2814740" lon="24.3496646">
<ele>211.1467285</ele>
<time>2010-05-07T09:13:39Z</time>
</trkpt>
<trkpt lat="35.2814429" lon="24.3496132">
<ele>214.0306396</ele>
<time>2010-05-07T09:13:48Z</time>
</trkpt>
<trkpt lat="35.2814155" lon="24.3495578">
<ele>215.9532471</ele>
<time>2010-05-07T09:13:54Z</time>
</trkpt>
<trkpt lat="35.2813765" lon="24.3494627">
<ele>216.4339600</ele>
<time>2010-05-07T09:14:04Z</time>
</trkpt>
<trkpt lat="35.2813493" lon="24.3493984">
<ele>218.8372803</ele>
<time>2010-05-07T09:14:11Z</time>
</trkpt>
<trkpt lat="35.2813366" lon="24.3493337">
<ele>221.7211914</ele>
<time>2010-05-07T09:14:20Z</time>
</trkpt>
<trkpt lat="35.2813035" lon="24.3492674">
<ele>223.6437988</ele>
<time>2010-05-07T09:14:28Z</time>
</trkpt>
<trkpt lat="35.2812751" lon="24.3491784">
<ele>224.6052246</ele>
<time>2010-05-07T09:14:38Z</time>
</trkpt>
<trkpt lat="35.2812501" lon="24.3491012">
<ele>225.5665283</ele>
<time>2010-05-07T09:14:46Z</time>
</trkpt>
<trkpt lat="35.2812293" lon="24.3490215">
<ele>227.0085449</ele>
<time>2010-05-07T09:14:54Z</time>
</trkpt>
<trkpt lat="35.2811825" lon="24.3489458">
<ele>231.3343506</ele>
<time>2010-05-07T09:15:03Z</time>
</trkpt>
<trkpt lat="35.2811464" lon="24.3488886">
<ele>232.7764893</ele>
<time>2010-05-07T09:15:10Z</time>
</trkpt>
<trkpt lat="35.2811068" lon="24.3488152">
<ele>232.7764893</ele>
<time>2010-05-07T09:15:19Z</time>
</trkpt>
<trkpt lat="35.2810859" lon="24.3487870">
<ele>233.2570801</ele>
<time>2010-05-07T09:15:24Z</time>
</trkpt>
<trkpt lat="35.2810549" lon="24.3487468">
<ele>233.2570801</ele>
<time>2010-05-07T09:15:30Z</time>
</trkpt>
<trkpt lat="35.2810170" lon="24.3487117">
<ele>232.2957764</ele>
<time>2010-05-07T09:15:36Z</time>
</trkpt>
<trkpt lat="35.2809729" lon="24.3486720">
<ele>234.2183838</ele>
<time>2010-05-07T09:15:41Z</time>
</trkpt>
<trkpt lat="35.2809509" lon="24.3486432">
<ele>234.6990967</ele>
<time>2010-05-07T09:15:44Z</time>
</trkpt>
<trkpt lat="35.2808905" lon="24.3485695">
<ele>235.6602783</ele>
<time>2010-05-07T09:15:53Z</time>
</trkpt>
<trkpt lat="35.2808522" lon="24.3485054">
<ele>233.7376709</ele>
<time>2010-05-07T09:16:00Z</time>
</trkpt>
<trkpt lat="35.2808276" lon="24.3484631">
<ele>230.8537598</ele>
<time>2010-05-07T09:16:06Z</time>
</trkpt>
<trkpt lat="35.2807553" lon="24.3484215">
<ele>237.5828857</ele>
<time>2010-05-07T09:16:12Z</time>
</trkpt>
<trkpt lat="35.2806523" lon="24.3483361">
<ele>246.7154541</ele>
<time>2010-05-07T09:16:20Z</time>
</trkpt>
<trkpt lat="35.2805916" lon="24.3483110">
<ele>241.9089355</ele>
<time>2010-05-07T09:16:28Z</time>
</trkpt>
<trkpt lat="35.2805293" lon="24.3482987">
<ele>238.5443115</ele>
<time>2010-05-07T09:16:36Z</time>
</trkpt>
<trkpt lat="35.2804416" lon="24.3482779">
<ele>239.9862061</ele>
<time>2010-05-07T09:16:45Z</time>
</trkpt>
<trkpt lat="35.2803539" lon="24.3482437">
<ele>241.9089355</ele>
<time>2010-05-07T09:16:54Z</time>
</trkpt>
<trkpt lat="35.2802763" lon="24.3482117">
<ele>240.9476318</ele>
<time>2010-05-07T09:17:02Z</time>
</trkpt>
<trkpt lat="35.2802048" lon="24.3481926">
<ele>240.4670410</ele>
<time>2010-05-07T09:17:09Z</time>
</trkpt>
<trkpt lat="35.2801282" lon="24.3481866">
<ele>242.3896484</ele>
<time>2010-05-07T09:17:16Z</time>
</trkpt>
<trkpt lat="35.2800358" lon="24.3481996">
<ele>248.1575928</ele>
<time>2010-05-07T09:17:24Z</time>
</trkpt>
<trkpt lat="35.2800267" lon="24.3481972">
<ele>248.1575928</ele>
<time>2010-05-07T09:17:25Z</time>
</trkpt>
<trkpt lat="35.2799443" lon="24.3481988">
<ele>249.1187744</ele>
<time>2010-05-07T09:17:33Z</time>
</trkpt>
<trkpt lat="35.2798864" lon="24.3482095">
<ele>247.6767578</ele>
<time>2010-05-07T09:17:39Z</time>
</trkpt>
<trkpt lat="35.2798112" lon="24.3482351">
<ele>248.6381836</ele>
<time>2010-05-07T09:17:47Z</time>
</trkpt>
<trkpt lat="35.2797665" lon="24.3482427">
<ele>249.5994873</ele>
<time>2010-05-07T09:17:52Z</time>
</trkpt>
<trkpt lat="35.2797116" lon="24.3482427">
<ele>253.4447021</ele>
<time>2010-05-07T09:17:56Z</time>
</trkpt>
<trkpt lat="35.2796439" lon="24.3482208">
<ele>253.9254150</ele>
<time>2010-05-07T09:18:04Z</time>
</trkpt>
<trkpt lat="35.2795838" lon="24.3482028">
<ele>253.4447021</ele>
<time>2010-05-07T09:18:12Z</time>
</trkpt>
<trkpt lat="35.2795293" lon="24.3481851">
<ele>254.8865967</ele>
<time>2010-05-07T09:18:18Z</time>
</trkpt>
<trkpt lat="35.2795113" lon="24.3481636">
<ele>256.3287354</ele>
<time>2010-05-07T09:18:24Z</time>
</trkpt>
<trkpt lat="35.2794779" lon="24.3481656">
<ele>256.3287354</ele>
<time>2010-05-07T09:18:34Z</time>
</trkpt>
<trkpt lat="35.2794029" lon="24.3481504">
<ele>257.2900391</ele>
<time>2010-05-07T09:18:43Z</time>
</trkpt>
<trkpt lat="35.2793496" lon="24.3481092">
<ele>257.7707520</ele>
<time>2010-05-07T09:18:50Z</time>
</trkpt>
<trkpt lat="35.2793368" lon="24.3480967">
<ele>258.2513428</ele>
<time>2010-05-07T09:18:54Z</time>
</trkpt>
<trkpt lat="35.2793009" lon="24.3481035">
<ele>259.2126465</ele>
<time>2010-05-07T09:18:59Z</time>
</trkpt>
<trkpt lat="35.2793046" lon="24.3480983">
<ele>259.2126465</ele>
<time>2010-05-07T09:19:08Z</time>
</trkpt>
<trkpt lat="35.2793071" lon="24.3480915">
<ele>260.1739502</ele>
<time>2010-05-07T09:19:20Z</time>
</trkpt>
<trkpt lat="35.2793031" lon="24.3480699">
<ele>260.1739502</ele>
<time>2010-05-07T09:19:30Z</time>
</trkpt>
<trkpt lat="35.2792779" lon="24.3480180">
<ele>262.0965576</ele>
<time>2010-05-07T09:19:36Z</time>
</trkpt>
<trkpt lat="35.2792511" lon="24.3479159">
<ele>265.4613037</ele>
<time>2010-05-07T09:19:45Z</time>
</trkpt>
<trkpt lat="35.2792118" lon="24.3478070">
<ele>268.3450928</ele>
<time>2010-05-07T09:19:55Z</time>
</trkpt>
<trkpt lat="35.2791771" lon="24.3477362">
<ele>269.7871094</ele>
<time>2010-05-07T09:20:03Z</time>
</trkpt>
<trkpt lat="35.2791843" lon="24.3476699">
<ele>269.7871094</ele>
<time>2010-05-07T09:20:10Z</time>
</trkpt>
<trkpt lat="35.2792471" lon="24.3476503">
<ele>269.7871094</ele>
<time>2010-05-07T09:20:16Z</time>
</trkpt>
<trkpt lat="35.2792912" lon="24.3476651">
<ele>270.7484131</ele>
<time>2010-05-07T09:20:21Z</time>
</trkpt>
<trkpt lat="35.2793720" lon="24.3476522">
<ele>271.2291260</ele>
<time>2010-05-07T09:20:30Z</time>
</trkpt>
<trkpt lat="35.2794221" lon="24.3476191">
<ele>271.7097168</ele>
<time>2010-05-07T09:20:36Z</time>
</trkpt>
<trkpt lat="35.2794889" lon="24.3475336">
<ele>271.7097168</ele>
<time>2010-05-07T09:20:46Z</time>
</trkpt>
<trkpt lat="35.2795093" lon="24.3474637">
<ele>273.1518555</ele>
<time>2010-05-07T09:20:53Z</time>
</trkpt>
<trkpt lat="35.2794761" lon="24.3473990">
<ele>275.5550537</ele>
<time>2010-05-07T09:21:01Z</time>
</trkpt>
<trkpt lat="35.2794342" lon="24.3473710">
<ele>276.5163574</ele>
<time>2010-05-07T09:21:07Z</time>
</trkpt>
<trkpt lat="35.2793779" lon="24.3473206">
<ele>278.4389648</ele>
<time>2010-05-07T09:21:14Z</time>
</trkpt>
<trkpt lat="35.2793365" lon="24.3472943">
<ele>279.4002686</ele>
<time>2010-05-07T09:21:19Z</time>
</trkpt>
<trkpt lat="35.2792926" lon="24.3472632">
<ele>280.8424072</ele>
<time>2010-05-07T09:21:24Z</time>
</trkpt>
<trkpt lat="35.2792677" lon="24.3472433">
<ele>281.8035889</ele>
<time>2010-05-07T09:21:27Z</time>
</trkpt>
<trkpt lat="35.2792329" lon="24.3471931">
<ele>281.3229980</ele>
<time>2010-05-07T09:21:32Z</time>
</trkpt>
<trkpt lat="35.2792047" lon="24.3471392">
<ele>281.3229980</ele>
<time>2010-05-07T09:21:38Z</time>
</trkpt>
<trkpt lat="35.2791761" lon="24.3470846">
<ele>282.2843018</ele>
<time>2010-05-07T09:21:44Z</time>
</trkpt>
<trkpt lat="35.2791396" lon="24.3470539">
<ele>281.8035889</ele>
<time>2010-05-07T09:21:50Z</time>
</trkpt>
<trkpt lat="35.2790825" lon="24.3470161">
<ele>283.2456055</ele>
<time>2010-05-07T09:21:57Z</time>
</trkpt>
<trkpt lat="35.2790342" lon="24.3469909">
<ele>285.6488037</ele>
<time>2010-05-07T09:22:03Z</time>
</trkpt>
<trkpt lat="35.2789759" lon="24.3469699">
<ele>287.0908203</ele>
<time>2010-05-07T09:22:10Z</time>
</trkpt>
<trkpt lat="35.2789083" lon="24.3469579">
<ele>289.0135498</ele>
<time>2010-05-07T09:22:18Z</time>
</trkpt>
<trkpt lat="35.2788492" lon="24.3469737">
<ele>290.9361572</ele>
<time>2010-05-07T09:22:26Z</time>
</trkpt>
<trkpt lat="35.2788105" lon="24.3469901">
<ele>292.8587646</ele>
<time>2010-05-07T09:22:32Z</time>
</trkpt>
<trkpt lat="35.2787341" lon="24.3470207">
<ele>295.2619629</ele>
<time>2010-05-07T09:22:41Z</time>
</trkpt>
<trkpt lat="35.2786789" lon="24.3470493">
<ele>296.7041016</ele>
<time>2010-05-07T09:22:48Z</time>
</trkpt>
<trkpt lat="35.2786102" lon="24.3470757">
<ele>297.6654053</ele>
<time>2010-05-07T09:22:56Z</time>
</trkpt>
<trkpt lat="35.2785845" lon="24.3470900">
<ele>298.6267090</ele>
<time>2010-05-07T09:23:01Z</time>
</trkpt>
<trkpt lat="35.2785817" lon="24.3471088">
<ele>299.1072998</ele>
<time>2010-05-07T09:23:07Z</time>
</trkpt>
<trkpt lat="35.2785597" lon="24.3470996">
<ele>300.0687256</ele>
<time>2010-05-07T09:23:13Z</time>
</trkpt>
<trkpt lat="35.2785498" lon="24.3470297">
<ele>300.5493164</ele>
<time>2010-05-07T09:23:19Z</time>
</trkpt>
<trkpt lat="35.2785795" lon="24.3469673">
<ele>301.9913330</ele>
<time>2010-05-07T09:23:26Z</time>
</trkpt>
<trkpt lat="35.2786107" lon="24.3468965">
<ele>301.5106201</ele>
<time>2010-05-07T09:23:34Z</time>
</trkpt>
<trkpt lat="35.2786394" lon="24.3468352">
<ele>299.5880127</ele>
<time>2010-05-07T09:23:41Z</time>
</trkpt>
<trkpt lat="35.2786662" lon="24.3467415">
<ele>301.0299072</ele>
<time>2010-05-07T09:23:50Z</time>
</trkpt>
<trkpt lat="35.2786921" lon="24.3467126">
<ele>301.9913330</ele>
<time>2010-05-07T09:23:53Z</time>
</trkpt>
<trkpt lat="35.2787020" lon="24.3466749">
<ele>302.4719238</ele>
<time>2010-05-07T09:23:56Z</time>
</trkpt>
<trkpt lat="35.2787244" lon="24.3466261">
<ele>303.9139404</ele>
<time>2010-05-07T09:24:02Z</time>
</trkpt>
<trkpt lat="35.2787570" lon="24.3465614">
<ele>304.3946533</ele>
<time>2010-05-07T09:24:09Z</time>
</trkpt>
<trkpt lat="35.2787771" lon="24.3465381">
<ele>303.9139404</ele>
<time>2010-05-07T09:24:12Z</time>
</trkpt>
<trkpt lat="35.2788061" lon="24.3465246">
<ele>303.9139404</ele>
<time>2010-05-07T09:24:15Z</time>
</trkpt>
<trkpt lat="35.2788323" lon="24.3464679">
<ele>305.8366699</ele>
<time>2010-05-07T09:24:21Z</time>
</trkpt>
<trkpt lat="35.2788280" lon="24.3464293">
<ele>307.7592773</ele>
<time>2010-05-07T09:24:25Z</time>
</trkpt>
<trkpt lat="35.2788438" lon="24.3463935">
<ele>308.2398682</ele>
<time>2010-05-07T09:24:30Z</time>
</trkpt>
<trkpt lat="35.2788666" lon="24.3463376">
<ele>306.7978516</ele>
<time>2010-05-07T09:24:35Z</time>
</trkpt>
<trkpt lat="35.2788887" lon="24.3463060">
<ele>306.7978516</ele>
<time>2010-05-07T09:24:39Z</time>
</trkpt>
<trkpt lat="35.2789187" lon="24.3462542">
<ele>306.3172607</ele>
<time>2010-05-07T09:24:45Z</time>
</trkpt>
<trkpt lat="35.2789838" lon="24.3462302">
<ele>303.9139404</ele>
<time>2010-05-07T09:24:52Z</time>
</trkpt>
<trkpt lat="35.2790076" lon="24.3461997">
<ele>305.8366699</ele>
<time>2010-05-07T09:25:00Z</time>
</trkpt>
<trkpt lat="35.2790475" lon="24.3461843">
<ele>306.3172607</ele>
<time>2010-05-07T09:25:06Z</time>
</trkpt>
<trkpt lat="35.2790444" lon="24.3461552">
<ele>318.3336182</ele>
<time>2010-05-07T09:25:17Z</time>
</trkpt>
<trkpt lat="35.2790439" lon="24.3461503">
<ele>318.3336182</ele>
<time>2010-05-07T09:25:23Z</time>
</trkpt>
<trkpt lat="35.2790574" lon="24.3461215">
<ele>318.8143311</ele>
<time>2010-05-07T09:25:29Z</time>
</trkpt>
<trkpt lat="35.2790938" lon="24.3460859">
<ele>318.8143311</ele>
<time>2010-05-07T09:25:34Z</time>
</trkpt>
<trkpt lat="35.2791057" lon="24.3460505">
<ele>318.8143311</ele>
<time>2010-05-07T09:25:38Z</time>
</trkpt>
<trkpt lat="35.2790842" lon="24.3460225">
<ele>319.7756348</ele>
<time>2010-05-07T09:25:48Z</time>
</trkpt>
<trkpt lat="35.2791018" lon="24.3460050">
<ele>318.8143311</ele>
<time>2010-05-07T09:25:57Z</time>
</trkpt>
<trkpt lat="35.2791159" lon="24.3460162">
<ele>317.8530273</ele>
<time>2010-05-07T09:26:05Z</time>
</trkpt>
<trkpt lat="35.2791330" lon="24.3460531">
<ele>316.8917236</ele>
<time>2010-05-07T09:26:37Z</time>
</trkpt>
<trkpt lat="35.2791259" lon="24.3460440">
<ele>315.4498291</ele>
<time>2010-05-07T09:26:51Z</time>
</trkpt>
<trkpt lat="35.2791459" lon="24.3460309">
<ele>314.0078125</ele>
<time>2010-05-07T09:26:53Z</time>
</trkpt>
<trkpt lat="35.2792008" lon="24.3459915">
<ele>310.6430664</ele>
<time>2010-05-07T09:26:59Z</time>
</trkpt>
<trkpt lat="35.2792303" lon="24.3459027">
<ele>310.6430664</ele>
<time>2010-05-07T09:27:08Z</time>
</trkpt>
<trkpt lat="35.2791918" lon="24.3458427">
<ele>314.0078125</ele>
<time>2010-05-07T09:27:15Z</time>
</trkpt>
<trkpt lat="35.2791576" lon="24.3458204">
<ele>313.5272217</ele>
<time>2010-05-07T09:27:20Z</time>
</trkpt>
<trkpt lat="35.2791137" lon="24.3457875">
<ele>315.9304199</ele>
<time>2010-05-07T09:27:26Z</time>
</trkpt>
<trkpt lat="35.2790637" lon="24.3457589">
<ele>316.4110107</ele>
<time>2010-05-07T09:27:32Z</time>
</trkpt>
<trkpt lat="35.2790086" lon="24.3457112">
<ele>317.8530273</ele>
<time>2010-05-07T09:27:40Z</time>
</trkpt>
<trkpt lat="35.2789504" lon="24.3457004">
<ele>318.8143311</ele>
<time>2010-05-07T09:27:47Z</time>
</trkpt>
<trkpt lat="35.2788845" lon="24.3457328">
<ele>320.2563477</ele>
<time>2010-05-07T09:27:55Z</time>
</trkpt>
<trkpt lat="35.2788229" lon="24.3457727">
<ele>323.6209717</ele>
<time>2010-05-07T09:28:02Z</time>
</trkpt>
<trkpt lat="35.2787981" lon="24.3457537">
<ele>325.0629883</ele>
<time>2010-05-07T09:28:08Z</time>
</trkpt>
<trkpt lat="35.2788280" lon="24.3456853">
<ele>326.0241699</ele>
<time>2010-05-07T09:28:17Z</time>
</trkpt>
<trkpt lat="35.2788781" lon="24.3456586">
<ele>327.4661865</ele>
<time>2010-05-07T09:28:22Z</time>
</trkpt>
<trkpt lat="35.2788970" lon="24.3456495">
<ele>327.4661865</ele>
<time>2010-05-07T09:28:24Z</time>
</trkpt>
<trkpt lat="35.2789045" lon="24.3455885">
<ele>326.9855957</ele>
<time>2010-05-07T09:28:32Z</time>
</trkpt>
<trkpt lat="35.2789171" lon="24.3455030">
<ele>326.0241699</ele>
<time>2010-05-07T09:28:40Z</time>
</trkpt>
<trkpt lat="35.2789283" lon="24.3454812">
<ele>326.5048828</ele>
<time>2010-05-07T09:28:42Z</time>
</trkpt>
<trkpt lat="35.2789690" lon="24.3454181">
<ele>326.0241699</ele>
<time>2010-05-07T09:28:50Z</time>
</trkpt>
<trkpt lat="35.2790179" lon="24.3453840">
<ele>324.5822754</ele>
<time>2010-05-07T09:28:57Z</time>
</trkpt>
<trkpt lat="35.2790319" lon="24.3453714">
<ele>333.7147217</ele>
<time>2010-05-07T09:29:04Z</time>
</trkpt>
<trkpt lat="35.2790574" lon="24.3453425">
<ele>337.5600586</ele>
<time>2010-05-07T09:29:16Z</time>
</trkpt>
<trkpt lat="35.2790866" lon="24.3453337">
<ele>337.0794678</ele>
<time>2010-05-07T09:29:24Z</time>
</trkpt>
<trkpt lat="35.2790992" lon="24.3453480">
<ele>337.0794678</ele>
<time>2010-05-07T09:29:30Z</time>
</trkpt>
<trkpt lat="35.2791326" lon="24.3453300">
<ele>331.7921143</ele>
<time>2010-05-07T09:29:42Z</time>
</trkpt>
<trkpt lat="35.2791161" lon="24.3453071">
<ele>332.2728271</ele>
<time>2010-05-07T09:29:50Z</time>
</trkpt>
<trkpt lat="35.2791409" lon="24.3453213">
<ele>333.7147217</ele>
<time>2010-05-07T09:29:56Z</time>
</trkpt>
<trkpt lat="35.2791873" lon="24.3453502">
<ele>334.1954346</ele>
<time>2010-05-07T09:30:04Z</time>
</trkpt>
<trkpt lat="35.2792023" lon="24.3453650">
<ele>334.6761475</ele>
<time>2010-05-07T09:30:10Z</time>
</trkpt>
<trkpt lat="35.2792031" lon="24.3453668">
<ele>335.1567383</ele>
<time>2010-05-07T09:30:15Z</time>
</trkpt>
<trkpt lat="35.2792200" lon="24.3453640">
<ele>335.1567383</ele>
<time>2010-05-07T09:30:29Z</time>
</trkpt>
<trkpt lat="35.2792642" lon="24.3453532">
<ele>334.6761475</ele>
<time>2010-05-07T09:30:36Z</time>
</trkpt>
<trkpt lat="35.2793020" lon="24.3453327">
<ele>334.1954346</ele>
<time>2010-05-07T09:30:43Z</time>
</trkpt>
<trkpt lat="35.2792981" lon="24.3453213">
<ele>337.5600586</ele>
<time>2010-05-07T09:30:51Z</time>
</trkpt>
<trkpt lat="35.2792928" lon="24.3452666">
<ele>338.0407715</ele>
<time>2010-05-07T09:31:02Z</time>
</trkpt>
<trkpt lat="35.2792897" lon="24.3451990">
<ele>337.5600586</ele>
<time>2010-05-07T09:31:09Z</time>
</trkpt>
<trkpt lat="35.2792723" lon="24.3451209">
<ele>338.5214844</ele>
<time>2010-05-07T09:31:16Z</time>
</trkpt>
<trkpt lat="35.2792381" lon="24.3450657">
<ele>340.4440918</ele>
<time>2010-05-07T09:31:22Z</time>
</trkpt>
<trkpt lat="35.2792071" lon="24.3450166">
<ele>340.4440918</ele>
<time>2010-05-07T09:31:28Z</time>
</trkpt>
<trkpt lat="35.2791558" lon="24.3449968">
<ele>339.4826660</ele>
<time>2010-05-07T09:31:34Z</time>
</trkpt>
<trkpt lat="35.2790959" lon="24.3449637">
<ele>339.9633789</ele>
<time>2010-05-07T09:31:41Z</time>
</trkpt>
<trkpt lat="35.2790633" lon="24.3449396">
<ele>340.9246826</ele>
<time>2010-05-07T09:31:47Z</time>
</trkpt>
<trkpt lat="35.2790844" lon="24.3449054">
<ele>341.4052734</ele>
<time>2010-05-07T09:31:52Z</time>
</trkpt>
<trkpt lat="35.2791135" lon="24.3448581">
<ele>341.8859863</ele>
<time>2010-05-07T09:31:58Z</time>
</trkpt>
<trkpt lat="35.2791539" lon="24.3448405">
<ele>342.8472900</ele>
<time>2010-05-07T09:32:03Z</time>
</trkpt>
<trkpt lat="35.2791926" lon="24.3448352">
<ele>342.3666992</ele>
<time>2010-05-07T09:32:08Z</time>
</trkpt>
<trkpt lat="35.2791936" lon="24.3448436">
<ele>343.3278809</ele>
<time>2010-05-07T09:32:13Z</time>
</trkpt>
<trkpt lat="35.2792133" lon="24.3448491">
<ele>347.1732178</ele>
<time>2010-05-07T09:32:26Z</time>
</trkpt>
<trkpt lat="35.2792039" lon="24.3448228">
<ele>348.1346436</ele>
<time>2010-05-07T09:32:31Z</time>
</trkpt>
<trkpt lat="35.2791949" lon="24.3448018">
<ele>348.6152344</ele>
<time>2010-05-07T09:32:36Z</time>
</trkpt>
<trkpt lat="35.2792191" lon="24.3448151">
<ele>349.0958252</ele>
<time>2010-05-07T09:32:46Z</time>
</trkpt>
<trkpt lat="35.2792854" lon="24.3448078">
<ele>349.0958252</ele>
<time>2010-05-07T09:32:53Z</time>
</trkpt>
<trkpt lat="35.2793128" lon="24.3448137">
<ele>349.5765381</ele>
<time>2010-05-07T09:32:58Z</time>
</trkpt>
<trkpt lat="35.2793117" lon="24.3448289">
<ele>352.9411621</ele>
<time>2010-05-07T09:33:22Z</time>
</trkpt>
<trkpt lat="35.2793274" lon="24.3448120">
<ele>353.4218750</ele>
<time>2010-05-07T09:33:42Z</time>
</trkpt>
<trkpt lat="35.2793506" lon="24.3447935">
<ele>354.3831787</ele>
<time>2010-05-07T09:33:48Z</time>
</trkpt>
<trkpt lat="35.2793368" lon="24.3447819">
<ele>355.8251953</ele>
<time>2010-05-07T09:33:55Z</time>
</trkpt>
<trkpt lat="35.2793345" lon="24.3447820">
<ele>355.8251953</ele>
<time>2010-05-07T09:34:02Z</time>
</trkpt>
<trkpt lat="35.2793629" lon="24.3447736">
<ele>354.3831787</ele>
<time>2010-05-07T09:34:12Z</time>
</trkpt>
<trkpt lat="35.2794031" lon="24.3447638">
<ele>354.3831787</ele>
<time>2010-05-07T09:34:19Z</time>
</trkpt>
<trkpt lat="35.2794439" lon="24.3447369">
<ele>353.9025879</ele>
<time>2010-05-07T09:34:26Z</time>
</trkpt>
<trkpt lat="35.2794709" lon="24.3447022">
<ele>353.9025879</ele>
<time>2010-05-07T09:34:32Z</time>
</trkpt>
<trkpt lat="35.2795132" lon="24.3446709">
<ele>354.3831787</ele>
<time>2010-05-07T09:34:39Z</time>
</trkpt>
<trkpt lat="35.2795460" lon="24.3446621">
<ele>353.9025879</ele>
<time>2010-05-07T09:34:44Z</time>
</trkpt>
<trkpt lat="35.2795487" lon="24.3446396">
<ele>362.0737305</ele>
<time>2010-05-07T09:34:52Z</time>
</trkpt>
<trkpt lat="35.2795434" lon="24.3446416">
<ele>364.4769287</ele>
<time>2010-05-07T09:35:04Z</time>
</trkpt>
<trkpt lat="35.2795409" lon="24.3446327">
<ele>367.3609619</ele>
<time>2010-05-07T09:35:26Z</time>
</trkpt>
<trkpt lat="35.2795719" lon="24.3446555">
<ele>362.0737305</ele>
<time>2010-05-07T09:36:26Z</time>
</trkpt>
<trkpt lat="35.2795926" lon="24.3446513">
<ele>364.9576416</ele>
<time>2010-05-07T09:36:45Z</time>
</trkpt>
<trkpt lat="35.2795836" lon="24.3446315">
<ele>373.1289063</ele>
<time>2010-05-07T09:36:53Z</time>
</trkpt>
<trkpt lat="35.2795774" lon="24.3446348">
<ele>374.0900879</ele>
<time>2010-05-07T09:37:31Z</time>
</trkpt>
<trkpt lat="35.2795884" lon="24.3446512">
<ele>373.6094971</ele>
<time>2010-05-07T09:37:35Z</time>
</trkpt>
<trkpt lat="35.2796201" lon="24.3446776">
<ele>369.2836914</ele>
<time>2010-05-07T09:37:42Z</time>
</trkpt>
<trkpt lat="35.2796402" lon="24.3446834">
<ele>369.2836914</ele>
<time>2010-05-07T09:37:47Z</time>
</trkpt>
<trkpt lat="35.2796515" lon="24.3446763">
<ele>367.3609619</ele>
<time>2010-05-07T09:38:02Z</time>
</trkpt>
<trkpt lat="35.2796718" lon="24.3446598">
<ele>365.9189453</ele>
<time>2010-05-07T09:38:07Z</time>
</trkpt>
<trkpt lat="35.2797024" lon="24.3446538">
<ele>363.9963379</ele>
<time>2010-05-07T09:38:12Z</time>
</trkpt>
<trkpt lat="35.2797464" lon="24.3446591">
<ele>363.0350342</ele>
<time>2010-05-07T09:38:19Z</time>
</trkpt>
<trkpt lat="35.2797941" lon="24.3446215">
<ele>360.1511230</ele>
<time>2010-05-07T09:38:27Z</time>
</trkpt>
<trkpt lat="35.2798130" lon="24.3446194">
<ele>359.6704102</ele>
<time>2010-05-07T09:38:32Z</time>
</trkpt>
<trkpt lat="35.2798452" lon="24.3446207">
<ele>362.0737305</ele>
<time>2010-05-07T09:38:38Z</time>
</trkpt>
<trkpt lat="35.2798832" lon="24.3446343">
<ele>360.1511230</ele>
<time>2010-05-07T09:38:43Z</time>
</trkpt>
<trkpt lat="35.2799226" lon="24.3446696">
<ele>358.2283936</ele>
<time>2010-05-07T09:38:49Z</time>
</trkpt>
<trkpt lat="35.2799700" lon="24.3446923">
<ele>357.7478027</ele>
<time>2010-05-07T09:38:55Z</time>
</trkpt>
<trkpt lat="35.2800076" lon="24.3447269">
<ele>359.1896973</ele>
<time>2010-05-07T09:39:01Z</time>
</trkpt>
<trkpt lat="35.2800649" lon="24.3447574">
<ele>358.7089844</ele>
<time>2010-05-07T09:39:08Z</time>
</trkpt>
<trkpt lat="35.2801147" lon="24.3448057">
<ele>357.7478027</ele>
<time>2010-05-07T09:39:14Z</time>
</trkpt>
<trkpt lat="35.2801427" lon="24.3448219">
<ele>357.2670898</ele>
<time>2010-05-07T09:39:21Z</time>
</trkpt>
<trkpt lat="35.2801524" lon="24.3448177">
<ele>358.2283936</ele>
<time>2010-05-07T09:39:29Z</time>
</trkpt>
<trkpt lat="35.2801955" lon="24.3448400">
<ele>356.3057861</ele>
<time>2010-05-07T09:39:42Z</time>
</trkpt>
<trkpt lat="35.2802594" lon="24.3448577">
<ele>353.4218750</ele>
<time>2010-05-07T09:39:49Z</time>
</trkpt>
<trkpt lat="35.2803347" lon="24.3448701">
<ele>351.4991455</ele>
<time>2010-05-07T09:39:57Z</time>
</trkpt>
<trkpt lat="35.2803687" lon="24.3448880">
<ele>349.0958252</ele>
<time>2010-05-07T09:40:01Z</time>
</trkpt>
<trkpt lat="35.2804126" lon="24.3449317">
<ele>349.0958252</ele>
<time>2010-05-07T09:40:08Z</time>
</trkpt>
<trkpt lat="35.2804389" lon="24.3449695">
<ele>350.5378418</ele>
<time>2010-05-07T09:40:13Z</time>
</trkpt>
<trkpt lat="35.2804606" lon="24.3450295">
<ele>351.4991455</ele>
<time>2010-05-07T09:40:19Z</time>
</trkpt>
<trkpt lat="35.2804726" lon="24.3450622">
<ele>351.0184326</ele>
<time>2010-05-07T09:40:23Z</time>
</trkpt>
<trkpt lat="35.2805198" lon="24.3451368">
<ele>350.5378418</ele>
<time>2010-05-07T09:40:30Z</time>
</trkpt>
<trkpt lat="35.2805207" lon="24.3451492">
<ele>351.0184326</ele>
<time>2010-05-07T09:40:31Z</time>
</trkpt>
<trkpt lat="35.2805250" lon="24.3451726">
<ele>351.4991455</ele>
<time>2010-05-07T09:40:33Z</time>
</trkpt>
<trkpt lat="35.2805425" lon="24.3452535">
<ele>352.9411621</ele>
<time>2010-05-07T09:40:41Z</time>
</trkpt>
<trkpt lat="35.2805658" lon="24.3452807">
<ele>351.9798584</ele>
<time>2010-05-07T09:40:47Z</time>
</trkpt>
<trkpt lat="35.2805846" lon="24.3453039">
<ele>351.9798584</ele>
<time>2010-05-07T09:40:50Z</time>
</trkpt>
<trkpt lat="35.2806254" lon="24.3453528">
<ele>351.0184326</ele>
<time>2010-05-07T09:40:57Z</time>
</trkpt>
<trkpt lat="35.2806447" lon="24.3454037">
<ele>350.5378418</ele>
<time>2010-05-07T09:41:03Z</time>
</trkpt>
<trkpt lat="35.2806590" lon="24.3454215">
<ele>350.5378418</ele>
<time>2010-05-07T09:41:09Z</time>
</trkpt>
<trkpt lat="35.2806787" lon="24.3454032">
<ele>349.0958252</ele>
<time>2010-05-07T09:41:15Z</time>
</trkpt>
<trkpt lat="35.2807102" lon="24.3454075">
<ele>349.5765381</ele>
<time>2010-05-07T09:41:21Z</time>
</trkpt>
<trkpt lat="35.2807556" lon="24.3453973">
<ele>347.6539307</ele>
<time>2010-05-07T09:41:28Z</time>
</trkpt>
<trkpt lat="35.2807874" lon="24.3453922">
<ele>346.2120361</ele>
<time>2010-05-07T09:41:32Z</time>
</trkpt>
<trkpt lat="35.2808172" lon="24.3454094">
<ele>345.2506104</ele>
<time>2010-05-07T09:41:37Z</time>
</trkpt>
<trkpt lat="35.2808501" lon="24.3454358">
<ele>344.7700195</ele>
<time>2010-05-07T09:41:43Z</time>
</trkpt>
<trkpt lat="35.2808771" lon="24.3454966">
<ele>346.6926270</ele>
<time>2010-05-07T09:41:49Z</time>
</trkpt>
<trkpt lat="35.2808715" lon="24.3455531">
<ele>348.1346436</ele>
<time>2010-05-07T09:41:53Z</time>
</trkpt>
<trkpt lat="35.2808955" lon="24.3456098">
<ele>350.5378418</ele>
<time>2010-05-07T09:42:00Z</time>
</trkpt>
<trkpt lat="35.2809149" lon="24.3456564">
<ele>350.0572510</ele>
<time>2010-05-07T09:42:06Z</time>
</trkpt>
<trkpt lat="35.2809482" lon="24.3456974">
<ele>348.6152344</ele>
<time>2010-05-07T09:42:13Z</time>
</trkpt>
<trkpt lat="35.2809721" lon="24.3457279">
<ele>348.1346436</ele>
<time>2010-05-07T09:42:19Z</time>
</trkpt>
<trkpt lat="35.2809913" lon="24.3457554">
<ele>346.6926270</ele>
<time>2010-05-07T09:42:25Z</time>
</trkpt>
<trkpt lat="35.2810161" lon="24.3457781">
<ele>347.6539307</ele>
<time>2010-05-07T09:42:32Z</time>
</trkpt>
<trkpt lat="35.2810491" lon="24.3457924">
<ele>348.1346436</ele>
<time>2010-05-07T09:42:37Z</time>
</trkpt>
<trkpt lat="35.2810518" lon="24.3458432">
<ele>348.6152344</ele>
<time>2010-05-07T09:42:42Z</time>
</trkpt>
<trkpt lat="35.2810584" lon="24.3458808">
<ele>349.0958252</ele>
<time>2010-05-07T09:42:48Z</time>
</trkpt>
<trkpt lat="35.2810939" lon="24.3459082">
<ele>346.6926270</ele>
<time>2010-05-07T09:42:55Z</time>
</trkpt>
<trkpt lat="35.2811190" lon="24.3459636">
<ele>346.6926270</ele>
<time>2010-05-07T09:43:00Z</time>
</trkpt>
<trkpt lat="35.2811346" lon="24.3460227">
<ele>346.6926270</ele>
<time>2010-05-07T09:43:06Z</time>
</trkpt>
<trkpt lat="35.2811798" lon="24.3460749">
<ele>344.2894287</ele>
<time>2010-05-07T09:43:15Z</time>
</trkpt>
<trkpt lat="35.2812092" lon="24.3461007">
<ele>343.3278809</ele>
<time>2010-05-07T09:43:21Z</time>
</trkpt>
<trkpt lat="35.2811855" lon="24.3461376">
<ele>342.3666992</ele>
<time>2010-05-07T09:43:28Z</time>
</trkpt>
<trkpt lat="35.2811853" lon="24.3461692">
<ele>342.8472900</ele>
<time>2010-05-07T09:43:34Z</time>
</trkpt>
<trkpt lat="35.2811663" lon="24.3462060">
<ele>342.8472900</ele>
<time>2010-05-07T09:43:47Z</time>
</trkpt>
<trkpt lat="35.2811720" lon="24.3462448">
<ele>341.8859863</ele>
<time>2010-05-07T09:43:54Z</time>
</trkpt>
<trkpt lat="35.2812020" lon="24.3462370">
<ele>339.0020752</ele>
<time>2010-05-07T09:44:03Z</time>
</trkpt>
<trkpt lat="35.2812091" lon="24.3462411">
<ele>339.0020752</ele>
<time>2010-05-07T09:44:11Z</time>
</trkpt>
<trkpt lat="35.2812013" lon="24.3462624">
<ele>339.4826660</ele>
<time>2010-05-07T09:44:16Z</time>
</trkpt>
<trkpt lat="35.2812060" lon="24.3462573">
<ele>339.9633789</ele>
<time>2010-05-07T09:44:37Z</time>
</trkpt>
<trkpt lat="35.2812138" lon="24.3462493">
<ele>339.9633789</ele>
<time>2010-05-07T09:44:50Z</time>
</trkpt>
<trkpt lat="35.2812446" lon="24.3462333">
<ele>339.9633789</ele>
<time>2010-05-07T09:44:55Z</time>
</trkpt>
<trkpt lat="35.2812818" lon="24.3462210">
<ele>339.4826660</ele>
<time>2010-05-07T09:45:02Z</time>
</trkpt>
<trkpt lat="35.2813014" lon="24.3462280">
<ele>338.5214844</ele>
<time>2010-05-07T09:45:10Z</time>
</trkpt>
<trkpt lat="35.2813251" lon="24.3462281">
<ele>339.0020752</ele>
<time>2010-05-07T09:45:19Z</time>
</trkpt>
<trkpt lat="35.2813475" lon="24.3462339">
<ele>337.5600586</ele>
<time>2010-05-07T09:45:26Z</time>
</trkpt>
<trkpt lat="35.2813549" lon="24.3462370">
<ele>337.0794678</ele>
<time>2010-05-07T09:45:33Z</time>
</trkpt>
<trkpt lat="35.2813480" lon="24.3462467">
<ele>338.5214844</ele>
<time>2010-05-07T09:45:46Z</time>
</trkpt>
<trkpt lat="35.2813766" lon="24.3462639">
<ele>339.9633789</ele>
<time>2010-05-07T09:45:56Z</time>
</trkpt>
<trkpt lat="35.2813889" lon="24.3462969">
<ele>339.9633789</ele>
<time>2010-05-07T09:46:03Z</time>
</trkpt>
<trkpt lat="35.2814046" lon="24.3462855">
<ele>339.0020752</ele>
<time>2010-05-07T09:46:12Z</time>
</trkpt>
<trkpt lat="35.2814098" lon="24.3462790">
<ele>338.0407715</ele>
<time>2010-05-07T09:46:22Z</time>
</trkpt>
<trkpt lat="35.2814220" lon="24.3462842">
<ele>338.5214844</ele>
<time>2010-05-07T09:46:30Z</time>
</trkpt>
<trkpt lat="35.2814168" lon="24.3462852">
<ele>339.4826660</ele>
<time>2010-05-07T09:46:38Z</time>
</trkpt>
<trkpt lat="35.2814221" lon="24.3462862">
<ele>340.4440918</ele>
<time>2010-05-07T09:47:07Z</time>
</trkpt>
<trkpt lat="35.2814232" lon="24.3463136">
<ele>344.2894287</ele>
<time>2010-05-07T09:47:19Z</time>
</trkpt>
<trkpt lat="35.2814259" lon="24.3463029">
<ele>344.2894287</ele>
<time>2010-05-07T09:47:34Z</time>
</trkpt>
<trkpt lat="35.2814423" lon="24.3463094">
<ele>342.8472900</ele>
<time>2010-05-07T09:47:41Z</time>
</trkpt>
<trkpt lat="35.2814717" lon="24.3463083">
<ele>343.3278809</ele>
<time>2010-05-07T09:47:46Z</time>
</trkpt>
<trkpt lat="35.2814819" lon="24.3463055">
<ele>341.8859863</ele>
<time>2010-05-07T09:47:53Z</time>
</trkpt>
<trkpt lat="35.2814876" lon="24.3463105">
<ele>341.8859863</ele>
<time>2010-05-07T09:48:02Z</time>
</trkpt>
<trkpt lat="35.2814841" lon="24.3463159">
<ele>341.8859863</ele>
<time>2010-05-07T09:48:14Z</time>
</trkpt>
<trkpt lat="35.2814822" lon="24.3463234">
<ele>342.3666992</ele>
<time>2010-05-07T09:48:23Z</time>
</trkpt>
<trkpt lat="35.2814821" lon="24.3463048">
<ele>343.3278809</ele>
<time>2010-05-07T09:48:42Z</time>
</trkpt>
<trkpt lat="35.2814919" lon="24.3463190">
<ele>344.7700195</ele>
<time>2010-05-07T09:48:47Z</time>
</trkpt>
<trkpt lat="35.2815128" lon="24.3463510">
<ele>344.7700195</ele>
<time>2010-05-07T09:48:52Z</time>
</trkpt>
<trkpt lat="35.2815238" lon="24.3463601">
<ele>343.8085938</ele>
<time>2010-05-07T09:49:05Z</time>
</trkpt>
<trkpt lat="35.2815142" lon="24.3463446">
<ele>343.8085938</ele>
<time>2010-05-07T09:49:19Z</time>
</trkpt>
<trkpt lat="35.2815103" lon="24.3463332">
<ele>343.3278809</ele>
<time>2010-05-07T09:49:29Z</time>
</trkpt>
<trkpt lat="35.2815181" lon="24.3463386">
<ele>343.8085938</ele>
<time>2010-05-07T09:49:59Z</time>
</trkpt>
<trkpt lat="35.2815118" lon="24.3463396">
<ele>344.2894287</ele>
<time>2010-05-07T09:50:23Z</time>
</trkpt>
<trkpt lat="35.2815051" lon="24.3463324">
<ele>343.8085938</ele>
<time>2010-05-07T09:50:32Z</time>
</trkpt>
<trkpt lat="35.2815153" lon="24.3463309">
<ele>342.8472900</ele>
<time>2010-05-07T09:50:48Z</time>
</trkpt>
<trkpt lat="35.2815506" lon="24.3463753">
<ele>340.9246826</ele>
<time>2010-05-07T09:50:56Z</time>
</trkpt>
<trkpt lat="35.2815925" lon="24.3463815">
<ele>339.4826660</ele>
<time>2010-05-07T09:51:01Z</time>
</trkpt>
<trkpt lat="35.2816445" lon="24.3463874">
<ele>337.0794678</ele>
<time>2010-05-07T09:51:08Z</time>
</trkpt>
<trkpt lat="35.2816978" lon="24.3464127">
<ele>334.1954346</ele>
<time>2010-05-07T09:51:15Z</time>
</trkpt>
<trkpt lat="35.2817428" lon="24.3464291">
<ele>332.7535400</ele>
<time>2010-05-07T09:51:20Z</time>
</trkpt>
<trkpt lat="35.2817967" lon="24.3464368">
<ele>330.8309326</ele>
<time>2010-05-07T09:51:26Z</time>
</trkpt>
<trkpt lat="35.2818478" lon="24.3464406">
<ele>330.3502197</ele>
<time>2010-05-07T09:51:33Z</time>
</trkpt>
<trkpt lat="35.2818897" lon="24.3464273">
<ele>328.4276123</ele>
<time>2010-05-07T09:51:43Z</time>
</trkpt>
<trkpt lat="35.2819247" lon="24.3464142">
<ele>327.4661865</ele>
<time>2010-05-07T09:51:50Z</time>
</trkpt>
<trkpt lat="35.2819434" lon="24.3464125">
<ele>327.9467773</ele>
<time>2010-05-07T09:51:59Z</time>
</trkpt>
<trkpt lat="35.2819862" lon="24.3464034">
<ele>327.4661865</ele>
<time>2010-05-07T09:52:05Z</time>
</trkpt>
<trkpt lat="35.2820434" lon="24.3464070">
<ele>326.9855957</ele>
<time>2010-05-07T09:52:13Z</time>
</trkpt>
<trkpt lat="35.2820667" lon="24.3464112">
<ele>326.5048828</ele>
<time>2010-05-07T09:52:20Z</time>
</trkpt>
<trkpt lat="35.2821365" lon="24.3464121">
<ele>325.0629883</ele>
<time>2010-05-07T09:52:28Z</time>
</trkpt>
<trkpt lat="35.2822088" lon="24.3463981">
<ele>323.1403809</ele>
<time>2010-05-07T09:52:35Z</time>
</trkpt>
<trkpt lat="35.2822899" lon="24.3463453">
<ele>321.2177734</ele>
<time>2010-05-07T09:52:45Z</time>
</trkpt>
<trkpt lat="35.2823509" lon="24.3463320">
<ele>324.1015625</ele>
<time>2010-05-07T09:52:52Z</time>
</trkpt>
<trkpt lat="35.2824171" lon="24.3463200">
<ele>325.0629883</ele>
<time>2010-05-07T09:52:59Z</time>
</trkpt>
<trkpt lat="35.2824645" lon="24.3463189">
<ele>325.0629883</ele>
<time>2010-05-07T09:53:04Z</time>
</trkpt>
<trkpt lat="35.2824984" lon="24.3463168">
<ele>324.5822754</ele>
<time>2010-05-07T09:53:07Z</time>
</trkpt>
<trkpt lat="35.2825674" lon="24.3462981">
<ele>323.1403809</ele>
<time>2010-05-07T09:53:14Z</time>
</trkpt>
<trkpt lat="35.2826052" lon="24.3462465">
<ele>320.7370605</ele>
<time>2010-05-07T09:53:22Z</time>
</trkpt>
<trkpt lat="35.2826131" lon="24.3462112">
<ele>321.6983643</ele>
<time>2010-05-07T09:53:27Z</time>
</trkpt>
<trkpt lat="35.2825432" lon="24.3461449">
<ele>327.9467773</ele>
<time>2010-05-07T09:53:36Z</time>
</trkpt>
<trkpt lat="35.2824909" lon="24.3460748">
<ele>329.3889160</ele>
<time>2010-05-07T09:53:44Z</time>
</trkpt>
<trkpt lat="35.2824694" lon="24.3459905">
<ele>328.9083252</ele>
<time>2010-05-07T09:53:51Z</time>
</trkpt>
<trkpt lat="35.2824608" lon="24.3459588">
<ele>329.3889160</ele>
<time>2010-05-07T09:53:54Z</time>
</trkpt>
<trkpt lat="35.2824561" lon="24.3458449">
<ele>331.3115234</ele>
<time>2010-05-07T09:54:03Z</time>
</trkpt>
<trkpt lat="35.2824573" lon="24.3458318">
<ele>331.3115234</ele>
<time>2010-05-07T09:54:04Z</time>
</trkpt>
<trkpt lat="35.2824616" lon="24.3458056">
<ele>331.7921143</ele>
<time>2010-05-07T09:54:06Z</time>
</trkpt>
<trkpt lat="35.2824642" lon="24.3457584">
<ele>330.3502197</ele>
<time>2010-05-07T09:54:10Z</time>
</trkpt>
<trkpt lat="35.2824549" lon="24.3456818">
<ele>331.3115234</ele>
<time>2010-05-07T09:54:20Z</time>
</trkpt>
<trkpt lat="35.2824220" lon="24.3456626">
<ele>332.2728271</ele>
<time>2010-05-07T09:54:26Z</time>
</trkpt>
<trkpt lat="35.2823991" lon="24.3456563">
<ele>332.2728271</ele>
<time>2010-05-07T09:54:30Z</time>
</trkpt>
<trkpt lat="35.2823266" lon="24.3456643">
<ele>332.2728271</ele>
<time>2010-05-07T09:54:38Z</time>
</trkpt>
<trkpt lat="35.2822862" lon="24.3456677">
<ele>334.1954346</ele>
<time>2010-05-07T09:54:44Z</time>
</trkpt>
<trkpt lat="35.2822665" lon="24.3456774">
<ele>336.5988770</ele>
<time>2010-05-07T09:54:51Z</time>
</trkpt>
<trkpt lat="35.2822418" lon="24.3457122">
<ele>341.8859863</ele>
<time>2010-05-07T09:54:58Z</time>
</trkpt>
<trkpt lat="35.2822581" lon="24.3456959">
<ele>340.9246826</ele>
<time>2010-05-07T09:55:07Z</time>
</trkpt>
<trkpt lat="35.2822687" lon="24.3456822">
<ele>339.4826660</ele>
<time>2010-05-07T09:55:15Z</time>
</trkpt>
<trkpt lat="35.2822728" lon="24.3456795">
<ele>341.4052734</ele>
<time>2010-05-07T09:55:42Z</time>
</trkpt>
<trkpt lat="35.2822793" lon="24.3456942">
<ele>342.3666992</ele>
<time>2010-05-07T09:55:54Z</time>
</trkpt>
<trkpt lat="35.2822814" lon="24.3456957">
<ele>341.4052734</ele>
<time>2010-05-07T09:56:02Z</time>
</trkpt>
<trkpt lat="35.2822816" lon="24.3456888">
<ele>339.0020752</ele>
<time>2010-05-07T09:56:12Z</time>
</trkpt>
<trkpt lat="35.2822826" lon="24.3456901">
<ele>337.5600586</ele>
<time>2010-05-07T09:56:23Z</time>
</trkpt>
<trkpt lat="35.2822785" lon="24.3456801">
<ele>338.0407715</ele>
<time>2010-05-07T09:56:34Z</time>
</trkpt>
<trkpt lat="35.2822722" lon="24.3456668">
<ele>336.1181641</ele>
<time>2010-05-07T09:56:44Z</time>
</trkpt>
<trkpt lat="35.2822644" lon="24.3456698">
<ele>336.5988770</ele>
<time>2010-05-07T09:57:00Z</time>
</trkpt>
<trkpt lat="35.2822524" lon="24.3456771">
<ele>340.9246826</ele>
<time>2010-05-07T09:57:36Z</time>
</trkpt>
<trkpt lat="35.2822544" lon="24.3456729">
<ele>339.9633789</ele>
<time>2010-05-07T09:58:47Z</time>
</trkpt>
<trkpt lat="35.2822686" lon="24.3456673">
<ele>336.1181641</ele>
<time>2010-05-07T09:59:48Z</time>
</trkpt>
<trkpt lat="35.2822712" lon="24.3456699">
<ele>335.6373291</ele>
<time>2010-05-07T09:59:55Z</time>
</trkpt>
<trkpt lat="35.2822659" lon="24.3456761">
<ele>335.1567383</ele>
<time>2010-05-07T10:00:14Z</time>
</trkpt>
<trkpt lat="35.2822648" lon="24.3456859">
<ele>336.5988770</ele>
<time>2010-05-07T10:00:46Z</time>
</trkpt>
<trkpt lat="35.2822702" lon="24.3456802">
<ele>334.6761475</ele>
<time>2010-05-07T10:01:06Z</time>
</trkpt>
<trkpt lat="35.2822653" lon="24.3456812">
<ele>334.1954346</ele>
<time>2010-05-07T10:02:01Z</time>
</trkpt>
<trkpt lat="35.2822723" lon="24.3456800">
<ele>336.5988770</ele>
<time>2010-05-07T10:04:32Z</time>
</trkpt>
<trkpt lat="35.2822618" lon="24.3456874">
<ele>340.9246826</ele>
<time>2010-05-07T10:08:23Z</time>
</trkpt>
<trkpt lat="35.2822576" lon="24.3456813">
<ele>339.0020752</ele>
<time>2010-05-07T10:08:56Z</time>
</trkpt>
<trkpt lat="35.2822586" lon="24.3456735">
<ele>341.4052734</ele>
<time>2010-05-07T10:11:31Z</time>
</trkpt>
<trkpt lat="35.2822613" lon="24.3456646">
<ele>336.1181641</ele>
<time>2010-05-07T10:11:51Z</time>
</trkpt>
<trkpt lat="35.2822888" lon="24.3456662">
<ele>335.6373291</ele>
<time>2010-05-07T10:12:02Z</time>
</trkpt>
<trkpt lat="35.2822879" lon="24.3456620">
<ele>335.1567383</ele>
<time>2010-05-07T10:12:11Z</time>
</trkpt>
<trkpt lat="35.2822728" lon="24.3456460">
<ele>332.2728271</ele>
<time>2010-05-07T10:12:27Z</time>
</trkpt>
<trkpt lat="35.2822426" lon="24.3456862">
<ele>337.5600586</ele>
<time>2010-05-07T10:13:33Z</time>
</trkpt>
<trkpt lat="35.2822404" lon="24.3456940">
<ele>337.5600586</ele>
<time>2010-05-07T10:13:49Z</time>
</trkpt>
<trkpt lat="35.2822448" lon="24.3457292">
<ele>346.6926270</ele>
<time>2010-05-07T10:14:18Z</time>
</trkpt>
<trkpt lat="35.2822544" lon="24.3456880">
<ele>341.8859863</ele>
<time>2010-05-07T10:14:30Z</time>
</trkpt>
<trkpt lat="35.2822614" lon="24.3457057">
<ele>344.7700195</ele>
<time>2010-05-07T10:14:42Z</time>
</trkpt>
<trkpt lat="35.2822609" lon="24.3456785">
<ele>338.0407715</ele>
<time>2010-05-07T10:15:05Z</time>
</trkpt>
<trkpt lat="35.2822598" lon="24.3456823">
<ele>337.5600586</ele>
<time>2010-05-07T10:15:18Z</time>
</trkpt>
<trkpt lat="35.2822603" lon="24.3456758">
<ele>336.1181641</ele>
<time>2010-05-07T10:15:31Z</time>
</trkpt>
<trkpt lat="35.2822656" lon="24.3456692">
<ele>333.7147217</ele>
<time>2010-05-07T10:15:41Z</time>
</trkpt>
<trkpt lat="35.2822702" lon="24.3457026">
<ele>337.5600586</ele>
<time>2010-05-07T10:15:56Z</time>
</trkpt>
<trkpt lat="35.2822713" lon="24.3457430">
<ele>344.2894287</ele>
<time>2010-05-07T10:16:46Z</time>
</trkpt>
<trkpt lat="35.2822593" lon="24.3458205">
<ele>355.8251953</ele>
<time>2010-05-07T10:18:02Z</time>
</trkpt>
<trkpt lat="35.2822691" lon="24.3457513">
<ele>341.8859863</ele>
<time>2010-05-07T10:18:42Z</time>
</trkpt>
<trkpt lat="35.2822726" lon="24.3457306">
<ele>340.4440918</ele>
<time>2010-05-07T10:18:56Z</time>
</trkpt>
<trkpt lat="35.2822603" lon="24.3457092">
<ele>338.5214844</ele>
<time>2010-05-07T10:19:52Z</time>
</trkpt>
<trkpt lat="35.2822614" lon="24.3456909">
<ele>336.1181641</ele>
<time>2010-05-07T10:19:59Z</time>
</trkpt>
<trkpt lat="35.2822489" lon="24.3457396">
<ele>346.6926270</ele>
<time>2010-05-07T10:20:39Z</time>
</trkpt>
<trkpt lat="35.2822660" lon="24.3457161">
<ele>339.9633789</ele>
<time>2010-05-07T10:20:57Z</time>
</trkpt>
<trkpt lat="35.2822977" lon="24.3457044">
<ele>337.0794678</ele>
<time>2010-05-07T10:21:04Z</time>
</trkpt>
<trkpt lat="35.2823425" lon="24.3456998">
<ele>334.6761475</ele>
<time>2010-05-07T10:21:11Z</time>
</trkpt>
<trkpt lat="35.2824090" lon="24.3456935">
<ele>333.2341309</ele>
<time>2010-05-07T10:21:19Z</time>
</trkpt>
<trkpt lat="35.2824215" lon="24.3457249">
<ele>335.6373291</ele>
<time>2010-05-07T10:21:25Z</time>
</trkpt>
<trkpt lat="35.2824499" lon="24.3457275">
<ele>337.0794678</ele>
<time>2010-05-07T10:21:32Z</time>
</trkpt>
<trkpt lat="35.2824611" lon="24.3457703">
<ele>336.5988770</ele>
<time>2010-05-07T10:21:39Z</time>
</trkpt>
<trkpt lat="35.2824578" lon="24.3458195">
<ele>335.6373291</ele>
<time>2010-05-07T10:21:45Z</time>
</trkpt>
<trkpt lat="35.2824520" lon="24.3458159">
<ele>332.7535400</ele>
<time>2010-05-07T10:21:50Z</time>
</trkpt>
<trkpt lat="35.2824510" lon="24.3458499">
<ele>331.3115234</ele>
<time>2010-05-07T10:21:56Z</time>
</trkpt>
<trkpt lat="35.2824533" lon="24.3459418">
<ele>329.8695068</ele>
<time>2010-05-07T10:22:05Z</time>
</trkpt>
<trkpt lat="35.2824789" lon="24.3460293">
<ele>327.9467773</ele>
<time>2010-05-07T10:22:13Z</time>
</trkpt>
<trkpt lat="35.2825142" lon="24.3461108">
<ele>326.0241699</ele>
<time>2010-05-07T10:22:21Z</time>
</trkpt>
<trkpt lat="35.2825525" lon="24.3461503">
<ele>326.5048828</ele>
<time>2010-05-07T10:22:26Z</time>
</trkpt>
<trkpt lat="35.2825923" lon="24.3461894">
<ele>325.0629883</ele>
<time>2010-05-07T10:22:33Z</time>
</trkpt>
<trkpt lat="35.2826424" lon="24.3462112">
<ele>324.5822754</ele>
<time>2010-05-07T10:22:41Z</time>
</trkpt>
<trkpt lat="35.2827089" lon="24.3462366">
<ele>324.1015625</ele>
<time>2010-05-07T10:22:49Z</time>
</trkpt>
<trkpt lat="35.2827737" lon="24.3462515">
<ele>323.6209717</ele>
<time>2010-05-07T10:22:56Z</time>
</trkpt>
<trkpt lat="35.2828097" lon="24.3462517">
<ele>323.6209717</ele>
<time>2010-05-07T10:22:59Z</time>
</trkpt>
<trkpt lat="35.2829078" lon="24.3462615">
<ele>323.6209717</ele>
<time>2010-05-07T10:23:09Z</time>
</trkpt>
<trkpt lat="35.2829848" lon="24.3462708">
<ele>319.7756348</ele>
<time>2010-05-07T10:23:17Z</time>
</trkpt>
<trkpt lat="35.2829998" lon="24.3462790">
<ele>319.7756348</ele>
<time>2010-05-07T10:23:22Z</time>
</trkpt>
<trkpt lat="35.2830501" lon="24.3462931">
<ele>317.8530273</ele>
<time>2010-05-07T10:23:28Z</time>
</trkpt>
<trkpt lat="35.2831003" lon="24.3463111">
<ele>315.9304199</ele>
<time>2010-05-07T10:23:34Z</time>
</trkpt>
<trkpt lat="35.2831436" lon="24.3463298">
<ele>314.0078125</ele>
<time>2010-05-07T10:23:40Z</time>
</trkpt>
<trkpt lat="35.2832032" lon="24.3463706">
<ele>313.0465088</ele>
<time>2010-05-07T10:23:47Z</time>
</trkpt>
<trkpt lat="35.2832361" lon="24.3464043">
<ele>313.0465088</ele>
<time>2010-05-07T10:23:51Z</time>
</trkpt>
<trkpt lat="35.2833197" lon="24.3464495">
<ele>311.1237793</ele>
<time>2010-05-07T10:24:00Z</time>
</trkpt>
<trkpt lat="35.2834077" lon="24.3464935">
<ele>310.1624756</ele>
<time>2010-05-07T10:24:08Z</time>
</trkpt>
<trkpt lat="35.2834931" lon="24.3465375">
<ele>310.1624756</ele>
<time>2010-05-07T10:24:16Z</time>
</trkpt>
<trkpt lat="35.2835693" lon="24.3465764">
<ele>309.6818848</ele>
<time>2010-05-07T10:24:24Z</time>
</trkpt>
<trkpt lat="35.2836774" lon="24.3465779">
<ele>307.7592773</ele>
<time>2010-05-07T10:24:32Z</time>
</trkpt>
<trkpt lat="35.2837614" lon="24.3465913">
<ele>305.8366699</ele>
<time>2010-05-07T10:24:40Z</time>
</trkpt>
<trkpt lat="35.2838385" lon="24.3466116">
<ele>304.3946533</ele>
<time>2010-05-07T10:24:47Z</time>
</trkpt>
<trkpt lat="35.2839326" lon="24.3465998">
<ele>302.4719238</ele>
<time>2010-05-07T10:24:55Z</time>
</trkpt>
<trkpt lat="35.2840480" lon="24.3465955">
<ele>299.5880127</ele>
<time>2010-05-07T10:25:06Z</time>
</trkpt>
<trkpt lat="35.2841299" lon="24.3466107">
<ele>298.1461182</ele>
<time>2010-05-07T10:25:14Z</time>
</trkpt>
<trkpt lat="35.2842278" lon="24.3466333">
<ele>297.1846924</ele>
<time>2010-05-07T10:25:24Z</time>
</trkpt>
<trkpt lat="35.2843091" lon="24.3466544">
<ele>295.7426758</ele>
<time>2010-05-07T10:25:33Z</time>
</trkpt>
<trkpt lat="35.2843918" lon="24.3466556">
<ele>294.7813721</ele>
<time>2010-05-07T10:25:41Z</time>
</trkpt>
<trkpt lat="35.2844826" lon="24.3466547">
<ele>293.3393555</ele>
<time>2010-05-07T10:25:50Z</time>
</trkpt>
<trkpt lat="35.2845713" lon="24.3466290">
<ele>293.3393555</ele>
<time>2010-05-07T10:25:58Z</time>
</trkpt>
<trkpt lat="35.2846565" lon="24.3465873">
<ele>291.8974609</ele>
<time>2010-05-07T10:26:06Z</time>
</trkpt>
<trkpt lat="35.2847545" lon="24.3465908">
<ele>292.3781738</ele>
<time>2010-05-07T10:26:15Z</time>
</trkpt>
<trkpt lat="35.2848320" lon="24.3466425">
<ele>292.8587646</ele>
<time>2010-05-07T10:26:24Z</time>
</trkpt>
<trkpt lat="35.2848549" lon="24.3466704">
<ele>293.3393555</ele>
<time>2010-05-07T10:26:27Z</time>
</trkpt>
<trkpt lat="35.2849422" lon="24.3467176">
<ele>292.8587646</ele>
<time>2010-05-07T10:26:36Z</time>
</trkpt>
<trkpt lat="35.2849781" lon="24.3467421">
<ele>291.8974609</ele>
<time>2010-05-07T10:26:40Z</time>
</trkpt>
<trkpt lat="35.2850440" lon="24.3467893">
<ele>290.9361572</ele>
<time>2010-05-07T10:26:48Z</time>
</trkpt>
<trkpt lat="35.2851085" lon="24.3467841">
<ele>289.4941406</ele>
<time>2010-05-07T10:26:55Z</time>
</trkpt>
<trkpt lat="35.2851527" lon="24.3467597">
<ele>288.5329590</ele>
<time>2010-05-07T10:27:01Z</time>
</trkpt>
<trkpt lat="35.2852341" lon="24.3467181">
<ele>285.1682129</ele>
<time>2010-05-07T10:27:10Z</time>
</trkpt>
<trkpt lat="35.2852986" lon="24.3466889">
<ele>282.7650146</ele>
<time>2010-05-07T10:27:19Z</time>
</trkpt>
<trkpt lat="35.2853347" lon="24.3466948">
<ele>282.2843018</ele>
<time>2010-05-07T10:27:26Z</time>
</trkpt>
<trkpt lat="35.2853799" lon="24.3466881">
<ele>282.7650146</ele>
<time>2010-05-07T10:27:34Z</time>
</trkpt>
<trkpt lat="35.2853861" lon="24.3466819">
<ele>283.7261963</ele>
<time>2010-05-07T10:27:38Z</time>
</trkpt>
<trkpt lat="35.2853827" lon="24.3466862">
<ele>283.2456055</ele>
<time>2010-05-07T10:27:48Z</time>
</trkpt>
<trkpt lat="35.2853868" lon="24.3466904">
<ele>284.6876221</ele>
<time>2010-05-07T10:27:58Z</time>
</trkpt>
<trkpt lat="35.2853953" lon="24.3466691">
<ele>285.6488037</ele>
<time>2010-05-07T10:28:09Z</time>
</trkpt>
<trkpt lat="35.2854228" lon="24.3466363">
<ele>285.1682129</ele>
<time>2010-05-07T10:28:17Z</time>
</trkpt>
<trkpt lat="35.2854264" lon="24.3466169">
<ele>284.2069092</ele>
<time>2010-05-07T10:28:25Z</time>
</trkpt>
<trkpt lat="35.2854358" lon="24.3465736">
<ele>282.2843018</ele>
<time>2010-05-07T10:28:36Z</time>
</trkpt>
<trkpt lat="35.2854870" lon="24.3464712">
<ele>280.3616943</ele>
<time>2010-05-07T10:28:47Z</time>
</trkpt>
<trkpt lat="35.2855192" lon="24.3464043">
<ele>279.4002686</ele>
<time>2010-05-07T10:28:53Z</time>
</trkpt>
<trkpt lat="35.2855481" lon="24.3463106">
<ele>280.8424072</ele>
<time>2010-05-07T10:29:00Z</time>
</trkpt>
<trkpt lat="35.2855519" lon="24.3462976">
<ele>280.8424072</ele>
<time>2010-05-07T10:29:01Z</time>
</trkpt>
<trkpt lat="35.2855985" lon="24.3461890">
<ele>279.8808594</ele>
<time>2010-05-07T10:29:10Z</time>
</trkpt>
<trkpt lat="35.2856642" lon="24.3461449">
<ele>279.4002686</ele>
<time>2010-05-07T10:29:17Z</time>
</trkpt>
<trkpt lat="35.2856935" lon="24.3461353">
<ele>279.4002686</ele>
<time>2010-05-07T10:29:20Z</time>
</trkpt>
<trkpt lat="35.2857236" lon="24.3461208">
<ele>280.3616943</ele>
<time>2010-05-07T10:29:24Z</time>
</trkpt>
<trkpt lat="35.2858206" lon="24.3460998">
<ele>280.8424072</ele>
<time>2010-05-07T10:29:33Z</time>
</trkpt>
<trkpt lat="35.2859054" lon="24.3461205">
<ele>280.3616943</ele>
<time>2010-05-07T10:29:41Z</time>
</trkpt>
<trkpt lat="35.2859890" lon="24.3461882">
<ele>279.8808594</ele>
<time>2010-05-07T10:29:49Z</time>
</trkpt>
<trkpt lat="35.2860597" lon="24.3462744">
<ele>277.9582520</ele>
<time>2010-05-07T10:29:58Z</time>
</trkpt>
<trkpt lat="35.2861122" lon="24.3463275">
<ele>277.4776611</ele>
<time>2010-05-07T10:30:04Z</time>
</trkpt>
<trkpt lat="35.2861982" lon="24.3463891">
<ele>276.5163574</ele>
<time>2010-05-07T10:30:13Z</time>
</trkpt>
<trkpt lat="35.2862837" lon="24.3464509">
<ele>274.5937500</ele>
<time>2010-05-07T10:30:22Z</time>
</trkpt>
<trkpt lat="35.2864008" lon="24.3465173">
<ele>273.1518555</ele>
<time>2010-05-07T10:30:33Z</time>
</trkpt>
<trkpt lat="35.2865166" lon="24.3465912">
<ele>271.2291260</ele>
<time>2010-05-07T10:30:44Z</time>
</trkpt>
<trkpt lat="35.2866353" lon="24.3466639">
<ele>270.2677002</ele>
<time>2010-05-07T10:30:55Z</time>
</trkpt>
<trkpt lat="35.2867489" lon="24.3467183">
<ele>269.7871094</ele>
<time>2010-05-07T10:31:05Z</time>
</trkpt>
<trkpt lat="35.2868295" lon="24.3467657">
<ele>268.8258057</ele>
<time>2010-05-07T10:31:13Z</time>
</trkpt>
<trkpt lat="35.2869227" lon="24.3468515">
<ele>266.9031982</ele>
<time>2010-05-07T10:31:24Z</time>
</trkpt>
<trkpt lat="35.2869297" lon="24.3468602">
<ele>266.9031982</ele>
<time>2010-05-07T10:31:25Z</time>
</trkpt>
<trkpt lat="35.2869896" lon="24.3469189">
<ele>264.4998779</ele>
<time>2010-05-07T10:31:33Z</time>
</trkpt>
<trkpt lat="35.2870175" lon="24.3469318">
<ele>264.0192871</ele>
<time>2010-05-07T10:31:36Z</time>
</trkpt>
<trkpt lat="35.2871607" lon="24.3469238">
<ele>262.5771484</ele>
<time>2010-05-07T10:31:47Z</time>
</trkpt>
<trkpt lat="35.2871874" lon="24.3469206">
<ele>262.5771484</ele>
<time>2010-05-07T10:31:49Z</time>
</trkpt>
<trkpt lat="35.2872436" lon="24.3469043">
<ele>262.5771484</ele>
<time>2010-05-07T10:31:54Z</time>
</trkpt>
<trkpt lat="35.2873652" lon="24.3468722">
<ele>261.1352539</ele>
<time>2010-05-07T10:32:04Z</time>
</trkpt>
<trkpt lat="35.2874866" lon="24.3468208">
<ele>258.2513428</ele>
<time>2010-05-07T10:32:15Z</time>
</trkpt>
<trkpt lat="35.2875865" lon="24.3467277">
<ele>256.3287354</ele>
<time>2010-05-07T10:32:25Z</time>
</trkpt>
<trkpt lat="35.2876462" lon="24.3465922">
<ele>254.8865967</ele>
<time>2010-05-07T10:32:35Z</time>
</trkpt>
<trkpt lat="35.2876790" lon="24.3464534">
<ele>253.4447021</ele>
<time>2010-05-07T10:32:45Z</time>
</trkpt>
<trkpt lat="35.2876855" lon="24.3464438">
<ele>252.9639893</ele>
<time>2010-05-07T10:32:46Z</time>
</trkpt>
<trkpt lat="35.2877138" lon="24.3464422">
<ele>252.4833984</ele>
<time>2010-05-07T10:32:50Z</time>
</trkpt>
<trkpt lat="35.2877388" lon="24.3465385">
<ele>250.5607910</ele>
<time>2010-05-07T10:32:58Z</time>
</trkpt>
<trkpt lat="35.2877373" lon="24.3465515">
<ele>250.5607910</ele>
<time>2010-05-07T10:32:59Z</time>
</trkpt>
<trkpt lat="35.2877386" lon="24.3466423">
<ele>249.1187744</ele>
<time>2010-05-07T10:33:06Z</time>
</trkpt>
<trkpt lat="35.2877573" lon="24.3467685">
<ele>248.6381836</ele>
<time>2010-05-07T10:33:16Z</time>
</trkpt>
<trkpt lat="35.2877910" lon="24.3468846">
<ele>246.2348633</ele>
<time>2010-05-07T10:33:25Z</time>
</trkpt>
<trkpt lat="35.2877786" lon="24.3469914">
<ele>244.7928467</ele>
<time>2010-05-07T10:33:33Z</time>
</trkpt>
<trkpt lat="35.2877378" lon="24.3471281">
<ele>242.3896484</ele>
<time>2010-05-07T10:33:44Z</time>
</trkpt>
<trkpt lat="35.2877415" lon="24.3471384">
<ele>242.3896484</ele>
<time>2010-05-07T10:33:45Z</time>
</trkpt>
<trkpt lat="35.2877853" lon="24.3471411">
<ele>241.4282227</ele>
<time>2010-05-07T10:33:53Z</time>
</trkpt>
<trkpt lat="35.2877937" lon="24.3471255">
<ele>241.9089355</ele>
<time>2010-05-07T10:34:01Z</time>
</trkpt>
<trkpt lat="35.2877980" lon="24.3471292">
<ele>242.3896484</ele>
<time>2010-05-07T10:34:09Z</time>
</trkpt>
<trkpt lat="35.2877906" lon="24.3471309">
<ele>242.8702393</ele>
<time>2010-05-07T10:34:22Z</time>
</trkpt>
<trkpt lat="35.2877901" lon="24.3471278">
<ele>242.8702393</ele>
<time>2010-05-07T10:35:00Z</time>
</trkpt>
<trkpt lat="35.2878155" lon="24.3470994">
<ele>242.8702393</ele>
<time>2010-05-07T10:35:10Z</time>
</trkpt>
<trkpt lat="35.2878917" lon="24.3470359">
<ele>241.9089355</ele>
<time>2010-05-07T10:35:19Z</time>
</trkpt>
<trkpt lat="35.2879316" lon="24.3469908">
<ele>241.9089355</ele>
<time>2010-05-07T10:35:25Z</time>
</trkpt>
<trkpt lat="35.2879750" lon="24.3469716">
<ele>241.9089355</ele>
<time>2010-05-07T10:35:30Z</time>
</trkpt>
<trkpt lat="35.2880361" lon="24.3469632">
<ele>241.9089355</ele>
<time>2010-05-07T10:35:39Z</time>
</trkpt>
<trkpt lat="35.2880590" lon="24.3469591">
<ele>240.9476318</ele>
<time>2010-05-07T10:35:42Z</time>
</trkpt>
<trkpt lat="35.2881136" lon="24.3469562">
<ele>239.0249023</ele>
<time>2010-05-07T10:35:47Z</time>
</trkpt>
<trkpt lat="35.2882211" lon="24.3469488">
<ele>233.7376709</ele>
<time>2010-05-07T10:35:58Z</time>
</trkpt>
<trkpt lat="35.2882682" lon="24.3469571">
<ele>233.2570801</ele>
<time>2010-05-07T10:36:02Z</time>
</trkpt>
<trkpt lat="35.2883350" lon="24.3470644">
<ele>230.3730469</ele>
<time>2010-05-07T10:36:12Z</time>
</trkpt>
<trkpt lat="35.2883642" lon="24.3471612">
<ele>228.9311523</ele>
<time>2010-05-07T10:36:20Z</time>
</trkpt>
<trkpt lat="35.2883941" lon="24.3472632">
<ele>227.0085449</ele>
<time>2010-05-07T10:36:27Z</time>
</trkpt>
<trkpt lat="35.2884485" lon="24.3473858">
<ele>227.0085449</ele>
<time>2010-05-07T10:36:35Z</time>
</trkpt>
<trkpt lat="35.2885017" lon="24.3474616">
<ele>226.5278320</ele>
<time>2010-05-07T10:36:40Z</time>
</trkpt>
<trkpt lat="35.2885240" lon="24.3474816">
<ele>226.5278320</ele>
<time>2010-05-07T10:36:42Z</time>
</trkpt>
<trkpt lat="35.2885760" lon="24.3475481">
<ele>227.4891357</ele>
<time>2010-05-07T10:36:48Z</time>
</trkpt>
<trkpt lat="35.2886189" lon="24.3475721">
<ele>227.4891357</ele>
<time>2010-05-07T10:36:52Z</time>
</trkpt>
<trkpt lat="35.2886685" lon="24.3475817">
<ele>228.4504395</ele>
<time>2010-05-07T10:36:56Z</time>
</trkpt>
<trkpt lat="35.2886986" lon="24.3475843">
<ele>228.4504395</ele>
<time>2010-05-07T10:36:59Z</time>
</trkpt>
<trkpt lat="35.2887698" lon="24.3475647">
<ele>227.4891357</ele>
<time>2010-05-07T10:37:06Z</time>
</trkpt>
<trkpt lat="35.2888637" lon="24.3475430">
<ele>225.0859375</ele>
<time>2010-05-07T10:37:14Z</time>
</trkpt>
<trkpt lat="35.2889691" lon="24.3475049">
<ele>223.1632080</ele>
<time>2010-05-07T10:37:24Z</time>
</trkpt>
<trkpt lat="35.2890877" lon="24.3474635">
<ele>221.7211914</ele>
<time>2010-05-07T10:37:34Z</time>
</trkpt>
<trkpt lat="35.2891722" lon="24.3474863">
<ele>222.6824951</ele>
<time>2010-05-07T10:37:42Z</time>
</trkpt>
<trkpt lat="35.2892934" lon="24.3475435">
<ele>223.1632080</ele>
<time>2010-05-07T10:37:52Z</time>
</trkpt>
<trkpt lat="35.2893717" lon="24.3476344">
<ele>223.1632080</ele>
<time>2010-05-07T10:38:01Z</time>
</trkpt>
<trkpt lat="35.2894270" lon="24.3477020">
<ele>223.1632080</ele>
<time>2010-05-07T10:38:08Z</time>
</trkpt>
<trkpt lat="35.2894955" lon="24.3477925">
<ele>223.1632080</ele>
<time>2010-05-07T10:38:16Z</time>
</trkpt>
<trkpt lat="35.2895812" lon="24.3479123">
<ele>221.7211914</ele>
<time>2010-05-07T10:38:27Z</time>
</trkpt>
<trkpt lat="35.2896648" lon="24.3480087">
<ele>221.2406006</ele>
<time>2010-05-07T10:38:38Z</time>
</trkpt>
<trkpt lat="35.2897521" lon="24.3480255">
<ele>220.2791748</ele>
<time>2010-05-07T10:38:46Z</time>
</trkpt>
<trkpt lat="35.2898445" lon="24.3480448">
<ele>219.7985840</ele>
<time>2010-05-07T10:38:54Z</time>
</trkpt>
<trkpt lat="35.2899562" lon="24.3480588">
<ele>217.3953857</ele>
<time>2010-05-07T10:39:04Z</time>
</trkpt>
<trkpt lat="35.2899999" lon="24.3481101">
<ele>216.9146729</ele>
<time>2010-05-07T10:39:11Z</time>
</trkpt>
<trkpt lat="35.2900190" lon="24.3481319">
<ele>217.3953857</ele>
<time>2010-05-07T10:39:19Z</time>
</trkpt>
<trkpt lat="35.2900243" lon="24.3481252">
<ele>217.3953857</ele>
<time>2010-05-07T10:39:28Z</time>
</trkpt>
<trkpt lat="35.2900314" lon="24.3480952">
<ele>218.3565674</ele>
<time>2010-05-07T10:39:44Z</time>
</trkpt>
<trkpt lat="35.2900153" lon="24.3481310">
<ele>218.8372803</ele>
<time>2010-05-07T10:39:52Z</time>
</trkpt>
<trkpt lat="35.2900055" lon="24.3482117">
<ele>217.8759766</ele>
<time>2010-05-07T10:40:00Z</time>
</trkpt>
<trkpt lat="35.2900118" lon="24.3482457">
<ele>219.3179932</ele>
<time>2010-05-07T10:40:06Z</time>
</trkpt>
<trkpt lat="35.2900169" lon="24.3482143">
<ele>220.7598877</ele>
<time>2010-05-07T10:40:12Z</time>
</trkpt>
<trkpt lat="35.2900059" lon="24.3482142">
<ele>221.7211914</ele>
<time>2010-05-07T10:40:27Z</time>
</trkpt>
<trkpt lat="35.2900045" lon="24.3482046">
<ele>222.6824951</ele>
<time>2010-05-07T10:40:39Z</time>
</trkpt>
<trkpt lat="35.2900045" lon="24.3482053">
<ele>223.6437988</ele>
<time>2010-05-07T10:40:53Z</time>
</trkpt>
<trkpt lat="35.2900129" lon="24.3481835">
<ele>223.6437988</ele>
<time>2010-05-07T10:41:03Z</time>
</trkpt>
<trkpt lat="35.2900305" lon="24.3481775">
<ele>220.7598877</ele>
<time>2010-05-07T10:41:11Z</time>
</trkpt>
<trkpt lat="35.2900315" lon="24.3481929">
<ele>221.2406006</ele>
<time>2010-05-07T10:41:26Z</time>
</trkpt>
<trkpt lat="35.2900461" lon="24.3481614">
<ele>221.2406006</ele>
<time>2010-05-07T10:41:36Z</time>
</trkpt>
<trkpt lat="35.2900881" lon="24.3481289">
<ele>220.7598877</ele>
<time>2010-05-07T10:41:43Z</time>
</trkpt>
<trkpt lat="35.2901625" lon="24.3481470">
<ele>222.2017822</ele>
<time>2010-05-07T10:41:51Z</time>
</trkpt>
<trkpt lat="35.2901942" lon="24.3481733">
<ele>221.2406006</ele>
<time>2010-05-07T10:42:00Z</time>
</trkpt>
<trkpt lat="35.2902311" lon="24.3481940">
<ele>220.7598877</ele>
<time>2010-05-07T10:42:07Z</time>
</trkpt>
<trkpt lat="35.2903206" lon="24.3482242">
<ele>219.7985840</ele>
<time>2010-05-07T10:42:16Z</time>
</trkpt>
<trkpt lat="35.2904323" lon="24.3481920">
<ele>219.7985840</ele>
<time>2010-05-07T10:42:27Z</time>
</trkpt>
<trkpt lat="35.2905038" lon="24.3481476">
<ele>218.8372803</ele>
<time>2010-05-07T10:42:34Z</time>
</trkpt>
<trkpt lat="35.2905878" lon="24.3480854">
<ele>218.8372803</ele>
<time>2010-05-07T10:42:43Z</time>
</trkpt>
<trkpt lat="35.2906475" lon="24.3480516">
<ele>217.8759766</ele>
<time>2010-05-07T10:42:51Z</time>
</trkpt>
<trkpt lat="35.2906708" lon="24.3480304">
<ele>219.3179932</ele>
<time>2010-05-07T10:42:59Z</time>
</trkpt>
<trkpt lat="35.2906677" lon="24.3480219">
<ele>218.3565674</ele>
<time>2010-05-07T10:43:07Z</time>
</trkpt>
<trkpt lat="35.2906755" lon="24.3480304">
<ele>219.7985840</ele>
<time>2010-05-07T10:43:20Z</time>
</trkpt>
<trkpt lat="35.2906828" lon="24.3480316">
<ele>220.2791748</ele>
<time>2010-05-07T10:43:30Z</time>
</trkpt>
<trkpt lat="35.2907635" lon="24.3479968">
<ele>221.2406006</ele>
<time>2010-05-07T10:43:39Z</time>
</trkpt>
<trkpt lat="35.2908035" lon="24.3479941">
<ele>220.2791748</ele>
<time>2010-05-07T10:43:43Z</time>
</trkpt>
<trkpt lat="35.2908645" lon="24.3479761">
<ele>217.8759766</ele>
<time>2010-05-07T10:43:50Z</time>
</trkpt>
<trkpt lat="35.2909303" lon="24.3479449">
<ele>216.9146729</ele>
<time>2010-05-07T10:43:57Z</time>
</trkpt>
<trkpt lat="35.2909769" lon="24.3479181">
<ele>214.9919434</ele>
<time>2010-05-07T10:44:03Z</time>
</trkpt>
<trkpt lat="35.2910561" lon="24.3479014">
<ele>215.9532471</ele>
<time>2010-05-07T10:44:11Z</time>
</trkpt>
<trkpt lat="35.2910686" lon="24.3479056">
<ele>215.4726563</ele>
<time>2010-05-07T10:44:12Z</time>
</trkpt>
<trkpt lat="35.2911839" lon="24.3479252">
<ele>215.9532471</ele>
<time>2010-05-07T10:44:22Z</time>
</trkpt>
<trkpt lat="35.2912240" lon="24.3479606">
<ele>215.4726563</ele>
<time>2010-05-07T10:44:29Z</time>
</trkpt>
<trkpt lat="35.2912515" lon="24.3479848">
<ele>215.4726563</ele>
<time>2010-05-07T10:44:41Z</time>
</trkpt>
<trkpt lat="35.2913225" lon="24.3479796">
<ele>214.5112305</ele>
<time>2010-05-07T10:44:49Z</time>
</trkpt>
<trkpt lat="35.2913717" lon="24.3480040">
<ele>213.0693359</ele>
<time>2010-05-07T10:44:54Z</time>
</trkpt>
<trkpt lat="35.2914277" lon="24.3480196">
<ele>212.5886230</ele>
<time>2010-05-07T10:44:59Z</time>
</trkpt>
<trkpt lat="35.2915074" lon="24.3480193">
<ele>211.6274414</ele>
<time>2010-05-07T10:45:06Z</time>
</trkpt>
<trkpt lat="35.2915980" lon="24.3480071">
<ele>207.7821045</ele>
<time>2010-05-07T10:45:17Z</time>
</trkpt>
<trkpt lat="35.2916364" lon="24.3479916">
<ele>205.3787842</ele>
<time>2010-05-07T10:45:25Z</time>
</trkpt>
<trkpt lat="35.2916807" lon="24.3479771">
<ele>203.4561768</ele>
<time>2010-05-07T10:45:33Z</time>
</trkpt>
<trkpt lat="35.2917374" lon="24.3479149">
<ele>202.0142822</ele>
<time>2010-05-07T10:45:42Z</time>
</trkpt>
<trkpt lat="35.2917720" lon="24.3478590">
<ele>200.0916748</ele>
<time>2010-05-07T10:45:51Z</time>
</trkpt>
<trkpt lat="35.2918296" lon="24.3478103">
<ele>198.1689453</ele>
<time>2010-05-07T10:46:02Z</time>
</trkpt>
<trkpt lat="35.2918858" lon="24.3477491">
<ele>198.6495361</ele>
<time>2010-05-07T10:46:11Z</time>
</trkpt>
<trkpt lat="35.2919236" lon="24.3477061">
<ele>196.7269287</ele>
<time>2010-05-07T10:46:18Z</time>
</trkpt>
<trkpt lat="35.2919338" lon="24.3476989">
<ele>196.7269287</ele>
<time>2010-05-07T10:46:23Z</time>
</trkpt>
<trkpt lat="35.2919386" lon="24.3476796">
<ele>196.7269287</ele>
<time>2010-05-07T10:46:31Z</time>
</trkpt>
<trkpt lat="35.2919590" lon="24.3476538">
<ele>197.2075195</ele>
<time>2010-05-07T10:46:39Z</time>
</trkpt>
<trkpt lat="35.2919517" lon="24.3476653">
<ele>196.7269287</ele>
<time>2010-05-07T10:46:47Z</time>
</trkpt>
<trkpt lat="35.2919495" lon="24.3476771">
<ele>197.6882324</ele>
<time>2010-05-07T10:46:55Z</time>
</trkpt>
<trkpt lat="35.2919450" lon="24.3476808">
<ele>199.1301270</ele>
<time>2010-05-07T10:47:11Z</time>
</trkpt>
<trkpt lat="35.2919723" lon="24.3476471">
<ele>197.2075195</ele>
<time>2010-05-07T10:47:19Z</time>
</trkpt>
<trkpt lat="35.2920140" lon="24.3475983">
<ele>193.8430176</ele>
<time>2010-05-07T10:47:27Z</time>
</trkpt>
<trkpt lat="35.2920624" lon="24.3475496">
<ele>192.4011230</ele>
<time>2010-05-07T10:47:34Z</time>
</trkpt>
<trkpt lat="35.2921044" lon="24.3475067">
<ele>189.0363770</ele>
<time>2010-05-07T10:47:43Z</time>
</trkpt>
<trkpt lat="35.2921160" lon="24.3474896">
<ele>188.5557861</ele>
<time>2010-05-07T10:47:52Z</time>
</trkpt>
<trkpt lat="35.2921139" lon="24.3474947">
<ele>189.0363770</ele>
<time>2010-05-07T10:47:59Z</time>
</trkpt>
<trkpt lat="35.2921070" lon="24.3474809">
<ele>188.0750732</ele>
<time>2010-05-07T10:48:30Z</time>
</trkpt>
<trkpt lat="35.2921372" lon="24.3474611">
<ele>189.0363770</ele>
<time>2010-05-07T10:48:46Z</time>
</trkpt>
<trkpt lat="35.2921630" lon="24.3474500">
<ele>190.4783936</ele>
<time>2010-05-07T10:48:53Z</time>
</trkpt>
<trkpt lat="35.2921997" lon="24.3474254">
<ele>189.9976807</ele>
<time>2010-05-07T10:49:01Z</time>
</trkpt>
<trkpt lat="35.2922247" lon="24.3473864">
<ele>188.0750732</ele>
<time>2010-05-07T10:49:07Z</time>
</trkpt>
<trkpt lat="35.2922578" lon="24.3473628">
<ele>187.5943604</ele>
<time>2010-05-07T10:49:13Z</time>
</trkpt>
<trkpt lat="35.2922902" lon="24.3473445">
<ele>185.6717529</ele>
<time>2010-05-07T10:49:22Z</time>
</trkpt>
<trkpt lat="35.2923225" lon="24.3473193">
<ele>186.1524658</ele>
<time>2010-05-07T10:49:31Z</time>
</trkpt>
<trkpt lat="35.2923365" lon="24.3473073">
<ele>186.1524658</ele>
<time>2010-05-07T10:49:37Z</time>
</trkpt>
<trkpt lat="35.2923727" lon="24.3472429">
<ele>185.6717529</ele>
<time>2010-05-07T10:49:45Z</time>
</trkpt>
<trkpt lat="35.2924108" lon="24.3472073">
<ele>185.1911621</ele>
<time>2010-05-07T10:49:51Z</time>
</trkpt>
<trkpt lat="35.2924682" lon="24.3471480">
<ele>187.1137695</ele>
<time>2010-05-07T10:49:58Z</time>
</trkpt>
<trkpt lat="35.2924759" lon="24.3471368">
<ele>187.5943604</ele>
<time>2010-05-07T10:49:59Z</time>
</trkpt>
<trkpt lat="35.2925442" lon="24.3470830">
<ele>188.0750732</ele>
<time>2010-05-07T10:50:09Z</time>
</trkpt>
<trkpt lat="35.2926159" lon="24.3470549">
<ele>187.1137695</ele>
<time>2010-05-07T10:50:16Z</time>
</trkpt>
<trkpt lat="35.2926660" lon="24.3470321">
<ele>186.6331787</ele>
<time>2010-05-07T10:50:22Z</time>
</trkpt>
<trkpt lat="35.2927319" lon="24.3469762">
<ele>185.1911621</ele>
<time>2010-05-07T10:50:32Z</time>
</trkpt>
<trkpt lat="35.2927893" lon="24.3469198">
<ele>184.7105713</ele>
<time>2010-05-07T10:50:40Z</time>
</trkpt>
<trkpt lat="35.2928402" lon="24.3468317">
<ele>184.7105713</ele>
<time>2010-05-07T10:50:49Z</time>
</trkpt>
<trkpt lat="35.2928754" lon="24.3467787">
<ele>184.2298584</ele>
<time>2010-05-07T10:50:55Z</time>
</trkpt>
<trkpt lat="35.2928816" lon="24.3467697">
<ele>184.2298584</ele>
<time>2010-05-07T10:50:56Z</time>
</trkpt>
<trkpt lat="35.2929080" lon="24.3466748">
<ele>181.3458252</ele>
<time>2010-05-07T10:51:04Z</time>
</trkpt>
<trkpt lat="35.2929604" lon="24.3465844">
<ele>182.3071289</ele>
<time>2010-05-07T10:51:12Z</time>
</trkpt>
<trkpt lat="35.2929955" lon="24.3464862">
<ele>182.3071289</ele>
<time>2010-05-07T10:51:20Z</time>
</trkpt>
<trkpt lat="35.2930220" lon="24.3464089">
<ele>180.3845215</ele>
<time>2010-05-07T10:51:28Z</time>
</trkpt>
<trkpt lat="35.2930541" lon="24.3463060">
<ele>180.8652344</ele>
<time>2010-05-07T10:51:37Z</time>
</trkpt>
<trkpt lat="35.2930858" lon="24.3462293">
<ele>181.8264160</ele>
<time>2010-05-07T10:51:45Z</time>
</trkpt>
<trkpt lat="35.2930836" lon="24.3462075">
<ele>179.9038086</ele>
<time>2010-05-07T10:51:52Z</time>
</trkpt>
<trkpt lat="35.2930288" lon="24.3461786">
<ele>171.7326660</ele>
<time>2010-05-07T10:52:02Z</time>
</trkpt>
<trkpt lat="35.2930378" lon="24.3461693">
<ele>173.6552734</ele>
<time>2010-05-07T10:52:09Z</time>
</trkpt>
<trkpt lat="35.2930526" lon="24.3461609">
<ele>175.0972900</ele>
<time>2010-05-07T10:52:17Z</time>
</trkpt>
<trkpt lat="35.2931022" lon="24.3461313">
<ele>178.4619141</ele>
<time>2010-05-07T10:52:25Z</time>
</trkpt>
<trkpt lat="35.2931380" lon="24.3460967">
<ele>182.3071289</ele>
<time>2010-05-07T10:52:34Z</time>
</trkpt>
<trkpt lat="35.2931893" lon="24.3460255">
<ele>183.2684326</ele>
<time>2010-05-07T10:52:40Z</time>
</trkpt>
<trkpt lat="35.2931995" lon="24.3459852">
<ele>181.8264160</ele>
<time>2010-05-07T10:52:44Z</time>
</trkpt>
<trkpt lat="35.2932122" lon="24.3459602">
<ele>181.3458252</ele>
<time>2010-05-07T10:52:47Z</time>
</trkpt>
<trkpt lat="35.2932365" lon="24.3459122">
<ele>179.9038086</ele>
<time>2010-05-07T10:52:56Z</time>
</trkpt>
<trkpt lat="35.2932658" lon="24.3458777">
<ele>182.3071289</ele>
<time>2010-05-07T10:53:07Z</time>
</trkpt>
<trkpt lat="35.2932856" lon="24.3458479">
<ele>183.7490234</ele>
<time>2010-05-07T10:53:15Z</time>
</trkpt>
<trkpt lat="35.2933088" lon="24.3458014">
<ele>182.3071289</ele>
<time>2010-05-07T10:53:24Z</time>
</trkpt>
<trkpt lat="35.2933259" lon="24.3457665">
<ele>181.3458252</ele>
<time>2010-05-07T10:53:30Z</time>
</trkpt>
<trkpt lat="35.2933414" lon="24.3457077">
<ele>180.8652344</ele>
<time>2010-05-07T10:53:38Z</time>
</trkpt>
<trkpt lat="35.2933794" lon="24.3456179">
<ele>181.8264160</ele>
<time>2010-05-07T10:53:46Z</time>
</trkpt>
<trkpt lat="35.2934176" lon="24.3455781">
<ele>183.2684326</ele>
<time>2010-05-07T10:53:54Z</time>
</trkpt>
<trkpt lat="35.2934307" lon="24.3455341">
<ele>183.2684326</ele>
<time>2010-05-07T10:54:00Z</time>
</trkpt>
<trkpt lat="35.2934607" lon="24.3454892">
<ele>183.7490234</ele>
<time>2010-05-07T10:54:09Z</time>
</trkpt>
<trkpt lat="35.2935189" lon="24.3454277">
<ele>184.2298584</ele>
<time>2010-05-07T10:54:19Z</time>
</trkpt>
<trkpt lat="35.2935643" lon="24.3453816">
<ele>185.6717529</ele>
<time>2010-05-07T10:54:27Z</time>
</trkpt>
<trkpt lat="35.2936192" lon="24.3453305">
<ele>186.6331787</ele>
<time>2010-05-07T10:54:36Z</time>
</trkpt>
<trkpt lat="35.2936758" lon="24.3452894">
<ele>187.5943604</ele>
<time>2010-05-07T10:54:45Z</time>
</trkpt>
<trkpt lat="35.2937144" lon="24.3452616">
<ele>187.5943604</ele>
<time>2010-05-07T10:54:51Z</time>
</trkpt>
<trkpt lat="35.2937627" lon="24.3452112">
<ele>187.5943604</ele>
<time>2010-05-07T10:54:58Z</time>
</trkpt>
<trkpt lat="35.2938140" lon="24.3451766">
<ele>186.6331787</ele>
<time>2010-05-07T10:55:05Z</time>
</trkpt>
<trkpt lat="35.2938623" lon="24.3451672">
<ele>185.1911621</ele>
<time>2010-05-07T10:55:11Z</time>
</trkpt>
<trkpt lat="35.2939245" lon="24.3451206">
<ele>184.7105713</ele>
<time>2010-05-07T10:55:18Z</time>
</trkpt>
<trkpt lat="35.2940057" lon="24.3450813">
<ele>184.2298584</ele>
<time>2010-05-07T10:55:26Z</time>
</trkpt>
<trkpt lat="35.2940757" lon="24.3450311">
<ele>183.7490234</ele>
<time>2010-05-07T10:55:35Z</time>
</trkpt>
<trkpt lat="35.2941243" lon="24.3449918">
<ele>181.8264160</ele>
<time>2010-05-07T10:55:42Z</time>
</trkpt>
<trkpt lat="35.2941847" lon="24.3449441">
<ele>180.3845215</ele>
<time>2010-05-07T10:55:50Z</time>
</trkpt>
<trkpt lat="35.2941923" lon="24.3449337">
<ele>180.3845215</ele>
<time>2010-05-07T10:55:57Z</time>
</trkpt>
<trkpt lat="35.2942037" lon="24.3449278">
<ele>180.8652344</ele>
<time>2010-05-07T10:56:10Z</time>
</trkpt>
<trkpt lat="35.2942550" lon="24.3448520">
<ele>179.9038086</ele>
<time>2010-05-07T10:56:17Z</time>
</trkpt>
<trkpt lat="35.2942863" lon="24.3447669">
<ele>178.9426270</ele>
<time>2010-05-07T10:56:24Z</time>
</trkpt>
<trkpt lat="35.2942854" lon="24.3446763">
<ele>177.9812012</ele>
<time>2010-05-07T10:56:31Z</time>
</trkpt>
<trkpt lat="35.2942450" lon="24.3445815">
<ele>177.9812012</ele>
<time>2010-05-07T10:56:39Z</time>
</trkpt>
<trkpt lat="35.2942231" lon="24.3445393">
<ele>177.9812012</ele>
<time>2010-05-07T10:56:44Z</time>
</trkpt>
<trkpt lat="35.2942088" lon="24.3444990">
<ele>177.5006104</ele>
<time>2010-05-07T10:56:53Z</time>
</trkpt>
<trkpt lat="35.2941907" lon="24.3444730">
<ele>177.0200195</ele>
<time>2010-05-07T10:56:58Z</time>
</trkpt>
<trkpt lat="35.2941575" lon="24.3444277">
<ele>175.5778809</ele>
<time>2010-05-07T10:57:03Z</time>
</trkpt>
<trkpt lat="35.2941165" lon="24.3443501">
<ele>176.0585938</ele>
<time>2010-05-07T10:57:10Z</time>
</trkpt>
<trkpt lat="35.2940682" lon="24.3443101">
<ele>177.5006104</ele>
<time>2010-05-07T10:57:18Z</time>
</trkpt>
<trkpt lat="35.2940321" lon="24.3442713">
<ele>176.5393066</ele>
<time>2010-05-07T10:57:24Z</time>
</trkpt>
<trkpt lat="35.2940330" lon="24.3442397">
<ele>175.0972900</ele>
<time>2010-05-07T10:57:31Z</time>
</trkpt>
<trkpt lat="35.2939928" lon="24.3441302">
<ele>177.0200195</ele>
<time>2010-05-07T10:57:51Z</time>
</trkpt>
<trkpt lat="35.2939471" lon="24.3440841">
<ele>177.9812012</ele>
<time>2010-05-07T10:57:57Z</time>
</trkpt>
<trkpt lat="35.2938838" lon="24.3440206">
<ele>176.5393066</ele>
<time>2010-05-07T10:58:04Z</time>
</trkpt>
<trkpt lat="35.2938338" lon="24.3439882">
<ele>176.5393066</ele>
<time>2010-05-07T10:58:11Z</time>
</trkpt>
<trkpt lat="35.2937943" lon="24.3439485">
<ele>176.0585938</ele>
<time>2010-05-07T10:58:16Z</time>
</trkpt>
<trkpt lat="35.2937549" lon="24.3439065">
<ele>177.5006104</ele>
<time>2010-05-07T10:58:21Z</time>
</trkpt>
<trkpt lat="35.2937063" lon="24.3438205">
<ele>176.5393066</ele>
<time>2010-05-07T10:58:30Z</time>
</trkpt>
<trkpt lat="35.2936752" lon="24.3437708">
<ele>175.0972900</ele>
<time>2010-05-07T10:58:36Z</time>
</trkpt>
<trkpt lat="35.2936344" lon="24.3437377">
<ele>172.6939697</ele>
<time>2010-05-07T10:58:42Z</time>
</trkpt>
<trkpt lat="35.2936022" lon="24.3436801">
<ele>171.2520752</ele>
<time>2010-05-07T10:58:49Z</time>
</trkpt>
<trkpt lat="35.2935729" lon="24.3436040">
<ele>173.1746826</ele>
<time>2010-05-07T10:58:58Z</time>
</trkpt>
<trkpt lat="35.2935558" lon="24.3435634">
<ele>174.1358643</ele>
<time>2010-05-07T10:59:06Z</time>
</trkpt>
<trkpt lat="35.2935173" lon="24.3435238">
<ele>175.5778809</ele>
<time>2010-05-07T10:59:14Z</time>
</trkpt>
<trkpt lat="35.2934758" lon="24.3434590">
<ele>174.6165771</ele>
<time>2010-05-07T10:59:22Z</time>
</trkpt>
<trkpt lat="35.2934523" lon="24.3434065">
<ele>175.0972900</ele>
<time>2010-05-07T10:59:28Z</time>
</trkpt>
<trkpt lat="35.2934103" lon="24.3433506">
<ele>173.1746826</ele>
<time>2010-05-07T10:59:35Z</time>
</trkpt>
<trkpt lat="35.2933716" lon="24.3432928">
<ele>169.8100586</ele>
<time>2010-05-07T10:59:42Z</time>
</trkpt>
<trkpt lat="35.2933438" lon="24.3432865">
<ele>169.8100586</ele>
<time>2010-05-07T10:59:48Z</time>
</trkpt>
<trkpt lat="35.2933125" lon="24.3432599">
<ele>170.7713623</ele>
<time>2010-05-07T10:59:57Z</time>
</trkpt>
<trkpt lat="35.2933181" lon="24.3431851">
<ele>170.7713623</ele>
<time>2010-05-07T11:00:06Z</time>
</trkpt>
<trkpt lat="35.2933170" lon="24.3431379">
<ele>170.7713623</ele>
<time>2010-05-07T11:00:11Z</time>
</trkpt>
<trkpt lat="35.2933063" lon="24.3430958">
<ele>174.1358643</ele>
<time>2010-05-07T11:00:18Z</time>
</trkpt>
<trkpt lat="35.2932939" lon="24.3430628">
<ele>174.6165771</ele>
<time>2010-05-07T11:00:25Z</time>
</trkpt>
<trkpt lat="35.2932901" lon="24.3429963">
<ele>173.1746826</ele>
<time>2010-05-07T11:00:33Z</time>
</trkpt>
<trkpt lat="35.2932623" lon="24.3429501">
<ele>171.7326660</ele>
<time>2010-05-07T11:00:39Z</time>
</trkpt>
<trkpt lat="35.2932065" lon="24.3428924">
<ele>171.2520752</ele>
<time>2010-05-07T11:00:46Z</time>
</trkpt>
<trkpt lat="35.2931458" lon="24.3428456">
<ele>172.6939697</ele>
<time>2010-05-07T11:00:55Z</time>
</trkpt>
<trkpt lat="35.2931116" lon="24.3427725">
<ele>172.2132568</ele>
<time>2010-05-07T11:01:04Z</time>
</trkpt>
<trkpt lat="35.2931081" lon="24.3427761">
<ele>173.6552734</ele>
<time>2010-05-07T11:01:12Z</time>
</trkpt>
<trkpt lat="35.2930852" lon="24.3427774">
<ele>174.6165771</ele>
<time>2010-05-07T11:01:19Z</time>
</trkpt>
<trkpt lat="35.2930666" lon="24.3427183">
<ele>173.1746826</ele>
<time>2010-05-07T11:01:26Z</time>
</trkpt>
<trkpt lat="35.2930619" lon="24.3426953">
<ele>171.7326660</ele>
<time>2010-05-07T11:01:33Z</time>
</trkpt>
<trkpt lat="35.2930701" lon="24.3426701">
<ele>169.3294678</ele>
<time>2010-05-07T11:01:43Z</time>
</trkpt>
<trkpt lat="35.2930598" lon="24.3426300">
<ele>173.1746826</ele>
<time>2010-05-07T11:01:50Z</time>
</trkpt>
<trkpt lat="35.2930612" lon="24.3425925">
<ele>174.1358643</ele>
<time>2010-05-07T11:02:02Z</time>
</trkpt>
<trkpt lat="35.2930234" lon="24.3426105">
<ele>168.8487549</ele>
<time>2010-05-07T11:02:18Z</time>
</trkpt>
<trkpt lat="35.2930260" lon="24.3426187">
<ele>168.8487549</ele>
<time>2010-05-07T11:02:26Z</time>
</trkpt>
<trkpt lat="35.2930219" lon="24.3426170">
<ele>168.8487549</ele>
<time>2010-05-07T11:02:31Z</time>
</trkpt>
<trkpt lat="35.2929829" lon="24.3426004">
<ele>168.3680420</ele>
<time>2010-05-07T11:02:37Z</time>
</trkpt>
<trkpt lat="35.2929601" lon="24.3425750">
<ele>167.8873291</ele>
<time>2010-05-07T11:02:45Z</time>
</trkpt>
<trkpt lat="35.2929161" lon="24.3425809">
<ele>169.3294678</ele>
<time>2010-05-07T11:02:52Z</time>
</trkpt>
<trkpt lat="35.2928695" lon="24.3425609">
<ele>171.2520752</ele>
<time>2010-05-07T11:02:59Z</time>
</trkpt>
<trkpt lat="35.2928671" lon="24.3424778">
<ele>185.6717529</ele>
<time>2010-05-07T11:03:28Z</time>
</trkpt>
<trkpt lat="35.2929225" lon="24.3425400">
<ele>184.7105713</ele>
<time>2010-05-07T11:03:33Z</time>
</trkpt>
<trkpt lat="35.2929951" lon="24.3425417">
<ele>185.6717529</ele>
<time>2010-05-07T11:03:42Z</time>
</trkpt>
<trkpt lat="35.2930601" lon="24.3425627">
<ele>182.7878418</ele>
<time>2010-05-07T11:03:49Z</time>
</trkpt>
<trkpt lat="35.2930877" lon="24.3425819">
<ele>178.9426270</ele>
<time>2010-05-07T11:03:56Z</time>
</trkpt>
<trkpt lat="35.2930966" lon="24.3425973">
<ele>176.5393066</ele>
<time>2010-05-07T11:04:01Z</time>
</trkpt>
<trkpt lat="35.2930873" lon="24.3426297">
<ele>176.0585938</ele>
<time>2010-05-07T11:04:09Z</time>
</trkpt>
<trkpt lat="35.2930759" lon="24.3426183">
<ele>176.0585938</ele>
<time>2010-05-07T11:04:22Z</time>
</trkpt>
<trkpt lat="35.2930664" lon="24.3425887">
<ele>178.4619141</ele>
<time>2010-05-07T11:04:37Z</time>
</trkpt>
<trkpt lat="35.2930602" lon="24.3426047">
<ele>180.3845215</ele>
<time>2010-05-07T11:04:46Z</time>
</trkpt>
<trkpt lat="35.2930500" lon="24.3426320">
<ele>185.6717529</ele>
<time>2010-05-07T11:04:58Z</time>
</trkpt>
<trkpt lat="35.2930560" lon="24.3426525">
<ele>178.9426270</ele>
<time>2010-05-07T11:05:08Z</time>
</trkpt>
<trkpt lat="35.2930634" lon="24.3426298">
<ele>177.0200195</ele>
<time>2010-05-07T11:05:18Z</time>
</trkpt>
<trkpt lat="35.2930671" lon="24.3426204">
<ele>175.0972900</ele>
<time>2010-05-07T11:05:28Z</time>
</trkpt>
<trkpt lat="35.2930525" lon="24.3426277">
<ele>172.6939697</ele>
<time>2010-05-07T11:05:53Z</time>
</trkpt>
<trkpt lat="35.2930565" lon="24.3426417">
<ele>174.6165771</ele>
<time>2010-05-07T11:05:59Z</time>
</trkpt>
<trkpt lat="35.2930565" lon="24.3426781">
<ele>175.5778809</ele>
<time>2010-05-07T11:06:04Z</time>
</trkpt>
<trkpt lat="35.2930617" lon="24.3426772">
<ele>176.0585938</ele>
<time>2010-05-07T11:06:12Z</time>
</trkpt>
<trkpt lat="35.2930639" lon="24.3426686">
<ele>175.0972900</ele>
<time>2010-05-07T11:06:36Z</time>
</trkpt>
<trkpt lat="35.2930685" lon="24.3426473">
<ele>169.8100586</ele>
<time>2010-05-07T11:06:45Z</time>
</trkpt>
<trkpt lat="35.2930808" lon="24.3426260">
<ele>167.8873291</ele>
<time>2010-05-07T11:06:57Z</time>
</trkpt>
<trkpt lat="35.2930873" lon="24.3426525">
<ele>168.3680420</ele>
<time>2010-05-07T11:07:03Z</time>
</trkpt>
<trkpt lat="35.2930812" lon="24.3426566">
<ele>169.8100586</ele>
<time>2010-05-07T11:07:13Z</time>
</trkpt>
<trkpt lat="35.2930737" lon="24.3426565">
<ele>168.8487549</ele>
<time>2010-05-07T11:07:25Z</time>
</trkpt>
<trkpt lat="35.2930614" lon="24.3426105">
<ele>176.0585938</ele>
<time>2010-05-07T11:07:41Z</time>
</trkpt>
<trkpt lat="35.2930399" lon="24.3426074">
<ele>179.4232178</ele>
<time>2010-05-07T11:07:51Z</time>
</trkpt>
<trkpt lat="35.2930194" lon="24.3426229">
<ele>179.4232178</ele>
<time>2010-05-07T11:08:12Z</time>
</trkpt>
<trkpt lat="35.2930466" lon="24.3426237">
<ele>176.5393066</ele>
<time>2010-05-07T11:08:31Z</time>
</trkpt>
<trkpt lat="35.2930448" lon="24.3426595">
<ele>172.6939697</ele>
<time>2010-05-07T11:08:44Z</time>
</trkpt>
<trkpt lat="35.2930286" lon="24.3426437">
<ele>176.5393066</ele>
<time>2010-05-07T11:09:04Z</time>
</trkpt>
<trkpt lat="35.2930268" lon="24.3426404">
<ele>176.0585938</ele>
<time>2010-05-07T11:09:11Z</time>
</trkpt>
<trkpt lat="35.2930692" lon="24.3426199">
<ele>171.7326660</ele>
<time>2010-05-07T11:09:23Z</time>
</trkpt>
<trkpt lat="35.2930646" lon="24.3426327">
<ele>169.8100586</ele>
<time>2010-05-07T11:09:36Z</time>
</trkpt>
<trkpt lat="35.2930713" lon="24.3426192">
<ele>170.7713623</ele>
<time>2010-05-07T11:09:43Z</time>
</trkpt>
<trkpt lat="35.2930817" lon="24.3426434">
<ele>172.2132568</ele>
<time>2010-05-07T11:09:57Z</time>
</trkpt>
<trkpt lat="35.2930955" lon="24.3426481">
<ele>171.2520752</ele>
<time>2010-05-07T11:10:03Z</time>
</trkpt>
<trkpt lat="35.2930970" lon="24.3426380">
<ele>168.8487549</ele>
<time>2010-05-07T11:10:15Z</time>
</trkpt>
<trkpt lat="35.2931193" lon="24.3426215">
<ele>169.8100586</ele>
<time>2010-05-07T11:10:22Z</time>
</trkpt>
<trkpt lat="35.2931304" lon="24.3426246">
<ele>170.2906494</ele>
<time>2010-05-07T11:10:34Z</time>
</trkpt>
<trkpt lat="35.2931261" lon="24.3426482">
<ele>175.0972900</ele>
<time>2010-05-07T11:10:41Z</time>
</trkpt>
<trkpt lat="35.2931287" lon="24.3426615">
<ele>177.5006104</ele>
<time>2010-05-07T11:10:49Z</time>
</trkpt>
<trkpt lat="35.2931521" lon="24.3426488">
<ele>176.0585938</ele>
<time>2010-05-07T11:10:59Z</time>
</trkpt>
<trkpt lat="35.2931314" lon="24.3426628">
<ele>174.6165771</ele>
<time>2010-05-07T11:11:07Z</time>
</trkpt>
<trkpt lat="35.2931114" lon="24.3426725">
<ele>175.5778809</ele>
<time>2010-05-07T11:11:18Z</time>
</trkpt>
<trkpt lat="35.2931031" lon="24.3426747">
<ele>171.7326660</ele>
<time>2010-05-07T11:11:28Z</time>
</trkpt>
<trkpt lat="35.2930628" lon="24.3427194">
<ele>177.9812012</ele>
<time>2010-05-07T11:11:35Z</time>
</trkpt>
<trkpt lat="35.2930531" lon="24.3427457">
<ele>189.0363770</ele>
<time>2010-05-07T11:11:54Z</time>
</trkpt>
<trkpt lat="35.2930650" lon="24.3427015">
<ele>177.9812012</ele>
<time>2010-05-07T11:12:07Z</time>
</trkpt>
<trkpt lat="35.2930359" lon="24.3427040">
<ele>177.9812012</ele>
<time>2010-05-07T11:12:16Z</time>
</trkpt>
<trkpt lat="35.2930276" lon="24.3427022">
<ele>177.0200195</ele>
<time>2010-05-07T11:12:25Z</time>
</trkpt>
<trkpt lat="35.2930267" lon="24.3426587">
<ele>179.9038086</ele>
<time>2010-05-07T11:12:35Z</time>
</trkpt>
<trkpt lat="35.2930333" lon="24.3426772">
<ele>180.8652344</ele>
<time>2010-05-07T11:12:45Z</time>
</trkpt>
<trkpt lat="35.2930000" lon="24.3427038">
<ele>182.3071289</ele>
<time>2010-05-07T11:12:58Z</time>
</trkpt>
<trkpt lat="35.2929878" lon="24.3427048">
<ele>182.3071289</ele>
<time>2010-05-07T11:13:02Z</time>
</trkpt>
<trkpt lat="35.2930163" lon="24.3426560">
<ele>178.4619141</ele>
<time>2010-05-07T11:13:15Z</time>
</trkpt>
<trkpt lat="35.2930374" lon="24.3426525">
<ele>177.5006104</ele>
<time>2010-05-07T11:13:23Z</time>
</trkpt>
<trkpt lat="35.2930671" lon="24.3426430">
<ele>175.5778809</ele>
<time>2010-05-07T11:13:30Z</time>
</trkpt>
<trkpt lat="35.2931018" lon="24.3426175">
<ele>173.6552734</ele>
<time>2010-05-07T11:13:38Z</time>
</trkpt>
<trkpt lat="35.2930834" lon="24.3426057">
<ele>171.7326660</ele>
<time>2010-05-07T11:14:03Z</time>
</trkpt>
<trkpt lat="35.2930821" lon="24.3426022">
<ele>173.1746826</ele>
<time>2010-05-07T11:14:14Z</time>
</trkpt>
<trkpt lat="35.2930587" lon="24.3425748">
<ele>174.1358643</ele>
<time>2010-05-07T11:14:25Z</time>
</trkpt>
<trkpt lat="35.2930883" lon="24.3425669">
<ele>172.2132568</ele>
<time>2010-05-07T11:14:35Z</time>
</trkpt>
<trkpt lat="35.2930893" lon="24.3425665">
<ele>171.7326660</ele>
<time>2010-05-07T11:14:45Z</time>
</trkpt>
<trkpt lat="35.2930923" lon="24.3426039">
<ele>172.2132568</ele>
<time>2010-05-07T11:14:54Z</time>
</trkpt>
<trkpt lat="35.2930974" lon="24.3425987">
<ele>166.4453125</ele>
<time>2010-05-07T11:15:13Z</time>
</trkpt>
<trkpt lat="35.2930806" lon="24.3426120">
<ele>164.0421143</ele>
<time>2010-05-07T11:15:19Z</time>
</trkpt>
<trkpt lat="35.2930663" lon="24.3426720">
<ele>166.4453125</ele>
<time>2010-05-07T11:15:31Z</time>
</trkpt>
<trkpt lat="35.2930282" lon="24.3427255">
<ele>178.9426270</ele>
<time>2010-05-07T11:15:59Z</time>
</trkpt>
<trkpt lat="35.2930577" lon="24.3427120">
<ele>169.3294678</ele>
<time>2010-05-07T11:16:13Z</time>
</trkpt>
<trkpt lat="35.2930759" lon="24.3426897">
<ele>170.7713623</ele>
<time>2010-05-07T11:16:23Z</time>
</trkpt>
<trkpt lat="35.2930474" lon="24.3426560">
<ele>173.6552734</ele>
<time>2010-05-07T11:16:32Z</time>
</trkpt>
<trkpt lat="35.2930591" lon="24.3426492">
<ele>176.0585938</ele>
<time>2010-05-07T11:16:39Z</time>
</trkpt>
<trkpt lat="35.2930769" lon="24.3426416">
<ele>176.0585938</ele>
<time>2010-05-07T11:16:53Z</time>
</trkpt>
<trkpt lat="35.2930800" lon="24.3426260">
<ele>175.5778809</ele>
<time>2010-05-07T11:17:00Z</time>
</trkpt>
<trkpt lat="35.2930557" lon="24.3426752">
<ele>179.9038086</ele>
<time>2010-05-07T11:17:13Z</time>
</trkpt>
<trkpt lat="35.2930851" lon="24.3427119">
<ele>183.7490234</ele>
<time>2010-05-07T11:17:27Z</time>
</trkpt>
<trkpt lat="35.2930230" lon="24.3428139">
<ele>199.1301270</ele>
<time>2010-05-07T11:18:15Z</time>
</trkpt>
<trkpt lat="35.2930899" lon="24.3427462">
<ele>181.3458252</ele>
<time>2010-05-07T11:18:34Z</time>
</trkpt>
<trkpt lat="35.2931322" lon="24.3427131">
<ele>178.4619141</ele>
<time>2010-05-07T11:18:41Z</time>
</trkpt>
<trkpt lat="35.2931365" lon="24.3426224">
<ele>174.1358643</ele>
<time>2010-05-07T11:18:49Z</time>
</trkpt>
<trkpt lat="35.2931013" lon="24.3425701">
<ele>173.6552734</ele>
<time>2010-05-07T11:18:55Z</time>
</trkpt>
<trkpt lat="35.2930511" lon="24.3425261">
<ele>177.9812012</ele>
<time>2010-05-07T11:19:03Z</time>
</trkpt>
<trkpt lat="35.2930220" lon="24.3425015">
<ele>180.8652344</ele>
<time>2010-05-07T11:19:09Z</time>
</trkpt>
<trkpt lat="35.2929858" lon="24.3424681">
<ele>182.7878418</ele>
<time>2010-05-07T11:19:15Z</time>
</trkpt>
<trkpt lat="35.2929617" lon="24.3424359">
<ele>180.3845215</ele>
<time>2010-05-07T11:19:20Z</time>
</trkpt>
<trkpt lat="35.2929410" lon="24.3424145">
<ele>178.9426270</ele>
<time>2010-05-07T11:19:27Z</time>
</trkpt>
<trkpt lat="35.2929188" lon="24.3424101">
<ele>178.4619141</ele>
<time>2010-05-07T11:19:34Z</time>
</trkpt>
<trkpt lat="35.2928769" lon="24.3423938">
<ele>180.8652344</ele>
<time>2010-05-07T11:19:42Z</time>
</trkpt>
<trkpt lat="35.2928589" lon="24.3423502">
<ele>180.8652344</ele>
<time>2010-05-07T11:19:48Z</time>
</trkpt>
<trkpt lat="35.2928282" lon="24.3422948">
<ele>178.9426270</ele>
<time>2010-05-07T11:19:55Z</time>
</trkpt>
<trkpt lat="35.2927987" lon="24.3422534">
<ele>176.5393066</ele>
<time>2010-05-07T11:20:00Z</time>
</trkpt>
<trkpt lat="35.2927867" lon="24.3421820">
<ele>176.5393066</ele>
<time>2010-05-07T11:20:07Z</time>
</trkpt>
<trkpt lat="35.2927084" lon="24.3421627">
<ele>179.4232178</ele>
<time>2010-05-07T11:20:13Z</time>
</trkpt>
<trkpt lat="35.2926811" lon="24.3421197">
<ele>180.3845215</ele>
<time>2010-05-07T11:20:18Z</time>
</trkpt>
<trkpt lat="35.2926095" lon="24.3420862">
<ele>182.3071289</ele>
<time>2010-05-07T11:20:27Z</time>
</trkpt>
<trkpt lat="35.2926137" lon="24.3420567">
<ele>185.1911621</ele>
<time>2010-05-07T11:20:43Z</time>
</trkpt>
<trkpt lat="35.2925157" lon="24.3420443">
<ele>187.1137695</ele>
<time>2010-05-07T11:20:49Z</time>
</trkpt>
<trkpt lat="35.2924873" lon="24.3419852">
<ele>186.1524658</ele>
<time>2010-05-07T11:20:55Z</time>
</trkpt>
<trkpt lat="35.2925183" lon="24.3419308">
<ele>184.7105713</ele>
<time>2010-05-07T11:20:59Z</time>
</trkpt>
<trkpt lat="35.2925556" lon="24.3419536">
<ele>185.1911621</ele>
<time>2010-05-07T11:21:06Z</time>
</trkpt>
<trkpt lat="35.2925920" lon="24.3419651">
<ele>187.1137695</ele>
<time>2010-05-07T11:21:14Z</time>
</trkpt>
<trkpt lat="35.2925795" lon="24.3419744">
<ele>187.5943604</ele>
<time>2010-05-07T11:21:19Z</time>
</trkpt>
<trkpt lat="35.2925953" lon="24.3419799">
<ele>187.5943604</ele>
<time>2010-05-07T11:21:27Z</time>
</trkpt>
<trkpt lat="35.2926440" lon="24.3419837">
<ele>187.1137695</ele>
<time>2010-05-07T11:21:34Z</time>
</trkpt>
<trkpt lat="35.2926894" lon="24.3419926">
<ele>186.1524658</ele>
<time>2010-05-07T11:21:39Z</time>
</trkpt>
<trkpt lat="35.2927194" lon="24.3419894">
<ele>185.6717529</ele>
<time>2010-05-07T11:21:47Z</time>
</trkpt>
<trkpt lat="35.2927648" lon="24.3420019">
<ele>183.7490234</ele>
<time>2010-05-07T11:21:53Z</time>
</trkpt>
<trkpt lat="35.2927893" lon="24.3420068">
<ele>185.6717529</ele>
<time>2010-05-07T11:21:58Z</time>
</trkpt>
<trkpt lat="35.2928030" lon="24.3419977">
<ele>186.6331787</ele>
<time>2010-05-07T11:22:03Z</time>
</trkpt>
<trkpt lat="35.2928023" lon="24.3419604">
<ele>186.1524658</ele>
<time>2010-05-07T11:22:08Z</time>
</trkpt>
<trkpt lat="35.2929465" lon="24.3418459">
<ele>179.4232178</ele>
<time>2010-05-07T11:22:44Z</time>
</trkpt>
<trkpt lat="35.2929505" lon="24.3419622">
<ele>177.9812012</ele>
<time>2010-05-07T11:22:51Z</time>
</trkpt>
<trkpt lat="35.2929437" lon="24.3419690">
<ele>180.8652344</ele>
<time>2010-05-07T11:22:52Z</time>
</trkpt>
<trkpt lat="35.2927766" lon="24.3420798">
<ele>192.8817139</ele>
<time>2010-05-07T11:23:44Z</time>
</trkpt>
<trkpt lat="35.2928094" lon="24.3419765">
<ele>182.3071289</ele>
<time>2010-05-07T11:23:50Z</time>
</trkpt>
<trkpt lat="35.2928086" lon="24.3419926">
<ele>181.3458252</ele>
<time>2010-05-07T11:23:53Z</time>
</trkpt>
<trkpt lat="35.2927941" lon="24.3420013">
<ele>184.7105713</ele>
<time>2010-05-07T11:24:01Z</time>
</trkpt>
<trkpt lat="35.2927640" lon="24.3420260">
<ele>187.1137695</ele>
<time>2010-05-07T11:24:32Z</time>
</trkpt>
<trkpt lat="35.2927488" lon="24.3420034">
<ele>184.7105713</ele>
<time>2010-05-07T11:24:47Z</time>
</trkpt>
<trkpt lat="35.2927123" lon="24.3419791">
<ele>186.6331787</ele>
<time>2010-05-07T11:24:51Z</time>
</trkpt>
<trkpt lat="35.2926231" lon="24.3419516">
<ele>185.6717529</ele>
<time>2010-05-07T11:25:02Z</time>
</trkpt>
<trkpt lat="35.2925476" lon="24.3419402">
<ele>187.1137695</ele>
<time>2010-05-07T11:25:09Z</time>
</trkpt>
<trkpt lat="35.2924663" lon="24.3419216">
<ele>189.9976807</ele>
<time>2010-05-07T11:25:16Z</time>
</trkpt>
<trkpt lat="35.2924670" lon="24.3419116">
<ele>189.5169678</ele>
<time>2010-05-07T11:25:17Z</time>
</trkpt>
<trkpt lat="35.2924118" lon="24.3418955">
<ele>189.5169678</ele>
<time>2010-05-07T11:25:23Z</time>
</trkpt>
<trkpt lat="35.2923921" lon="24.3418806">
<ele>188.5557861</ele>
<time>2010-05-07T11:25:29Z</time>
</trkpt>
<trkpt lat="35.2923925" lon="24.3418444">
<ele>185.1911621</ele>
<time>2010-05-07T11:25:36Z</time>
</trkpt>
<trkpt lat="35.2924521" lon="24.3417936">
<ele>181.3458252</ele>
<time>2010-05-07T11:25:46Z</time>
</trkpt>
<trkpt lat="35.2924776" lon="24.3417737">
<ele>178.9426270</ele>
<time>2010-05-07T11:25:58Z</time>
</trkpt>
<trkpt lat="35.2924561" lon="24.3417388">
<ele>178.9426270</ele>
<time>2010-05-07T11:26:11Z</time>
</trkpt>
<trkpt lat="35.2924398" lon="24.3416816">
<ele>179.4232178</ele>
<time>2010-05-07T11:26:18Z</time>
</trkpt>
<trkpt lat="35.2923900" lon="24.3416528">
<ele>180.8652344</ele>
<time>2010-05-07T11:26:24Z</time>
</trkpt>
<trkpt lat="35.2923569" lon="24.3416122">
<ele>180.8652344</ele>
<time>2010-05-07T11:26:31Z</time>
</trkpt>
<trkpt lat="35.2923454" lon="24.3415395">
<ele>179.9038086</ele>
<time>2010-05-07T11:26:38Z</time>
</trkpt>
<trkpt lat="35.2923372" lon="24.3414367">
<ele>181.3458252</ele>
<time>2010-05-07T11:26:47Z</time>
</trkpt>
<trkpt lat="35.2923222" lon="24.3413484">
<ele>181.8264160</ele>
<time>2010-05-07T11:26:55Z</time>
</trkpt>
<trkpt lat="35.2923233" lon="24.3412843">
<ele>181.8264160</ele>
<time>2010-05-07T11:27:01Z</time>
</trkpt>
<trkpt lat="35.2923279" lon="24.3411808">
<ele>181.8264160</ele>
<time>2010-05-07T11:27:12Z</time>
</trkpt>
<trkpt lat="35.2923209" lon="24.3410830">
<ele>184.2298584</ele>
<time>2010-05-07T11:27:21Z</time>
</trkpt>
<trkpt lat="35.2923116" lon="24.3410176">
<ele>185.1911621</ele>
<time>2010-05-07T11:27:28Z</time>
</trkpt>
<trkpt lat="35.2922983" lon="24.3409507">
<ele>186.1524658</ele>
<time>2010-05-07T11:27:35Z</time>
</trkpt>
<trkpt lat="35.2922819" lon="24.3408903">
<ele>186.1524658</ele>
<time>2010-05-07T11:27:41Z</time>
</trkpt>
<trkpt lat="35.2922455" lon="24.3408266">
<ele>186.6331787</ele>
<time>2010-05-07T11:27:48Z</time>
</trkpt>
<trkpt lat="35.2921896" lon="24.3407919">
<ele>187.1137695</ele>
<time>2010-05-07T11:27:54Z</time>
</trkpt>
<trkpt lat="35.2921803" lon="24.3407851">
<ele>187.1137695</ele>
<time>2010-05-07T11:27:55Z</time>
</trkpt>
<trkpt lat="35.2921068" lon="24.3407482">
<ele>189.0363770</ele>
<time>2010-05-07T11:28:01Z</time>
</trkpt>
<trkpt lat="35.2920500" lon="24.3407142">
<ele>190.9589844</ele>
<time>2010-05-07T11:28:06Z</time>
</trkpt>
<trkpt lat="35.2919798" lon="24.3406441">
<ele>192.4011230</ele>
<time>2010-05-07T11:28:15Z</time>
</trkpt>
<trkpt lat="35.2919263" lon="24.3405380">
<ele>191.9202881</ele>
<time>2010-05-07T11:28:24Z</time>
</trkpt>
<trkpt lat="35.2918885" lon="24.3404514">
<ele>192.4011230</ele>
<time>2010-05-07T11:28:32Z</time>
</trkpt>
<trkpt lat="35.2918828" lon="24.3404260">
<ele>191.9202881</ele>
<time>2010-05-07T11:28:34Z</time>
</trkpt>
<trkpt lat="35.2918680" lon="24.3403635">
<ele>191.9202881</ele>
<time>2010-05-07T11:28:39Z</time>
</trkpt>
<trkpt lat="35.2918351" lon="24.3402540">
<ele>192.4011230</ele>
<time>2010-05-07T11:28:49Z</time>
</trkpt>
<trkpt lat="35.2918019" lon="24.3401696">
<ele>193.8430176</ele>
<time>2010-05-07T11:28:58Z</time>
</trkpt>
<trkpt lat="35.2917770" lon="24.3400888">
<ele>194.3237305</ele>
<time>2010-05-07T11:29:07Z</time>
</trkpt>
<trkpt lat="35.2917425" lon="24.3399907">
<ele>194.8043213</ele>
<time>2010-05-07T11:29:17Z</time>
</trkpt>
<trkpt lat="35.2917099" lon="24.3399106">
<ele>195.2849121</ele>
<time>2010-05-07T11:29:26Z</time>
</trkpt>
<trkpt lat="35.2916890" lon="24.3398355">
<ele>195.2849121</ele>
<time>2010-05-07T11:29:34Z</time>
</trkpt>
<trkpt lat="35.2916638" lon="24.3397408">
<ele>195.7656250</ele>
<time>2010-05-07T11:29:43Z</time>
</trkpt>
<trkpt lat="35.2916551" lon="24.3396481">
<ele>195.2849121</ele>
<time>2010-05-07T11:29:52Z</time>
</trkpt>
<trkpt lat="35.2916485" lon="24.3395463">
<ele>194.8043213</ele>
<time>2010-05-07T11:30:01Z</time>
</trkpt>
<trkpt lat="35.2916405" lon="24.3394357">
<ele>195.7656250</ele>
<time>2010-05-07T11:30:10Z</time>
</trkpt>
<trkpt lat="35.2916358" lon="24.3393775">
<ele>196.2463379</ele>
<time>2010-05-07T11:30:15Z</time>
</trkpt>
<trkpt lat="35.2916389" lon="24.3392579">
<ele>198.1689453</ele>
<time>2010-05-07T11:30:25Z</time>
</trkpt>
<trkpt lat="35.2916425" lon="24.3391616">
<ele>199.6108398</ele>
<time>2010-05-07T11:30:33Z</time>
</trkpt>
<trkpt lat="35.2916480" lon="24.3390599">
<ele>201.5335693</ele>
<time>2010-05-07T11:30:41Z</time>
</trkpt>
<trkpt lat="35.2916489" lon="24.3389745">
<ele>202.4948730</ele>
<time>2010-05-07T11:30:49Z</time>
</trkpt>
<trkpt lat="35.2916243" lon="24.3388763">
<ele>203.9368896</ele>
<time>2010-05-07T11:30:58Z</time>
</trkpt>
<trkpt lat="35.2915988" lon="24.3388091">
<ele>206.8206787</ele>
<time>2010-05-07T11:31:05Z</time>
</trkpt>
<trkpt lat="35.2915517" lon="24.3387554">
<ele>209.7048340</ele>
<time>2010-05-07T11:31:12Z</time>
</trkpt>
<trkpt lat="35.2914857" lon="24.3387046">
<ele>212.1080322</ele>
<time>2010-05-07T11:31:20Z</time>
</trkpt>
<trkpt lat="35.2914488" lon="24.3386385">
<ele>213.0693359</ele>
<time>2010-05-07T11:31:27Z</time>
</trkpt>
<trkpt lat="35.2914419" lon="24.3386320">
<ele>213.5500488</ele>
<time>2010-05-07T11:31:28Z</time>
</trkpt>
<trkpt lat="35.2913907" lon="24.3386088">
<ele>215.9532471</ele>
<time>2010-05-07T11:31:33Z</time>
</trkpt>
<trkpt lat="35.2913212" lon="24.3385452">
<ele>219.7985840</ele>
<time>2010-05-07T11:31:42Z</time>
</trkpt>
<trkpt lat="35.2912794" lon="24.3384504">
<ele>219.3179932</ele>
<time>2010-05-07T11:31:51Z</time>
</trkpt>
<trkpt lat="35.2912499" lon="24.3383641">
<ele>218.3565674</ele>
<time>2010-05-07T11:31:59Z</time>
</trkpt>
<trkpt lat="35.2912390" lon="24.3382842">
<ele>217.8759766</ele>
<time>2010-05-07T11:32:06Z</time>
</trkpt>
<trkpt lat="35.2912354" lon="24.3382166">
<ele>217.8759766</ele>
<time>2010-05-07T11:32:12Z</time>
</trkpt>
<trkpt lat="35.2912349" lon="24.3381450">
<ele>217.8759766</ele>
<time>2010-05-07T11:32:19Z</time>
</trkpt>
<trkpt lat="35.2912276" lon="24.3380597">
<ele>219.7985840</ele>
<time>2010-05-07T11:32:27Z</time>
</trkpt>
<trkpt lat="35.2912167" lon="24.3379875">
<ele>220.7598877</ele>
<time>2010-05-07T11:32:36Z</time>
</trkpt>
<trkpt lat="35.2912053" lon="24.3379064">
<ele>220.7598877</ele>
<time>2010-05-07T11:32:45Z</time>
</trkpt>
<trkpt lat="35.2912030" lon="24.3378923">
<ele>220.7598877</ele>
<time>2010-05-07T11:32:59Z</time>
</trkpt>
<trkpt lat="35.2912121" lon="24.3379070">
<ele>224.1245117</ele>
<time>2010-05-07T11:33:21Z</time>
</trkpt>
<trkpt lat="35.2912106" lon="24.3379079">
<ele>224.1245117</ele>
<time>2010-05-07T11:33:23Z</time>
</trkpt>
</trkseg>
</trk>
</gpx>
